<?xml version="1.0" encoding="UTF-8" standalone="no" ?>
<gpx xmlns="http://www.topografix.com/GPX/1/1" xmlns:xsi="http://www.w3.org/2001/XMLSchema-instance" xsi:schemaLocation="http://www.topografix.com/GPX/1/1 http://www.topografix.com/GPX/1/1/gpx.xsd" version="1.1" creator="VisuGPX - https://www.visugpx.com">
  <metadata>
    <name>BELVOIR</name>
    <desc><![CDATA[Belvoir - Sancey le Long]]></desc>
  </metadata>
  <trk>
    <name><![CDATA[BELVOIR]]></name>
    <trkseg>
      <trkpt lat="47.30303" lon="6.59131">
        <ele>498.6</ele>
        <time>2012-04-12T07:56:54Z</time>
      </trkpt>
      <trkpt lat="47.30303" lon="6.59131">
        <ele>498.6</ele>
        <time>2012-04-12T07:57:05Z</time>
      </trkpt>
      <trkpt lat="47.30303" lon="6.59131">
        <ele>498.6</ele>
        <time>2012-04-12T07:57:48Z</time>
      </trkpt>
      <trkpt lat="47.30303" lon="6.59131">
        <ele>550.9</ele>
        <time>2012-04-12T07:57:53Z</time>
      </trkpt>
      <trkpt lat="47.30303" lon="6.59131">
        <ele>498.6</ele>
        <time>2012-04-12T07:58:05Z</time>
      </trkpt>
      <trkpt lat="47.30303" lon="6.59131">
        <ele>498.6</ele>
        <time>2012-04-12T07:58:07Z</time>
      </trkpt>
      <trkpt lat="47.30312" lon="6.59149">
        <ele>549.7</ele>
        <time>2012-04-12T07:58:17Z</time>
      </trkpt>
      <trkpt lat="47.30313" lon="6.59159">
        <ele>549</ele>
        <time>2012-04-12T07:58:21Z</time>
      </trkpt>
      <trkpt lat="47.30315" lon="6.59169">
        <ele>548.2</ele>
        <time>2012-04-12T07:58:26Z</time>
      </trkpt>
      <trkpt lat="47.30319" lon="6.59177">
        <ele>549.1</ele>
        <time>2012-04-12T07:58:31Z</time>
      </trkpt>
      <trkpt lat="47.30323" lon="6.59184">
        <ele>548.9</ele>
        <time>2012-04-12T07:58:36Z</time>
      </trkpt>
      <trkpt lat="47.30327" lon="6.59193">
        <ele>548.4</ele>
        <time>2012-04-12T07:58:43Z</time>
      </trkpt>
      <trkpt lat="47.30334" lon="6.59193">
        <ele>549</ele>
        <time>2012-04-12T07:58:46Z</time>
      </trkpt>
      <trkpt lat="47.30334" lon="6.59204">
        <ele>547.7</ele>
        <time>2012-04-12T07:58:53Z</time>
      </trkpt>
      <trkpt lat="47.30328" lon="6.59211">
        <ele>547.9</ele>
        <time>2012-04-12T07:58:59Z</time>
      </trkpt>
      <trkpt lat="47.30325" lon="6.5922">
        <ele>545.5</ele>
        <time>2012-04-12T07:59:05Z</time>
      </trkpt>
      <trkpt lat="47.30318" lon="6.59223">
        <ele>547</ele>
        <time>2012-04-12T07:59:13Z</time>
      </trkpt>
      <trkpt lat="47.30312" lon="6.59219">
        <ele>546.9</ele>
        <time>2012-04-12T07:59:17Z</time>
      </trkpt>
      <trkpt lat="47.30306" lon="6.59215">
        <ele>546.7</ele>
        <time>2012-04-12T07:59:22Z</time>
      </trkpt>
      <trkpt lat="47.30306" lon="6.59215">
        <ele>503.4</ele>
        <time>2012-04-12T07:59:34Z</time>
      </trkpt>
      <trkpt lat="47.30306" lon="6.59215">
        <ele>503.4</ele>
        <time>2012-04-12T07:59:35Z</time>
      </trkpt>
      <trkpt lat="47.30294" lon="6.59211">
        <ele>549.1</ele>
        <time>2012-04-12T07:59:38Z</time>
      </trkpt>
      <trkpt lat="47.30289" lon="6.59203">
        <ele>548.9</ele>
        <time>2012-04-12T07:59:43Z</time>
      </trkpt>
      <trkpt lat="47.30283" lon="6.59199">
        <ele>549.3</ele>
        <time>2012-04-12T07:59:48Z</time>
      </trkpt>
      <trkpt lat="47.30276" lon="6.59204">
        <ele>549.9</ele>
        <time>2012-04-12T07:59:53Z</time>
      </trkpt>
      <trkpt lat="47.30276" lon="6.59204">
        <ele>505.4</ele>
        <time>2012-04-12T08:00:05Z</time>
      </trkpt>
      <trkpt lat="47.30276" lon="6.59204">
        <ele>505.4</ele>
        <time>2012-04-12T08:01:02Z</time>
      </trkpt>
      <trkpt lat="47.30285" lon="6.59221">
        <ele>552.9</ele>
        <time>2012-04-12T08:01:07Z</time>
      </trkpt>
      <trkpt lat="47.30288" lon="6.5923">
        <ele>551.3</ele>
        <time>2012-04-12T08:01:11Z</time>
      </trkpt>
      <trkpt lat="47.30289" lon="6.5924">
        <ele>553.2</ele>
        <time>2012-04-12T08:01:19Z</time>
      </trkpt>
      <trkpt lat="47.30293" lon="6.59249">
        <ele>553.8</ele>
        <time>2012-04-12T08:01:24Z</time>
      </trkpt>
      <trkpt lat="47.30297" lon="6.59257">
        <ele>553.7</ele>
        <time>2012-04-12T08:01:31Z</time>
      </trkpt>
      <trkpt lat="47.30295" lon="6.59266">
        <ele>554.5</ele>
        <time>2012-04-12T08:01:38Z</time>
      </trkpt>
      <trkpt lat="47.30291" lon="6.59274">
        <ele>553.9</ele>
        <time>2012-04-12T08:01:44Z</time>
      </trkpt>
      <trkpt lat="47.30285" lon="6.59276">
        <ele>554.6</ele>
        <time>2012-04-12T08:01:51Z</time>
      </trkpt>
      <trkpt lat="47.30277" lon="6.59278">
        <ele>555</ele>
        <time>2012-04-12T08:01:57Z</time>
      </trkpt>
      <trkpt lat="47.30271" lon="6.59281">
        <ele>553.9</ele>
        <time>2012-04-12T08:02:03Z</time>
      </trkpt>
      <trkpt lat="47.30264" lon="6.59285">
        <ele>556.6</ele>
        <time>2012-04-12T08:02:13Z</time>
      </trkpt>
      <trkpt lat="47.30258" lon="6.59292">
        <ele>556.2</ele>
        <time>2012-04-12T08:02:22Z</time>
      </trkpt>
      <trkpt lat="47.30258" lon="6.59292">
        <ele>510.1</ele>
        <time>2012-04-12T08:02:34Z</time>
      </trkpt>
      <trkpt lat="47.30258" lon="6.59292">
        <ele>510.1</ele>
        <time>2012-04-12T08:02:35Z</time>
      </trkpt>
      <trkpt lat="47.30248" lon="6.59306">
        <ele>556</ele>
        <time>2012-04-12T08:02:42Z</time>
      </trkpt>
      <trkpt lat="47.30241" lon="6.5931">
        <ele>557.8</ele>
        <time>2012-04-12T08:02:53Z</time>
      </trkpt>
      <trkpt lat="47.30235" lon="6.59317">
        <ele>559.6</ele>
        <time>2012-04-12T08:03:03Z</time>
      </trkpt>
      <trkpt lat="47.30229" lon="6.59323">
        <ele>561.2</ele>
        <time>2012-04-12T08:03:09Z</time>
      </trkpt>
      <trkpt lat="47.30229" lon="6.59323">
        <ele>514</ele>
        <time>2012-04-12T08:03:21Z</time>
      </trkpt>
      <trkpt lat="47.30229" lon="6.59323">
        <ele>514</ele>
        <time>2012-04-12T08:03:22Z</time>
      </trkpt>
      <trkpt lat="47.30229" lon="6.59323">
        <ele>514</ele>
        <time>2012-04-12T08:03:34Z</time>
      </trkpt>
      <trkpt lat="47.30229" lon="6.59323">
        <ele>514</ele>
        <time>2012-04-12T08:04:11Z</time>
      </trkpt>
      <trkpt lat="47.30223" lon="6.59351">
        <ele>566.9</ele>
        <time>2012-04-12T08:04:15Z</time>
      </trkpt>
      <trkpt lat="47.30223" lon="6.59361">
        <ele>566.8</ele>
        <time>2012-04-12T08:04:20Z</time>
      </trkpt>
      <trkpt lat="47.30221" lon="6.5937">
        <ele>567.3</ele>
        <time>2012-04-12T08:04:30Z</time>
      </trkpt>
      <trkpt lat="47.30217" lon="6.59377">
        <ele>568.3</ele>
        <time>2012-04-12T08:04:36Z</time>
      </trkpt>
      <trkpt lat="47.30217" lon="6.59377">
        <ele>518.7</ele>
        <time>2012-04-12T08:04:48Z</time>
      </trkpt>
      <trkpt lat="47.30217" lon="6.59377">
        <ele>518.7</ele>
        <time>2012-04-12T08:05:07Z</time>
      </trkpt>
      <trkpt lat="47.30203" lon="6.59392">
        <ele>572.5</ele>
        <time>2012-04-12T08:05:11Z</time>
      </trkpt>
      <trkpt lat="47.30198" lon="6.59398">
        <ele>571.2</ele>
        <time>2012-04-12T08:05:18Z</time>
      </trkpt>
      <trkpt lat="47.30192" lon="6.59402">
        <ele>572.2</ele>
        <time>2012-04-12T08:05:24Z</time>
      </trkpt>
      <trkpt lat="47.30189" lon="6.59411">
        <ele>572.7</ele>
        <time>2012-04-12T08:05:35Z</time>
      </trkpt>
      <trkpt lat="47.30184" lon="6.5942">
        <ele>572.4</ele>
        <time>2012-04-12T08:05:45Z</time>
      </trkpt>
      <trkpt lat="47.30184" lon="6.5942">
        <ele>526.4</ele>
        <time>2012-04-12T08:05:57Z</time>
      </trkpt>
      <trkpt lat="47.30184" lon="6.5942">
        <ele>526.4</ele>
        <time>2012-04-12T08:06:19Z</time>
      </trkpt>
      <trkpt lat="47.3017" lon="6.5943">
        <ele>577.1</ele>
        <time>2012-04-12T08:06:23Z</time>
      </trkpt>
      <trkpt lat="47.30165" lon="6.59436">
        <ele>577.9</ele>
        <time>2012-04-12T08:06:29Z</time>
      </trkpt>
      <trkpt lat="47.3016" lon="6.59444">
        <ele>580.2</ele>
        <time>2012-04-12T08:06:34Z</time>
      </trkpt>
      <trkpt lat="47.30154" lon="6.59453">
        <ele>581.4</ele>
        <time>2012-04-12T08:06:42Z</time>
      </trkpt>
      <trkpt lat="47.30154" lon="6.59453">
        <ele>532.2</ele>
        <time>2012-04-12T08:06:53Z</time>
      </trkpt>
      <trkpt lat="47.30154" lon="6.59453">
        <ele>532.2</ele>
        <time>2012-04-12T08:07:10Z</time>
      </trkpt>
      <trkpt lat="47.30142" lon="6.59466">
        <ele>582.3</ele>
        <time>2012-04-12T08:07:13Z</time>
      </trkpt>
      <trkpt lat="47.30138" lon="6.59475">
        <ele>581.8</ele>
        <time>2012-04-12T08:07:17Z</time>
      </trkpt>
      <trkpt lat="47.30132" lon="6.59481">
        <ele>582.1</ele>
        <time>2012-04-12T08:07:22Z</time>
      </trkpt>
      <trkpt lat="47.30126" lon="6.59489">
        <ele>580.2</ele>
        <time>2012-04-12T08:07:29Z</time>
      </trkpt>
      <trkpt lat="47.30121" lon="6.59495">
        <ele>583.1</ele>
        <time>2012-04-12T08:07:36Z</time>
      </trkpt>
      <trkpt lat="47.30114" lon="6.59498">
        <ele>586.5</ele>
        <time>2012-04-12T08:07:43Z</time>
      </trkpt>
      <trkpt lat="47.3011" lon="6.59506">
        <ele>589.2</ele>
        <time>2012-04-12T08:07:51Z</time>
      </trkpt>
      <trkpt lat="47.30106" lon="6.59516">
        <ele>593.7</ele>
        <time>2012-04-12T08:08:01Z</time>
      </trkpt>
      <trkpt lat="47.30106" lon="6.59516">
        <ele>543.8</ele>
        <time>2012-04-12T08:08:13Z</time>
      </trkpt>
      <trkpt lat="47.30106" lon="6.59516">
        <ele>543.8</ele>
        <time>2012-04-12T08:08:58Z</time>
      </trkpt>
      <trkpt lat="47.30096" lon="6.59529">
        <ele>594.1</ele>
        <time>2012-04-12T08:09:01Z</time>
      </trkpt>
      <trkpt lat="47.30091" lon="6.59538">
        <ele>593.9</ele>
        <time>2012-04-12T08:09:08Z</time>
      </trkpt>
      <trkpt lat="47.30087" lon="6.59546">
        <ele>592.9</ele>
        <time>2012-04-12T08:09:12Z</time>
      </trkpt>
      <trkpt lat="47.30087" lon="6.59546">
        <ele>550.2</ele>
        <time>2012-04-12T08:09:24Z</time>
      </trkpt>
      <trkpt lat="47.30087" lon="6.59546">
        <ele>550.2</ele>
        <time>2012-04-12T08:10:14Z</time>
      </trkpt>
      <trkpt lat="47.30074" lon="6.59561">
        <ele>600.6</ele>
        <time>2012-04-12T08:10:18Z</time>
      </trkpt>
      <trkpt lat="47.30068" lon="6.59566">
        <ele>603</ele>
        <time>2012-04-12T08:10:24Z</time>
      </trkpt>
      <trkpt lat="47.30063" lon="6.59572">
        <ele>602.9</ele>
        <time>2012-04-12T08:10:31Z</time>
      </trkpt>
      <trkpt lat="47.30063" lon="6.59572">
        <ele>557</ele>
        <time>2012-04-12T08:10:43Z</time>
      </trkpt>
      <trkpt lat="47.30063" lon="6.59572">
        <ele>557</ele>
        <time>2012-04-12T08:11:04Z</time>
      </trkpt>
      <trkpt lat="47.30063" lon="6.59572">
        <ele>557</ele>
        <time>2012-04-12T08:11:16Z</time>
      </trkpt>
      <trkpt lat="47.30063" lon="6.59572">
        <ele>557</ele>
        <time>2012-04-12T08:11:54Z</time>
      </trkpt>
      <trkpt lat="47.30076" lon="6.59584">
        <ele>607.3</ele>
        <time>2012-04-12T08:11:58Z</time>
      </trkpt>
      <trkpt lat="47.30081" lon="6.59595">
        <ele>611.6</ele>
        <time>2012-04-12T08:12:07Z</time>
      </trkpt>
      <trkpt lat="47.30081" lon="6.59595">
        <ele>558.5</ele>
        <time>2012-04-12T08:12:19Z</time>
      </trkpt>
      <trkpt lat="47.30081" lon="6.59595">
        <ele>558.5</ele>
        <time>2012-04-12T08:13:18Z</time>
      </trkpt>
      <trkpt lat="47.30093" lon="6.59605">
        <ele>617.7</ele>
        <time>2012-04-12T08:13:27Z</time>
      </trkpt>
      <trkpt lat="47.30093" lon="6.59605">
        <ele>558.2</ele>
        <time>2012-04-12T08:13:38Z</time>
      </trkpt>
      <trkpt lat="47.30093" lon="6.59605">
        <ele>558.2</ele>
        <time>2012-04-12T08:15:23Z</time>
      </trkpt>
      <trkpt lat="47.30107" lon="6.59615">
        <ele>618.5</ele>
        <time>2012-04-12T08:15:27Z</time>
      </trkpt>
      <trkpt lat="47.30124" lon="6.59624">
        <ele>616.9</ele>
        <time>2012-04-12T08:15:30Z</time>
      </trkpt>
      <trkpt lat="47.30128" lon="6.59633">
        <ele>615.5</ele>
        <time>2012-04-12T08:15:39Z</time>
      </trkpt>
      <trkpt lat="47.30128" lon="6.59633">
        <ele>558</ele>
        <time>2012-04-12T08:15:51Z</time>
      </trkpt>
      <trkpt lat="47.30128" lon="6.59633">
        <ele>558</ele>
        <time>2012-04-12T08:16:12Z</time>
      </trkpt>
      <trkpt lat="47.30153" lon="6.5966">
        <ele>603.8</ele>
        <time>2012-04-12T08:16:17Z</time>
      </trkpt>
      <trkpt lat="47.30154" lon="6.59669">
        <ele>605.8</ele>
        <time>2012-04-12T08:16:22Z</time>
      </trkpt>
      <trkpt lat="47.30157" lon="6.59677">
        <ele>606.2</ele>
        <time>2012-04-12T08:16:29Z</time>
      </trkpt>
      <trkpt lat="47.30157" lon="6.59677">
        <ele>558.5</ele>
        <time>2012-04-12T08:16:41Z</time>
      </trkpt>
      <trkpt lat="47.30157" lon="6.59677">
        <ele>558.5</ele>
        <time>2012-04-12T08:17:10Z</time>
      </trkpt>
      <trkpt lat="47.30161" lon="6.59697">
        <ele>610.6</ele>
        <time>2012-04-12T08:17:15Z</time>
      </trkpt>
      <trkpt lat="47.30161" lon="6.59697">
        <ele>560.1</ele>
        <time>2012-04-12T08:17:27Z</time>
      </trkpt>
      <trkpt lat="47.30161" lon="6.59697">
        <ele>560.1</ele>
        <time>2012-04-12T08:17:27Z</time>
      </trkpt>
      <trkpt lat="47.3017" lon="6.59712">
        <ele>614.8</ele>
        <time>2012-04-12T08:17:36Z</time>
      </trkpt>
      <trkpt lat="47.30173" lon="6.59722">
        <ele>613.1</ele>
        <time>2012-04-12T08:17:42Z</time>
      </trkpt>
      <trkpt lat="47.30175" lon="6.59732">
        <ele>613.5</ele>
        <time>2012-04-12T08:17:47Z</time>
      </trkpt>
      <trkpt lat="47.30175" lon="6.59742">
        <ele>615.6</ele>
        <time>2012-04-12T08:17:56Z</time>
      </trkpt>
      <trkpt lat="47.30175" lon="6.59742">
        <ele>561.5</ele>
        <time>2012-04-12T08:18:08Z</time>
      </trkpt>
      <trkpt lat="47.30175" lon="6.59742">
        <ele>561.5</ele>
        <time>2012-04-12T08:18:16Z</time>
      </trkpt>
      <trkpt lat="47.30179" lon="6.5976">
        <ele>616.4</ele>
        <time>2012-04-12T08:18:20Z</time>
      </trkpt>
      <trkpt lat="47.30181" lon="6.5977">
        <ele>614.9</ele>
        <time>2012-04-12T08:18:25Z</time>
      </trkpt>
      <trkpt lat="47.30184" lon="6.59779">
        <ele>616.2</ele>
        <time>2012-04-12T08:18:35Z</time>
      </trkpt>
      <trkpt lat="47.30186" lon="6.59789">
        <ele>617.1</ele>
        <time>2012-04-12T08:18:40Z</time>
      </trkpt>
      <trkpt lat="47.30191" lon="6.59796">
        <ele>617.3</ele>
        <time>2012-04-12T08:18:46Z</time>
      </trkpt>
      <trkpt lat="47.30195" lon="6.59805">
        <ele>617.9</ele>
        <time>2012-04-12T08:18:51Z</time>
      </trkpt>
      <trkpt lat="47.30195" lon="6.59816">
        <ele>616.6</ele>
        <time>2012-04-12T08:19:00Z</time>
      </trkpt>
      <trkpt lat="47.30192" lon="6.59825">
        <ele>614.1</ele>
        <time>2012-04-12T08:19:08Z</time>
      </trkpt>
      <trkpt lat="47.30192" lon="6.59825">
        <ele>562.3</ele>
        <time>2012-04-12T08:19:20Z</time>
      </trkpt>
      <trkpt lat="47.30192" lon="6.59825">
        <ele>562.3</ele>
        <time>2012-04-12T08:19:31Z</time>
      </trkpt>
      <trkpt lat="47.30192" lon="6.59825">
        <ele>562.3</ele>
        <time>2012-04-12T08:19:43Z</time>
      </trkpt>
      <trkpt lat="47.30192" lon="6.59825">
        <ele>562.3</ele>
        <time>2012-04-12T08:19:50Z</time>
      </trkpt>
      <trkpt lat="47.30192" lon="6.59825">
        <ele>562.3</ele>
        <time>2012-04-12T08:20:02Z</time>
      </trkpt>
      <trkpt lat="47.30192" lon="6.59825">
        <ele>562.3</ele>
        <time>2012-04-12T08:20:03Z</time>
      </trkpt>
      <trkpt lat="47.30192" lon="6.59825">
        <ele>562.3</ele>
        <time>2012-04-12T08:20:14Z</time>
      </trkpt>
      <trkpt lat="47.30192" lon="6.59825">
        <ele>562.3</ele>
        <time>2012-04-12T08:20:15Z</time>
      </trkpt>
      <trkpt lat="47.30226" lon="6.59852">
        <ele>611.1</ele>
        <time>2012-04-12T08:20:17Z</time>
      </trkpt>
      <trkpt lat="47.30228" lon="6.59862">
        <ele>607.9</ele>
        <time>2012-04-12T08:20:22Z</time>
      </trkpt>
      <trkpt lat="47.3023" lon="6.59872">
        <ele>605.6</ele>
        <time>2012-04-12T08:20:30Z</time>
      </trkpt>
      <trkpt lat="47.30226" lon="6.59881">
        <ele>603.9</ele>
        <time>2012-04-12T08:20:37Z</time>
      </trkpt>
      <trkpt lat="47.30226" lon="6.59881">
        <ele>550.6</ele>
        <time>2012-04-12T08:20:49Z</time>
      </trkpt>
      <trkpt lat="47.30226" lon="6.59881">
        <ele>550.6</ele>
        <time>2012-04-12T08:22:00Z</time>
      </trkpt>
      <trkpt lat="47.30234" lon="6.59899">
        <ele>600.7</ele>
        <time>2012-04-12T08:22:06Z</time>
      </trkpt>
      <trkpt lat="47.30233" lon="6.5991">
        <ele>599.3</ele>
        <time>2012-04-12T08:22:11Z</time>
      </trkpt>
      <trkpt lat="47.3023" lon="6.59918">
        <ele>599.8</ele>
        <time>2012-04-12T08:22:16Z</time>
      </trkpt>
      <trkpt lat="47.3023" lon="6.59928">
        <ele>602.7</ele>
        <time>2012-04-12T08:22:24Z</time>
      </trkpt>
      <trkpt lat="47.30232" lon="6.59937">
        <ele>603.5</ele>
        <time>2012-04-12T08:22:31Z</time>
      </trkpt>
      <trkpt lat="47.30236" lon="6.59945">
        <ele>602.9</ele>
        <time>2012-04-12T08:22:42Z</time>
      </trkpt>
      <trkpt lat="47.30236" lon="6.59945">
        <ele>547.1</ele>
        <time>2012-04-12T08:22:54Z</time>
      </trkpt>
      <trkpt lat="47.30236" lon="6.59945">
        <ele>547.1</ele>
        <time>2012-04-12T08:22:55Z</time>
      </trkpt>
      <trkpt lat="47.30236" lon="6.59945">
        <ele>547.1</ele>
        <time>2012-04-12T08:23:07Z</time>
      </trkpt>
      <trkpt lat="47.30236" lon="6.59945">
        <ele>547.1</ele>
        <time>2012-04-12T08:23:08Z</time>
      </trkpt>
      <trkpt lat="47.30237" lon="6.59973">
        <ele>603.9</ele>
        <time>2012-04-12T08:23:12Z</time>
      </trkpt>
      <trkpt lat="47.30238" lon="6.59983">
        <ele>603.1</ele>
        <time>2012-04-12T08:23:17Z</time>
      </trkpt>
      <trkpt lat="47.30241" lon="6.59992">
        <ele>604.2</ele>
        <time>2012-04-12T08:23:25Z</time>
      </trkpt>
      <trkpt lat="47.30237" lon="6.59999">
        <ele>601.3</ele>
        <time>2012-04-12T08:23:29Z</time>
      </trkpt>
      <trkpt lat="47.30239" lon="6.60008">
        <ele>601.9</ele>
        <time>2012-04-12T08:23:36Z</time>
      </trkpt>
      <trkpt lat="47.30239" lon="6.60008">
        <ele>543.6</ele>
        <time>2012-04-12T08:23:47Z</time>
      </trkpt>
      <trkpt lat="47.30239" lon="6.60008">
        <ele>543.6</ele>
        <time>2012-04-12T08:23:59Z</time>
      </trkpt>
      <trkpt lat="47.30239" lon="6.60008">
        <ele>543.6</ele>
        <time>2012-04-12T08:24:11Z</time>
      </trkpt>
      <trkpt lat="47.30239" lon="6.60008">
        <ele>543.6</ele>
        <time>2012-04-12T08:24:17Z</time>
      </trkpt>
      <trkpt lat="47.30239" lon="6.60008">
        <ele>543.6</ele>
        <time>2012-04-12T08:24:29Z</time>
      </trkpt>
      <trkpt lat="47.30239" lon="6.60008">
        <ele>543.6</ele>
        <time>2012-04-12T08:24:35Z</time>
      </trkpt>
      <trkpt lat="47.30239" lon="6.60008">
        <ele>543.6</ele>
        <time>2012-04-12T08:24:47Z</time>
      </trkpt>
      <trkpt lat="47.30239" lon="6.60008">
        <ele>543.6</ele>
        <time>2012-04-12T08:25:12Z</time>
      </trkpt>
      <trkpt lat="47.30268" lon="6.60025">
        <ele>593.2</ele>
        <time>2012-04-12T08:25:18Z</time>
      </trkpt>
      <trkpt lat="47.30267" lon="6.60034">
        <ele>593.4</ele>
        <time>2012-04-12T08:25:25Z</time>
      </trkpt>
      <trkpt lat="47.30265" lon="6.60043">
        <ele>592</ele>
        <time>2012-04-12T08:25:34Z</time>
      </trkpt>
      <trkpt lat="47.30265" lon="6.60043">
        <ele>533.9</ele>
        <time>2012-04-12T08:25:46Z</time>
      </trkpt>
      <trkpt lat="47.30265" lon="6.60043">
        <ele>533.9</ele>
        <time>2012-04-12T08:26:16Z</time>
      </trkpt>
      <trkpt lat="47.30264" lon="6.60066">
        <ele>594</ele>
        <time>2012-04-12T08:26:21Z</time>
      </trkpt>
      <trkpt lat="47.30258" lon="6.6007">
        <ele>591.1</ele>
        <time>2012-04-12T08:26:25Z</time>
      </trkpt>
      <trkpt lat="47.30258" lon="6.6007">
        <ele>534.8</ele>
        <time>2012-04-12T08:26:37Z</time>
      </trkpt>
      <trkpt lat="47.30258" lon="6.6007">
        <ele>534.8</ele>
        <time>2012-04-12T08:26:37Z</time>
      </trkpt>
      <trkpt lat="47.30257" lon="6.60086">
        <ele>591.5</ele>
        <time>2012-04-12T08:26:45Z</time>
      </trkpt>
      <trkpt lat="47.30251" lon="6.60089">
        <ele>590.5</ele>
        <time>2012-04-12T08:26:52Z</time>
      </trkpt>
      <trkpt lat="47.30251" lon="6.60089">
        <ele>535.5</ele>
        <time>2012-04-12T08:27:04Z</time>
      </trkpt>
      <trkpt lat="47.30251" lon="6.60089">
        <ele>535.5</ele>
        <time>2012-04-12T08:27:07Z</time>
      </trkpt>
      <trkpt lat="47.30266" lon="6.60088">
        <ele>590.3</ele>
        <time>2012-04-12T08:27:10Z</time>
      </trkpt>
      <trkpt lat="47.30266" lon="6.60088">
        <ele>531.8</ele>
        <time>2012-04-12T08:27:22Z</time>
      </trkpt>
      <trkpt lat="47.30266" lon="6.60088">
        <ele>531.8</ele>
        <time>2012-04-12T08:27:57Z</time>
      </trkpt>
      <trkpt lat="47.30251" lon="6.601">
        <ele>590</ele>
        <time>2012-04-12T08:28:05Z</time>
      </trkpt>
      <trkpt lat="47.30247" lon="6.60108">
        <ele>593</ele>
        <time>2012-04-12T08:28:10Z</time>
      </trkpt>
      <trkpt lat="47.30243" lon="6.60115">
        <ele>592.1</ele>
        <time>2012-04-12T08:28:16Z</time>
      </trkpt>
      <trkpt lat="47.30244" lon="6.60125">
        <ele>593.9</ele>
        <time>2012-04-12T08:28:22Z</time>
      </trkpt>
      <trkpt lat="47.30239" lon="6.60133">
        <ele>593.6</ele>
        <time>2012-04-12T08:28:27Z</time>
      </trkpt>
      <trkpt lat="47.30236" lon="6.60142">
        <ele>593.9</ele>
        <time>2012-04-12T08:28:34Z</time>
      </trkpt>
      <trkpt lat="47.3023" lon="6.60151">
        <ele>594.6</ele>
        <time>2012-04-12T08:28:41Z</time>
      </trkpt>
      <trkpt lat="47.30228" lon="6.6016">
        <ele>594.8</ele>
        <time>2012-04-12T08:28:48Z</time>
      </trkpt>
      <trkpt lat="47.30224" lon="6.60169">
        <ele>591.1</ele>
        <time>2012-04-12T08:28:56Z</time>
      </trkpt>
      <trkpt lat="47.30224" lon="6.60178">
        <ele>591.9</ele>
        <time>2012-04-12T08:29:03Z</time>
      </trkpt>
      <trkpt lat="47.30218" lon="6.60185">
        <ele>591.2</ele>
        <time>2012-04-12T08:29:07Z</time>
      </trkpt>
      <trkpt lat="47.30217" lon="6.60195">
        <ele>590</ele>
        <time>2012-04-12T08:29:15Z</time>
      </trkpt>
      <trkpt lat="47.30213" lon="6.60203">
        <ele>590.1</ele>
        <time>2012-04-12T08:29:24Z</time>
      </trkpt>
      <trkpt lat="47.3021" lon="6.60212">
        <ele>586.5</ele>
        <time>2012-04-12T08:29:30Z</time>
      </trkpt>
      <trkpt lat="47.30206" lon="6.60219">
        <ele>585.6</ele>
        <time>2012-04-12T08:29:36Z</time>
      </trkpt>
      <trkpt lat="47.30203" lon="6.6023">
        <ele>585.9</ele>
        <time>2012-04-12T08:29:44Z</time>
      </trkpt>
      <trkpt lat="47.30199" lon="6.60237">
        <ele>586.2</ele>
        <time>2012-04-12T08:29:53Z</time>
      </trkpt>
      <trkpt lat="47.30199" lon="6.60237">
        <ele>541.1</ele>
        <time>2012-04-12T08:30:05Z</time>
      </trkpt>
      <trkpt lat="47.30199" lon="6.60237">
        <ele>541.1</ele>
        <time>2012-04-12T08:30:22Z</time>
      </trkpt>
      <trkpt lat="47.30194" lon="6.60254">
        <ele>586.3</ele>
        <time>2012-04-12T08:30:25Z</time>
      </trkpt>
      <trkpt lat="47.3019" lon="6.60262">
        <ele>587.5</ele>
        <time>2012-04-12T08:30:31Z</time>
      </trkpt>
      <trkpt lat="47.3019" lon="6.60262">
        <ele>541.4</ele>
        <time>2012-04-12T08:30:43Z</time>
      </trkpt>
      <trkpt lat="47.3019" lon="6.60262">
        <ele>541.4</ele>
        <time>2012-04-12T08:30:50Z</time>
      </trkpt>
      <trkpt lat="47.30185" lon="6.60282">
        <ele>590.5</ele>
        <time>2012-04-12T08:30:54Z</time>
      </trkpt>
      <trkpt lat="47.3018" lon="6.60291">
        <ele>591.8</ele>
        <time>2012-04-12T08:30:58Z</time>
      </trkpt>
      <trkpt lat="47.30175" lon="6.60298">
        <ele>589.3</ele>
        <time>2012-04-12T08:31:01Z</time>
      </trkpt>
      <trkpt lat="47.30173" lon="6.60309">
        <ele>589.5</ele>
        <time>2012-04-12T08:31:09Z</time>
      </trkpt>
      <trkpt lat="47.3017" lon="6.60319">
        <ele>592</ele>
        <time>2012-04-12T08:31:19Z</time>
      </trkpt>
      <trkpt lat="47.30168" lon="6.60328">
        <ele>596</ele>
        <time>2012-04-12T08:31:27Z</time>
      </trkpt>
      <trkpt lat="47.30164" lon="6.60336">
        <ele>594.7</ele>
        <time>2012-04-12T08:31:32Z</time>
      </trkpt>
      <trkpt lat="47.30159" lon="6.60342">
        <ele>595.5</ele>
        <time>2012-04-12T08:31:40Z</time>
      </trkpt>
      <trkpt lat="47.30159" lon="6.60342">
        <ele>540.7</ele>
        <time>2012-04-12T08:31:52Z</time>
      </trkpt>
      <trkpt lat="47.30159" lon="6.60342">
        <ele>540.7</ele>
        <time>2012-04-12T08:31:53Z</time>
      </trkpt>
      <trkpt lat="47.30149" lon="6.60354">
        <ele>598.8</ele>
        <time>2012-04-12T08:32:01Z</time>
      </trkpt>
      <trkpt lat="47.30146" lon="6.60363">
        <ele>597.3</ele>
        <time>2012-04-12T08:32:09Z</time>
      </trkpt>
      <trkpt lat="47.30146" lon="6.60363">
        <ele>541</ele>
        <time>2012-04-12T08:32:21Z</time>
      </trkpt>
      <trkpt lat="47.30146" lon="6.60363">
        <ele>541</ele>
        <time>2012-04-12T08:32:24Z</time>
      </trkpt>
      <trkpt lat="47.30137" lon="6.60377">
        <ele>601.2</ele>
        <time>2012-04-12T08:32:34Z</time>
      </trkpt>
      <trkpt lat="47.30128" lon="6.60382">
        <ele>601.2</ele>
        <time>2012-04-12T08:32:38Z</time>
      </trkpt>
      <trkpt lat="47.30124" lon="6.60389">
        <ele>602.3</ele>
        <time>2012-04-12T08:32:47Z</time>
      </trkpt>
      <trkpt lat="47.30119" lon="6.60396">
        <ele>604.3</ele>
        <time>2012-04-12T08:32:55Z</time>
      </trkpt>
      <trkpt lat="47.30114" lon="6.60403">
        <ele>603.4</ele>
        <time>2012-04-12T08:33:00Z</time>
      </trkpt>
      <trkpt lat="47.3011" lon="6.6041">
        <ele>603.6</ele>
        <time>2012-04-12T08:33:10Z</time>
      </trkpt>
      <trkpt lat="47.30101" lon="6.60412">
        <ele>602.6</ele>
        <time>2012-04-12T08:33:16Z</time>
      </trkpt>
      <trkpt lat="47.30094" lon="6.60413">
        <ele>600.8</ele>
        <time>2012-04-12T08:33:20Z</time>
      </trkpt>
      <trkpt lat="47.30088" lon="6.60418">
        <ele>600.1</ele>
        <time>2012-04-12T08:33:26Z</time>
      </trkpt>
      <trkpt lat="47.30083" lon="6.60427">
        <ele>600.5</ele>
        <time>2012-04-12T08:33:35Z</time>
      </trkpt>
      <trkpt lat="47.30077" lon="6.6043">
        <ele>600.9</ele>
        <time>2012-04-12T08:33:45Z</time>
      </trkpt>
      <trkpt lat="47.30072" lon="6.60437">
        <ele>603.2</ele>
        <time>2012-04-12T08:33:51Z</time>
      </trkpt>
      <trkpt lat="47.30069" lon="6.60445">
        <ele>603.9</ele>
        <time>2012-04-12T08:33:58Z</time>
      </trkpt>
      <trkpt lat="47.30066" lon="6.60454">
        <ele>604.6</ele>
        <time>2012-04-12T08:34:04Z</time>
      </trkpt>
      <trkpt lat="47.30059" lon="6.60456">
        <ele>603.9</ele>
        <time>2012-04-12T08:34:10Z</time>
      </trkpt>
      <trkpt lat="47.30055" lon="6.60463">
        <ele>602.9</ele>
        <time>2012-04-12T08:34:17Z</time>
      </trkpt>
      <trkpt lat="47.30055" lon="6.60463">
        <ele>541.1</ele>
        <time>2012-04-12T08:34:29Z</time>
      </trkpt>
      <trkpt lat="47.30055" lon="6.60463">
        <ele>541.1</ele>
        <time>2012-04-12T08:34:45Z</time>
      </trkpt>
      <trkpt lat="47.30041" lon="6.60471">
        <ele>607.6</ele>
        <time>2012-04-12T08:34:48Z</time>
      </trkpt>
      <trkpt lat="47.30034" lon="6.60469">
        <ele>605.8</ele>
        <time>2012-04-12T08:34:51Z</time>
      </trkpt>
      <trkpt lat="47.30026" lon="6.60472">
        <ele>605.1</ele>
        <time>2012-04-12T08:34:55Z</time>
      </trkpt>
      <trkpt lat="47.30019" lon="6.60477">
        <ele>603.2</ele>
        <time>2012-04-12T08:34:58Z</time>
      </trkpt>
      <trkpt lat="47.30013" lon="6.60482">
        <ele>602.9</ele>
        <time>2012-04-12T08:35:02Z</time>
      </trkpt>
      <trkpt lat="47.30005" lon="6.60482">
        <ele>602.3</ele>
        <time>2012-04-12T08:35:05Z</time>
      </trkpt>
      <trkpt lat="47.29998" lon="6.60485">
        <ele>601.1</ele>
        <time>2012-04-12T08:35:12Z</time>
      </trkpt>
      <trkpt lat="47.29991" lon="6.60486">
        <ele>603</ele>
        <time>2012-04-12T08:35:18Z</time>
      </trkpt>
      <trkpt lat="47.29984" lon="6.6049">
        <ele>601.2</ele>
        <time>2012-04-12T08:35:25Z</time>
      </trkpt>
      <trkpt lat="47.29977" lon="6.60492">
        <ele>599.6</ele>
        <time>2012-04-12T08:35:33Z</time>
      </trkpt>
      <trkpt lat="47.2997" lon="6.60495">
        <ele>600.7</ele>
        <time>2012-04-12T08:35:39Z</time>
      </trkpt>
      <trkpt lat="47.29964" lon="6.60497">
        <ele>599.1</ele>
        <time>2012-04-12T08:35:45Z</time>
      </trkpt>
      <trkpt lat="47.29959" lon="6.60503">
        <ele>600.1</ele>
        <time>2012-04-12T08:35:51Z</time>
      </trkpt>
      <trkpt lat="47.29955" lon="6.60513">
        <ele>603</ele>
        <time>2012-04-12T08:35:57Z</time>
      </trkpt>
      <trkpt lat="47.29949" lon="6.60515">
        <ele>603.9</ele>
        <time>2012-04-12T08:36:03Z</time>
      </trkpt>
      <trkpt lat="47.29944" lon="6.60522">
        <ele>602.1</ele>
        <time>2012-04-12T08:36:10Z</time>
      </trkpt>
      <trkpt lat="47.29937" lon="6.60528">
        <ele>601.7</ele>
        <time>2012-04-12T08:36:17Z</time>
      </trkpt>
      <trkpt lat="47.2993" lon="6.60534">
        <ele>600.4</ele>
        <time>2012-04-12T08:36:25Z</time>
      </trkpt>
      <trkpt lat="47.29924" lon="6.60535">
        <ele>602</ele>
        <time>2012-04-12T08:36:33Z</time>
      </trkpt>
      <trkpt lat="47.29924" lon="6.60535">
        <ele>546</ele>
        <time>2012-04-12T08:36:45Z</time>
      </trkpt>
      <trkpt lat="47.29924" lon="6.60535">
        <ele>546</ele>
        <time>2012-04-12T08:36:45Z</time>
      </trkpt>
      <trkpt lat="47.29924" lon="6.60535">
        <ele>546</ele>
        <time>2012-04-12T08:36:57Z</time>
      </trkpt>
      <trkpt lat="47.29924" lon="6.60535">
        <ele>546</ele>
        <time>2012-04-12T08:36:58Z</time>
      </trkpt>
      <trkpt lat="47.29924" lon="6.60535">
        <ele>546</ele>
        <time>2012-04-12T08:37:10Z</time>
      </trkpt>
      <trkpt lat="47.29924" lon="6.60535">
        <ele>546</ele>
        <time>2012-04-12T08:37:13Z</time>
      </trkpt>
      <trkpt lat="47.29899" lon="6.60541">
        <ele>603.8</ele>
        <time>2012-04-12T08:37:21Z</time>
      </trkpt>
      <trkpt lat="47.29899" lon="6.60541">
        <ele>548.3</ele>
        <time>2012-04-12T08:37:33Z</time>
      </trkpt>
      <trkpt lat="47.29899" lon="6.60541">
        <ele>548.3</ele>
        <time>2012-04-12T08:37:35Z</time>
      </trkpt>
      <trkpt lat="47.29882" lon="6.60552">
        <ele>609.1</ele>
        <time>2012-04-12T08:37:39Z</time>
      </trkpt>
      <trkpt lat="47.29876" lon="6.60556">
        <ele>610.7</ele>
        <time>2012-04-12T08:37:42Z</time>
      </trkpt>
      <trkpt lat="47.29868" lon="6.60559">
        <ele>608.2</ele>
        <time>2012-04-12T08:37:46Z</time>
      </trkpt>
      <trkpt lat="47.29862" lon="6.60564">
        <ele>608.6</ele>
        <time>2012-04-12T08:37:51Z</time>
      </trkpt>
      <trkpt lat="47.29856" lon="6.60568">
        <ele>607.9</ele>
        <time>2012-04-12T08:37:57Z</time>
      </trkpt>
      <trkpt lat="47.2985" lon="6.60572">
        <ele>607.8</ele>
        <time>2012-04-12T08:38:02Z</time>
      </trkpt>
      <trkpt lat="47.29844" lon="6.60573">
        <ele>605.8</ele>
        <time>2012-04-12T08:38:09Z</time>
      </trkpt>
      <trkpt lat="47.29836" lon="6.60573">
        <ele>607</ele>
        <time>2012-04-12T08:38:15Z</time>
      </trkpt>
      <trkpt lat="47.2983" lon="6.60575">
        <ele>606.6</ele>
        <time>2012-04-12T08:38:21Z</time>
      </trkpt>
      <trkpt lat="47.29823" lon="6.60579">
        <ele>607.1</ele>
        <time>2012-04-12T08:38:32Z</time>
      </trkpt>
      <trkpt lat="47.29817" lon="6.60581">
        <ele>606.4</ele>
        <time>2012-04-12T08:38:36Z</time>
      </trkpt>
      <trkpt lat="47.29811" lon="6.60583">
        <ele>607.2</ele>
        <time>2012-04-12T08:38:42Z</time>
      </trkpt>
      <trkpt lat="47.29804" lon="6.60585">
        <ele>607.6</ele>
        <time>2012-04-12T08:38:49Z</time>
      </trkpt>
      <trkpt lat="47.29797" lon="6.60591">
        <ele>608.2</ele>
        <time>2012-04-12T08:38:55Z</time>
      </trkpt>
      <trkpt lat="47.29791" lon="6.60598">
        <ele>607.8</ele>
        <time>2012-04-12T08:39:03Z</time>
      </trkpt>
      <trkpt lat="47.29785" lon="6.60605">
        <ele>608.7</ele>
        <time>2012-04-12T08:39:07Z</time>
      </trkpt>
      <trkpt lat="47.29779" lon="6.60609">
        <ele>607.5</ele>
        <time>2012-04-12T08:39:13Z</time>
      </trkpt>
      <trkpt lat="47.29774" lon="6.60616">
        <ele>607.2</ele>
        <time>2012-04-12T08:39:20Z</time>
      </trkpt>
      <trkpt lat="47.29767" lon="6.60616">
        <ele>606.3</ele>
        <time>2012-04-12T08:39:28Z</time>
      </trkpt>
      <trkpt lat="47.29761" lon="6.60621">
        <ele>605.9</ele>
        <time>2012-04-12T08:39:38Z</time>
      </trkpt>
      <trkpt lat="47.29756" lon="6.60627">
        <ele>604.7</ele>
        <time>2012-04-12T08:39:41Z</time>
      </trkpt>
      <trkpt lat="47.29749" lon="6.60625">
        <ele>601</ele>
        <time>2012-04-12T08:39:49Z</time>
      </trkpt>
      <trkpt lat="47.29746" lon="6.60616">
        <ele>599.5</ele>
        <time>2012-04-12T08:39:56Z</time>
      </trkpt>
      <trkpt lat="47.29738" lon="6.60621">
        <ele>599.5</ele>
        <time>2012-04-12T08:39:59Z</time>
      </trkpt>
      <trkpt lat="47.29738" lon="6.60621">
        <ele>545.9</ele>
        <time>2012-04-12T08:40:11Z</time>
      </trkpt>
      <trkpt lat="47.29738" lon="6.60621">
        <ele>545.9</ele>
        <time>2012-04-12T08:40:21Z</time>
      </trkpt>
      <trkpt lat="47.29738" lon="6.60621">
        <ele>545.9</ele>
        <time>2012-04-12T08:40:33Z</time>
      </trkpt>
      <trkpt lat="47.29738" lon="6.60621">
        <ele>545.9</ele>
        <time>2012-04-12T08:40:35Z</time>
      </trkpt>
      <trkpt lat="47.2974" lon="6.6065">
        <ele>594.5</ele>
        <time>2012-04-12T08:40:45Z</time>
      </trkpt>
      <trkpt lat="47.29734" lon="6.60656">
        <ele>593.6</ele>
        <time>2012-04-12T08:40:50Z</time>
      </trkpt>
      <trkpt lat="47.29732" lon="6.60665">
        <ele>593.7</ele>
        <time>2012-04-12T08:40:55Z</time>
      </trkpt>
      <trkpt lat="47.29734" lon="6.60675">
        <ele>595.2</ele>
        <time>2012-04-12T08:40:59Z</time>
      </trkpt>
      <trkpt lat="47.2973" lon="6.60683">
        <ele>597.9</ele>
        <time>2012-04-12T08:41:04Z</time>
      </trkpt>
      <trkpt lat="47.29729" lon="6.60693">
        <ele>598.1</ele>
        <time>2012-04-12T08:41:09Z</time>
      </trkpt>
      <trkpt lat="47.29723" lon="6.60699">
        <ele>598.1</ele>
        <time>2012-04-12T08:41:12Z</time>
      </trkpt>
      <trkpt lat="47.29723" lon="6.6071">
        <ele>597.9</ele>
        <time>2012-04-12T08:41:19Z</time>
      </trkpt>
      <trkpt lat="47.29723" lon="6.6071">
        <ele>537.2</ele>
        <time>2012-04-12T08:41:31Z</time>
      </trkpt>
      <trkpt lat="47.29723" lon="6.6071">
        <ele>537.2</ele>
        <time>2012-04-12T08:41:38Z</time>
      </trkpt>
      <trkpt lat="47.29723" lon="6.60732">
        <ele>602</ele>
        <time>2012-04-12T08:41:45Z</time>
      </trkpt>
      <trkpt lat="47.29718" lon="6.60738">
        <ele>599.9</ele>
        <time>2012-04-12T08:41:51Z</time>
      </trkpt>
      <trkpt lat="47.29717" lon="6.60749">
        <ele>602.2</ele>
        <time>2012-04-12T08:41:55Z</time>
      </trkpt>
      <trkpt lat="47.29712" lon="6.60755">
        <ele>601.1</ele>
        <time>2012-04-12T08:42:01Z</time>
      </trkpt>
      <trkpt lat="47.29709" lon="6.60766">
        <ele>599.4</ele>
        <time>2012-04-12T08:42:07Z</time>
      </trkpt>
      <trkpt lat="47.29704" lon="6.60774">
        <ele>598.7</ele>
        <time>2012-04-12T08:42:15Z</time>
      </trkpt>
      <trkpt lat="47.29699" lon="6.60781">
        <ele>599.4</ele>
        <time>2012-04-12T08:42:22Z</time>
      </trkpt>
      <trkpt lat="47.29696" lon="6.6079">
        <ele>600.4</ele>
        <time>2012-04-12T08:42:26Z</time>
      </trkpt>
      <trkpt lat="47.2969" lon="6.60799">
        <ele>598.7</ele>
        <time>2012-04-12T08:42:34Z</time>
      </trkpt>
      <trkpt lat="47.29683" lon="6.60806">
        <ele>597.7</ele>
        <time>2012-04-12T08:42:40Z</time>
      </trkpt>
      <trkpt lat="47.29679" lon="6.60813">
        <ele>595.5</ele>
        <time>2012-04-12T08:42:50Z</time>
      </trkpt>
      <trkpt lat="47.29673" lon="6.60819">
        <ele>595.4</ele>
        <time>2012-04-12T08:42:55Z</time>
      </trkpt>
      <trkpt lat="47.29671" lon="6.6083">
        <ele>594.6</ele>
        <time>2012-04-12T08:43:06Z</time>
      </trkpt>
      <trkpt lat="47.29666" lon="6.60837">
        <ele>593.7</ele>
        <time>2012-04-12T08:43:11Z</time>
      </trkpt>
      <trkpt lat="47.2966" lon="6.60842">
        <ele>594.1</ele>
        <time>2012-04-12T08:43:15Z</time>
      </trkpt>
      <trkpt lat="47.29656" lon="6.60849">
        <ele>595.5</ele>
        <time>2012-04-12T08:43:20Z</time>
      </trkpt>
      <trkpt lat="47.29653" lon="6.60858">
        <ele>596.6</ele>
        <time>2012-04-12T08:43:28Z</time>
      </trkpt>
      <trkpt lat="47.29647" lon="6.60863">
        <ele>595.2</ele>
        <time>2012-04-12T08:43:34Z</time>
      </trkpt>
      <trkpt lat="47.2964" lon="6.60869">
        <ele>592.2</ele>
        <time>2012-04-12T08:43:40Z</time>
      </trkpt>
      <trkpt lat="47.29634" lon="6.60873">
        <ele>590.2</ele>
        <time>2012-04-12T08:43:48Z</time>
      </trkpt>
      <trkpt lat="47.29629" lon="6.6088">
        <ele>588.6</ele>
        <time>2012-04-12T08:43:55Z</time>
      </trkpt>
      <trkpt lat="47.29623" lon="6.60888">
        <ele>590.6</ele>
        <time>2012-04-12T08:44:03Z</time>
      </trkpt>
      <trkpt lat="47.29617" lon="6.60893">
        <ele>590.6</ele>
        <time>2012-04-12T08:44:11Z</time>
      </trkpt>
      <trkpt lat="47.29617" lon="6.60893">
        <ele>542.3</ele>
        <time>2012-04-12T08:44:22Z</time>
      </trkpt>
      <trkpt lat="47.29617" lon="6.60893">
        <ele>542.3</ele>
        <time>2012-04-12T08:44:25Z</time>
      </trkpt>
      <trkpt lat="47.29617" lon="6.60893">
        <ele>542.3</ele>
        <time>2012-04-12T08:44:36Z</time>
      </trkpt>
      <trkpt lat="47.29617" lon="6.60893">
        <ele>542.3</ele>
        <time>2012-04-12T08:44:38Z</time>
      </trkpt>
      <trkpt lat="47.29597" lon="6.6091">
        <ele>593</ele>
        <time>2012-04-12T08:44:41Z</time>
      </trkpt>
      <trkpt lat="47.29588" lon="6.60913">
        <ele>593.9</ele>
        <time>2012-04-12T08:44:45Z</time>
      </trkpt>
      <trkpt lat="47.29588" lon="6.60913">
        <ele>543.1</ele>
        <time>2012-04-12T08:44:57Z</time>
      </trkpt>
      <trkpt lat="47.29588" lon="6.60913">
        <ele>543.1</ele>
        <time>2012-04-12T08:45:09Z</time>
      </trkpt>
      <trkpt lat="47.29576" lon="6.60922">
        <ele>592.2</ele>
        <time>2012-04-12T08:45:12Z</time>
      </trkpt>
      <trkpt lat="47.29565" lon="6.60926">
        <ele>594.5</ele>
        <time>2012-04-12T08:45:15Z</time>
      </trkpt>
      <trkpt lat="47.2956" lon="6.60932">
        <ele>595.8</ele>
        <time>2012-04-12T08:45:19Z</time>
      </trkpt>
      <trkpt lat="47.29553" lon="6.60935">
        <ele>596.9</ele>
        <time>2012-04-12T08:45:28Z</time>
      </trkpt>
      <trkpt lat="47.29544" lon="6.60941">
        <ele>596.5</ele>
        <time>2012-04-12T08:45:31Z</time>
      </trkpt>
      <trkpt lat="47.29542" lon="6.6095">
        <ele>595.7</ele>
        <time>2012-04-12T08:45:34Z</time>
      </trkpt>
      <trkpt lat="47.29536" lon="6.60952">
        <ele>597.7</ele>
        <time>2012-04-12T08:45:38Z</time>
      </trkpt>
      <trkpt lat="47.2953" lon="6.60957">
        <ele>599.8</ele>
        <time>2012-04-12T08:45:49Z</time>
      </trkpt>
      <trkpt lat="47.2953" lon="6.60957">
        <ele>543.1</ele>
        <time>2012-04-12T08:46:01Z</time>
      </trkpt>
      <trkpt lat="47.2953" lon="6.60957">
        <ele>543.1</ele>
        <time>2012-04-12T08:46:07Z</time>
      </trkpt>
      <trkpt lat="47.29512" lon="6.60954">
        <ele>598.9</ele>
        <time>2012-04-12T08:46:11Z</time>
      </trkpt>
      <trkpt lat="47.29505" lon="6.60954">
        <ele>599.5</ele>
        <time>2012-04-12T08:46:14Z</time>
      </trkpt>
      <trkpt lat="47.29499" lon="6.60956">
        <ele>599.5</ele>
        <time>2012-04-12T08:46:20Z</time>
      </trkpt>
      <trkpt lat="47.29493" lon="6.6095">
        <ele>599.7</ele>
        <time>2012-04-12T08:46:24Z</time>
      </trkpt>
      <trkpt lat="47.29486" lon="6.60948">
        <ele>600.1</ele>
        <time>2012-04-12T08:46:29Z</time>
      </trkpt>
      <trkpt lat="47.2948" lon="6.60948">
        <ele>602.2</ele>
        <time>2012-04-12T08:46:36Z</time>
      </trkpt>
      <trkpt lat="47.29473" lon="6.60945">
        <ele>600.8</ele>
        <time>2012-04-12T08:46:44Z</time>
      </trkpt>
      <trkpt lat="47.29467" lon="6.60942">
        <ele>601.6</ele>
        <time>2012-04-12T08:46:51Z</time>
      </trkpt>
      <trkpt lat="47.29459" lon="6.60939">
        <ele>602.1</ele>
        <time>2012-04-12T08:46:56Z</time>
      </trkpt>
      <trkpt lat="47.29452" lon="6.60936">
        <ele>602.8</ele>
        <time>2012-04-12T08:47:06Z</time>
      </trkpt>
      <trkpt lat="47.29445" lon="6.60934">
        <ele>602.1</ele>
        <time>2012-04-12T08:47:12Z</time>
      </trkpt>
      <trkpt lat="47.29438" lon="6.6093">
        <ele>602.4</ele>
        <time>2012-04-12T08:47:19Z</time>
      </trkpt>
      <trkpt lat="47.29432" lon="6.60927">
        <ele>603.6</ele>
        <time>2012-04-12T08:47:24Z</time>
      </trkpt>
      <trkpt lat="47.29426" lon="6.6092">
        <ele>606.4</ele>
        <time>2012-04-12T08:47:31Z</time>
      </trkpt>
      <trkpt lat="47.29419" lon="6.60923">
        <ele>607.6</ele>
        <time>2012-04-12T08:47:38Z</time>
      </trkpt>
      <trkpt lat="47.29419" lon="6.60923">
        <ele>555.7</ele>
        <time>2012-04-12T08:47:49Z</time>
      </trkpt>
      <trkpt lat="47.29419" lon="6.60923">
        <ele>555.7</ele>
        <time>2012-04-12T08:48:25Z</time>
      </trkpt>
      <trkpt lat="47.29406" lon="6.60916">
        <ele>605.7</ele>
        <time>2012-04-12T08:48:28Z</time>
      </trkpt>
      <trkpt lat="47.29397" lon="6.60915">
        <ele>606.4</ele>
        <time>2012-04-12T08:48:32Z</time>
      </trkpt>
      <trkpt lat="47.29391" lon="6.60917">
        <ele>609.8</ele>
        <time>2012-04-12T08:48:42Z</time>
      </trkpt>
      <trkpt lat="47.29384" lon="6.60915">
        <ele>611.6</ele>
        <time>2012-04-12T08:48:51Z</time>
      </trkpt>
      <trkpt lat="47.29384" lon="6.60915">
        <ele>557.7</ele>
        <time>2012-04-12T08:49:03Z</time>
      </trkpt>
      <trkpt lat="47.29384" lon="6.60915">
        <ele>557.7</ele>
        <time>2012-04-12T08:49:19Z</time>
      </trkpt>
      <trkpt lat="47.29367" lon="6.60911">
        <ele>611.5</ele>
        <time>2012-04-12T08:49:21Z</time>
      </trkpt>
      <trkpt lat="47.29358" lon="6.60907">
        <ele>611.1</ele>
        <time>2012-04-12T08:49:27Z</time>
      </trkpt>
      <trkpt lat="47.29351" lon="6.60907">
        <ele>611.6</ele>
        <time>2012-04-12T08:49:35Z</time>
      </trkpt>
      <trkpt lat="47.29346" lon="6.60898">
        <ele>612.5</ele>
        <time>2012-04-12T08:49:42Z</time>
      </trkpt>
      <trkpt lat="47.29346" lon="6.60898">
        <ele>562.8</ele>
        <time>2012-04-12T08:49:53Z</time>
      </trkpt>
      <trkpt lat="47.29346" lon="6.60898">
        <ele>562.8</ele>
        <time>2012-04-12T08:50:06Z</time>
      </trkpt>
      <trkpt lat="47.29328" lon="6.60909">
        <ele>616.2</ele>
        <time>2012-04-12T08:50:13Z</time>
      </trkpt>
      <trkpt lat="47.29321" lon="6.60914">
        <ele>618.4</ele>
        <time>2012-04-12T08:50:20Z</time>
      </trkpt>
      <trkpt lat="47.29323" lon="6.60924">
        <ele>623.8</ele>
        <time>2012-04-12T08:50:29Z</time>
      </trkpt>
      <trkpt lat="47.29324" lon="6.60934">
        <ele>621.5</ele>
        <time>2012-04-12T08:50:37Z</time>
      </trkpt>
      <trkpt lat="47.29328" lon="6.60944">
        <ele>624.3</ele>
        <time>2012-04-12T08:50:42Z</time>
      </trkpt>
      <trkpt lat="47.29327" lon="6.60954">
        <ele>626.7</ele>
        <time>2012-04-12T08:50:52Z</time>
      </trkpt>
      <trkpt lat="47.29324" lon="6.60963">
        <ele>623.4</ele>
        <time>2012-04-12T08:50:58Z</time>
      </trkpt>
      <trkpt lat="47.29324" lon="6.60963">
        <ele>563</ele>
        <time>2012-04-12T08:51:10Z</time>
      </trkpt>
      <trkpt lat="47.29324" lon="6.60963">
        <ele>563</ele>
        <time>2012-04-12T08:51:32Z</time>
      </trkpt>
      <trkpt lat="47.29326" lon="6.60983">
        <ele>620.2</ele>
        <time>2012-04-12T08:51:39Z</time>
      </trkpt>
      <trkpt lat="47.29324" lon="6.60993">
        <ele>619.3</ele>
        <time>2012-04-12T08:51:47Z</time>
      </trkpt>
      <trkpt lat="47.29324" lon="6.60993">
        <ele>561.9</ele>
        <time>2012-04-12T08:51:59Z</time>
      </trkpt>
      <trkpt lat="47.29324" lon="6.60993">
        <ele>561.9</ele>
        <time>2012-04-12T08:52:23Z</time>
      </trkpt>
      <trkpt lat="47.29332" lon="6.61011">
        <ele>615.3</ele>
        <time>2012-04-12T08:52:29Z</time>
      </trkpt>
      <trkpt lat="47.29333" lon="6.61021">
        <ele>615.4</ele>
        <time>2012-04-12T08:52:35Z</time>
      </trkpt>
      <trkpt lat="47.29333" lon="6.61032">
        <ele>616.2</ele>
        <time>2012-04-12T08:52:39Z</time>
      </trkpt>
      <trkpt lat="47.29331" lon="6.61041">
        <ele>613.1</ele>
        <time>2012-04-12T08:52:44Z</time>
      </trkpt>
      <trkpt lat="47.29334" lon="6.6105">
        <ele>613.7</ele>
        <time>2012-04-12T08:52:50Z</time>
      </trkpt>
      <trkpt lat="47.29338" lon="6.61058">
        <ele>615.1</ele>
        <time>2012-04-12T08:53:01Z</time>
      </trkpt>
      <trkpt lat="47.29338" lon="6.61058">
        <ele>557.4</ele>
        <time>2012-04-12T08:53:13Z</time>
      </trkpt>
      <trkpt lat="47.29338" lon="6.61058">
        <ele>557.4</ele>
        <time>2012-04-12T08:54:47Z</time>
      </trkpt>
      <trkpt lat="47.29338" lon="6.61058">
        <ele>557.4</ele>
        <time>2012-04-12T08:54:59Z</time>
      </trkpt>
      <trkpt lat="47.29338" lon="6.61058">
        <ele>557.4</ele>
        <time>2012-04-12T08:55:54Z</time>
      </trkpt>
      <trkpt lat="47.29325" lon="6.61066">
        <ele>615.6</ele>
        <time>2012-04-12T08:56:02Z</time>
      </trkpt>
      <trkpt lat="47.29325" lon="6.61066">
        <ele>559.8</ele>
        <time>2012-04-12T08:56:14Z</time>
      </trkpt>
      <trkpt lat="47.29325" lon="6.61066">
        <ele>559.8</ele>
        <time>2012-04-12T08:59:06Z</time>
      </trkpt>
      <trkpt lat="47.29325" lon="6.61066">
        <ele>559.8</ele>
        <time>2012-04-12T08:59:18Z</time>
      </trkpt>
      <trkpt lat="47.29325" lon="6.61066">
        <ele>559.8</ele>
        <time>2012-04-12T09:07:30Z</time>
      </trkpt>
      <trkpt lat="47.29311" lon="6.61047">
        <ele>613.2</ele>
        <time>2012-04-12T09:07:36Z</time>
      </trkpt>
      <trkpt lat="47.29316" lon="6.6104">
        <ele>615.4</ele>
        <time>2012-04-12T09:07:39Z</time>
      </trkpt>
      <trkpt lat="47.29323" lon="6.61035">
        <ele>613.7</ele>
        <time>2012-04-12T09:07:44Z</time>
      </trkpt>
      <trkpt lat="47.2933" lon="6.61035">
        <ele>609.8</ele>
        <time>2012-04-12T09:07:49Z</time>
      </trkpt>
      <trkpt lat="47.2933" lon="6.61035">
        <ele>558.9</ele>
        <time>2012-04-12T09:08:00Z</time>
      </trkpt>
      <trkpt lat="47.2933" lon="6.61035">
        <ele>558.9</ele>
        <time>2012-04-12T09:08:34Z</time>
      </trkpt>
      <trkpt lat="47.29344" lon="6.61045">
        <ele>606.5</ele>
        <time>2012-04-12T09:08:42Z</time>
      </trkpt>
      <trkpt lat="47.29351" lon="6.6105">
        <ele>607.9</ele>
        <time>2012-04-12T09:08:50Z</time>
      </trkpt>
      <trkpt lat="47.29351" lon="6.6105">
        <ele>555.4</ele>
        <time>2012-04-12T09:09:02Z</time>
      </trkpt>
      <trkpt lat="47.29351" lon="6.6105">
        <ele>555.4</ele>
        <time>2012-04-12T09:09:12Z</time>
      </trkpt>
      <trkpt lat="47.29344" lon="6.61059">
        <ele>594.4</ele>
        <time>2012-04-12T09:09:16Z</time>
      </trkpt>
      <trkpt lat="47.29344" lon="6.61059">
        <ele>556.6</ele>
        <time>2012-04-12T09:09:28Z</time>
      </trkpt>
      <trkpt lat="47.29344" lon="6.61059">
        <ele>556.6</ele>
        <time>2012-04-12T09:10:16Z</time>
      </trkpt>
      <trkpt lat="47.2936" lon="6.61068">
        <ele>595.8</ele>
        <time>2012-04-12T09:10:18Z</time>
      </trkpt>
      <trkpt lat="47.2936" lon="6.61068">
        <ele>554.1</ele>
        <time>2012-04-12T09:10:30Z</time>
      </trkpt>
      <trkpt lat="47.2936" lon="6.61068">
        <ele>554.1</ele>
        <time>2012-04-12T09:10:37Z</time>
      </trkpt>
      <trkpt lat="47.2936" lon="6.61068">
        <ele>554.1</ele>
        <time>2012-04-12T09:10:49Z</time>
      </trkpt>
      <trkpt lat="47.2936" lon="6.61068">
        <ele>554.1</ele>
        <time>2012-04-12T09:10:50Z</time>
      </trkpt>
      <trkpt lat="47.2938" lon="6.61066">
        <ele>595.7</ele>
        <time>2012-04-12T09:10:57Z</time>
      </trkpt>
      <trkpt lat="47.29387" lon="6.61069">
        <ele>598.2</ele>
        <time>2012-04-12T09:11:04Z</time>
      </trkpt>
      <trkpt lat="47.29395" lon="6.6107">
        <ele>598.8</ele>
        <time>2012-04-12T09:11:07Z</time>
      </trkpt>
      <trkpt lat="47.29395" lon="6.6107">
        <ele>549.8</ele>
        <time>2012-04-12T09:11:18Z</time>
      </trkpt>
      <trkpt lat="47.29395" lon="6.6107">
        <ele>549.8</ele>
        <time>2012-04-12T09:11:21Z</time>
      </trkpt>
      <trkpt lat="47.29395" lon="6.6107">
        <ele>549.8</ele>
        <time>2012-04-12T09:11:32Z</time>
      </trkpt>
      <trkpt lat="47.29395" lon="6.6107">
        <ele>549.8</ele>
        <time>2012-04-12T09:11:34Z</time>
      </trkpt>
      <trkpt lat="47.29416" lon="6.61078">
        <ele>602.2</ele>
        <time>2012-04-12T09:11:38Z</time>
      </trkpt>
      <trkpt lat="47.29427" lon="6.61081">
        <ele>604.4</ele>
        <time>2012-04-12T09:11:42Z</time>
      </trkpt>
      <trkpt lat="47.29436" lon="6.61082">
        <ele>604.4</ele>
        <time>2012-04-12T09:11:47Z</time>
      </trkpt>
      <trkpt lat="47.29436" lon="6.61082">
        <ele>544.2</ele>
        <time>2012-04-12T09:11:59Z</time>
      </trkpt>
      <trkpt lat="47.29436" lon="6.61082">
        <ele>544.2</ele>
        <time>2012-04-12T09:12:07Z</time>
      </trkpt>
      <trkpt lat="47.29453" lon="6.61081">
        <ele>603</ele>
        <time>2012-04-12T09:12:09Z</time>
      </trkpt>
      <trkpt lat="47.29461" lon="6.61079">
        <ele>602.5</ele>
        <time>2012-04-12T09:12:18Z</time>
      </trkpt>
      <trkpt lat="47.29467" lon="6.61078">
        <ele>600.6</ele>
        <time>2012-04-12T09:12:22Z</time>
      </trkpt>
      <trkpt lat="47.29474" lon="6.61078">
        <ele>599.9</ele>
        <time>2012-04-12T09:12:25Z</time>
      </trkpt>
      <trkpt lat="47.29481" lon="6.61079">
        <ele>600.5</ele>
        <time>2012-04-12T09:12:27Z</time>
      </trkpt>
      <trkpt lat="47.29481" lon="6.61079">
        <ele>539</ele>
        <time>2012-04-12T09:12:39Z</time>
      </trkpt>
      <trkpt lat="47.29481" lon="6.61079">
        <ele>539</ele>
        <time>2012-04-12T09:12:44Z</time>
      </trkpt>
      <trkpt lat="47.29497" lon="6.61074">
        <ele>601</ele>
        <time>2012-04-12T09:12:48Z</time>
      </trkpt>
      <trkpt lat="47.29503" lon="6.6107">
        <ele>601.5</ele>
        <time>2012-04-12T09:12:50Z</time>
      </trkpt>
      <trkpt lat="47.29503" lon="6.6107">
        <ele>536.7</ele>
        <time>2012-04-12T09:13:02Z</time>
      </trkpt>
      <trkpt lat="47.29503" lon="6.6107">
        <ele>536.7</ele>
        <time>2012-04-12T09:13:07Z</time>
      </trkpt>
      <trkpt lat="47.29518" lon="6.61066">
        <ele>598.9</ele>
        <time>2012-04-12T09:13:18Z</time>
      </trkpt>
      <trkpt lat="47.29529" lon="6.61061">
        <ele>597.7</ele>
        <time>2012-04-12T09:13:29Z</time>
      </trkpt>
      <trkpt lat="47.29537" lon="6.61063">
        <ele>597.8</ele>
        <time>2012-04-12T09:13:32Z</time>
      </trkpt>
      <trkpt lat="47.29537" lon="6.61063">
        <ele>533.9</ele>
        <time>2012-04-12T09:13:43Z</time>
      </trkpt>
      <trkpt lat="47.29537" lon="6.61063">
        <ele>533.9</ele>
        <time>2012-04-12T09:13:54Z</time>
      </trkpt>
      <trkpt lat="47.29549" lon="6.61053">
        <ele>594.1</ele>
        <time>2012-04-12T09:13:57Z</time>
      </trkpt>
      <trkpt lat="47.29557" lon="6.61055">
        <ele>593.1</ele>
        <time>2012-04-12T09:13:59Z</time>
      </trkpt>
      <trkpt lat="47.29563" lon="6.61052">
        <ele>594.1</ele>
        <time>2012-04-12T09:14:03Z</time>
      </trkpt>
      <trkpt lat="47.29566" lon="6.61044">
        <ele>593.8</ele>
        <time>2012-04-12T09:14:10Z</time>
      </trkpt>
      <trkpt lat="47.29573" lon="6.61043">
        <ele>594.7</ele>
        <time>2012-04-12T09:14:14Z</time>
      </trkpt>
      <trkpt lat="47.2958" lon="6.61044">
        <ele>593.5</ele>
        <time>2012-04-12T09:14:18Z</time>
      </trkpt>
      <trkpt lat="47.29587" lon="6.61044">
        <ele>593.3</ele>
        <time>2012-04-12T09:14:21Z</time>
      </trkpt>
      <trkpt lat="47.29593" lon="6.61042">
        <ele>592.6</ele>
        <time>2012-04-12T09:14:23Z</time>
      </trkpt>
      <trkpt lat="47.29595" lon="6.61034">
        <ele>591.2</ele>
        <time>2012-04-12T09:14:31Z</time>
      </trkpt>
      <trkpt lat="47.29602" lon="6.61032">
        <ele>588.4</ele>
        <time>2012-04-12T09:14:35Z</time>
      </trkpt>
      <trkpt lat="47.29609" lon="6.6103">
        <ele>587.2</ele>
        <time>2012-04-12T09:14:38Z</time>
      </trkpt>
      <trkpt lat="47.29613" lon="6.61022">
        <ele>587.5</ele>
        <time>2012-04-12T09:14:45Z</time>
      </trkpt>
      <trkpt lat="47.29617" lon="6.61015">
        <ele>585.2</ele>
        <time>2012-04-12T09:14:53Z</time>
      </trkpt>
      <trkpt lat="47.29621" lon="6.61007">
        <ele>582.8</ele>
        <time>2012-04-12T09:14:59Z</time>
      </trkpt>
      <trkpt lat="47.29623" lon="6.60997">
        <ele>581.3</ele>
        <time>2012-04-12T09:15:06Z</time>
      </trkpt>
      <trkpt lat="47.29626" lon="6.60987">
        <ele>579.3</ele>
        <time>2012-04-12T09:15:12Z</time>
      </trkpt>
      <trkpt lat="47.29624" lon="6.60978">
        <ele>578.4</ele>
        <time>2012-04-12T09:15:15Z</time>
      </trkpt>
      <trkpt lat="47.2963" lon="6.60974">
        <ele>577.7</ele>
        <time>2012-04-12T09:15:20Z</time>
      </trkpt>
      <trkpt lat="47.29637" lon="6.60972">
        <ele>577.6</ele>
        <time>2012-04-12T09:15:24Z</time>
      </trkpt>
      <trkpt lat="47.29639" lon="6.60963">
        <ele>578.1</ele>
        <time>2012-04-12T09:15:31Z</time>
      </trkpt>
      <trkpt lat="47.29647" lon="6.60959">
        <ele>576.9</ele>
        <time>2012-04-12T09:15:38Z</time>
      </trkpt>
      <trkpt lat="47.29653" lon="6.60956">
        <ele>578</ele>
        <time>2012-04-12T09:15:43Z</time>
      </trkpt>
      <trkpt lat="47.29662" lon="6.60955">
        <ele>578.7</ele>
        <time>2012-04-12T09:15:49Z</time>
      </trkpt>
      <trkpt lat="47.29665" lon="6.60946">
        <ele>578.6</ele>
        <time>2012-04-12T09:15:59Z</time>
      </trkpt>
      <trkpt lat="47.2967" lon="6.6094">
        <ele>577.7</ele>
        <time>2012-04-12T09:16:05Z</time>
      </trkpt>
      <trkpt lat="47.29677" lon="6.60936">
        <ele>577.5</ele>
        <time>2012-04-12T09:16:11Z</time>
      </trkpt>
      <trkpt lat="47.29684" lon="6.60931">
        <ele>576.8</ele>
        <time>2012-04-12T09:16:17Z</time>
      </trkpt>
      <trkpt lat="47.29686" lon="6.60922">
        <ele>574.5</ele>
        <time>2012-04-12T09:16:25Z</time>
      </trkpt>
      <trkpt lat="47.29692" lon="6.60917">
        <ele>572.8</ele>
        <time>2012-04-12T09:16:33Z</time>
      </trkpt>
      <trkpt lat="47.29698" lon="6.60913">
        <ele>572.9</ele>
        <time>2012-04-12T09:16:37Z</time>
      </trkpt>
      <trkpt lat="47.29703" lon="6.60906">
        <ele>572.5</ele>
        <time>2012-04-12T09:16:42Z</time>
      </trkpt>
      <trkpt lat="47.2971" lon="6.609">
        <ele>572.1</ele>
        <time>2012-04-12T09:16:49Z</time>
      </trkpt>
      <trkpt lat="47.29716" lon="6.60899">
        <ele>572.1</ele>
        <time>2012-04-12T09:16:52Z</time>
      </trkpt>
      <trkpt lat="47.29723" lon="6.60897">
        <ele>573.6</ele>
        <time>2012-04-12T09:16:57Z</time>
      </trkpt>
      <trkpt lat="47.29728" lon="6.6089">
        <ele>573.7</ele>
        <time>2012-04-12T09:17:04Z</time>
      </trkpt>
      <trkpt lat="47.29732" lon="6.60883">
        <ele>573.3</ele>
        <time>2012-04-12T09:17:10Z</time>
      </trkpt>
      <trkpt lat="47.29739" lon="6.60878">
        <ele>572.7</ele>
        <time>2012-04-12T09:17:16Z</time>
      </trkpt>
      <trkpt lat="47.29746" lon="6.60877">
        <ele>572</ele>
        <time>2012-04-12T09:17:21Z</time>
      </trkpt>
      <trkpt lat="47.29753" lon="6.60876">
        <ele>571.2</ele>
        <time>2012-04-12T09:17:25Z</time>
      </trkpt>
      <trkpt lat="47.29758" lon="6.60871">
        <ele>572.6</ele>
        <time>2012-04-12T09:17:31Z</time>
      </trkpt>
      <trkpt lat="47.29764" lon="6.60865">
        <ele>571.5</ele>
        <time>2012-04-12T09:17:37Z</time>
      </trkpt>
      <trkpt lat="47.29771" lon="6.60864">
        <ele>571.3</ele>
        <time>2012-04-12T09:17:41Z</time>
      </trkpt>
      <trkpt lat="47.29779" lon="6.60861">
        <ele>571</ele>
        <time>2012-04-12T09:17:48Z</time>
      </trkpt>
      <trkpt lat="47.29786" lon="6.60856">
        <ele>569.4</ele>
        <time>2012-04-12T09:17:54Z</time>
      </trkpt>
      <trkpt lat="47.29788" lon="6.60845">
        <ele>569</ele>
        <time>2012-04-12T09:18:01Z</time>
      </trkpt>
      <trkpt lat="47.29788" lon="6.60845">
        <ele>518.7</ele>
        <time>2012-04-12T09:18:13Z</time>
      </trkpt>
      <trkpt lat="47.29788" lon="6.60845">
        <ele>518.7</ele>
        <time>2012-04-12T09:18:59Z</time>
      </trkpt>
      <trkpt lat="47.29799" lon="6.60846">
        <ele>570.4</ele>
        <time>2012-04-12T09:19:07Z</time>
      </trkpt>
      <trkpt lat="47.29807" lon="6.60845">
        <ele>570.7</ele>
        <time>2012-04-12T09:19:14Z</time>
      </trkpt>
      <trkpt lat="47.29813" lon="6.60849">
        <ele>571.6</ele>
        <time>2012-04-12T09:19:17Z</time>
      </trkpt>
      <trkpt lat="47.29822" lon="6.60848">
        <ele>574.7</ele>
        <time>2012-04-12T09:19:27Z</time>
      </trkpt>
      <trkpt lat="47.29829" lon="6.60847">
        <ele>578.2</ele>
        <time>2012-04-12T09:19:31Z</time>
      </trkpt>
      <trkpt lat="47.29835" lon="6.60851">
        <ele>578</ele>
        <time>2012-04-12T09:19:37Z</time>
      </trkpt>
      <trkpt lat="47.29843" lon="6.60855">
        <ele>579</ele>
        <time>2012-04-12T09:19:40Z</time>
      </trkpt>
      <trkpt lat="47.29843" lon="6.60865">
        <ele>572.6</ele>
        <time>2012-04-12T09:19:45Z</time>
      </trkpt>
      <trkpt lat="47.29843" lon="6.60865">
        <ele>517.1</ele>
        <time>2012-04-12T09:19:57Z</time>
      </trkpt>
      <trkpt lat="47.29843" lon="6.60865">
        <ele>517.1</ele>
        <time>2012-04-12T09:20:51Z</time>
      </trkpt>
      <trkpt lat="47.29832" lon="6.60853">
        <ele>564.5</ele>
        <time>2012-04-12T09:20:55Z</time>
      </trkpt>
      <trkpt lat="47.29832" lon="6.60853">
        <ele>517</ele>
        <time>2012-04-12T09:21:07Z</time>
      </trkpt>
      <trkpt lat="47.29832" lon="6.60853">
        <ele>517</ele>
        <time>2012-04-12T09:21:44Z</time>
      </trkpt>
      <trkpt lat="47.29832" lon="6.60853">
        <ele>517</ele>
        <time>2012-04-12T09:21:56Z</time>
      </trkpt>
      <trkpt lat="47.29832" lon="6.60853">
        <ele>517</ele>
        <time>2012-04-12T09:23:07Z</time>
      </trkpt>
      <trkpt lat="47.29848" lon="6.60857">
        <ele>558.8</ele>
        <time>2012-04-12T09:23:15Z</time>
      </trkpt>
      <trkpt lat="47.29855" lon="6.60857">
        <ele>560.6</ele>
        <time>2012-04-12T09:23:21Z</time>
      </trkpt>
      <trkpt lat="47.29862" lon="6.60856">
        <ele>561.8</ele>
        <time>2012-04-12T09:23:27Z</time>
      </trkpt>
      <trkpt lat="47.29868" lon="6.6085">
        <ele>560.7</ele>
        <time>2012-04-12T09:23:33Z</time>
      </trkpt>
      <trkpt lat="47.29875" lon="6.60848">
        <ele>557.7</ele>
        <time>2012-04-12T09:23:41Z</time>
      </trkpt>
      <trkpt lat="47.29882" lon="6.60848">
        <ele>557.2</ele>
        <time>2012-04-12T09:23:47Z</time>
      </trkpt>
      <trkpt lat="47.29889" lon="6.60848">
        <ele>559</ele>
        <time>2012-04-12T09:23:54Z</time>
      </trkpt>
      <trkpt lat="47.29893" lon="6.60839">
        <ele>558.8</ele>
        <time>2012-04-12T09:24:00Z</time>
      </trkpt>
      <trkpt lat="47.299" lon="6.60836">
        <ele>558.1</ele>
        <time>2012-04-12T09:24:05Z</time>
      </trkpt>
      <trkpt lat="47.29906" lon="6.60833">
        <ele>558.1</ele>
        <time>2012-04-12T09:24:10Z</time>
      </trkpt>
      <trkpt lat="47.29912" lon="6.60829">
        <ele>556</ele>
        <time>2012-04-12T09:24:16Z</time>
      </trkpt>
      <trkpt lat="47.29919" lon="6.60831">
        <ele>555.5</ele>
        <time>2012-04-12T09:24:21Z</time>
      </trkpt>
      <trkpt lat="47.29926" lon="6.60833">
        <ele>556.5</ele>
        <time>2012-04-12T09:24:24Z</time>
      </trkpt>
      <trkpt lat="47.29933" lon="6.60836">
        <ele>555.4</ele>
        <time>2012-04-12T09:24:28Z</time>
      </trkpt>
      <trkpt lat="47.29933" lon="6.60836">
        <ele>515.2</ele>
        <time>2012-04-12T09:24:40Z</time>
      </trkpt>
      <trkpt lat="47.29933" lon="6.60836">
        <ele>515.2</ele>
        <time>2012-04-12T09:24:42Z</time>
      </trkpt>
      <trkpt lat="47.29946" lon="6.60832">
        <ele>554.6</ele>
        <time>2012-04-12T09:24:48Z</time>
      </trkpt>
      <trkpt lat="47.29952" lon="6.60826">
        <ele>554.6</ele>
        <time>2012-04-12T09:24:53Z</time>
      </trkpt>
      <trkpt lat="47.29956" lon="6.60819">
        <ele>553.1</ele>
        <time>2012-04-12T09:24:59Z</time>
      </trkpt>
      <trkpt lat="47.29963" lon="6.60814">
        <ele>553.6</ele>
        <time>2012-04-12T09:25:05Z</time>
      </trkpt>
      <trkpt lat="47.2997" lon="6.60812">
        <ele>554.8</ele>
        <time>2012-04-12T09:25:10Z</time>
      </trkpt>
      <trkpt lat="47.29977" lon="6.60812">
        <ele>555.3</ele>
        <time>2012-04-12T09:25:16Z</time>
      </trkpt>
      <trkpt lat="47.29983" lon="6.60809">
        <ele>554.8</ele>
        <time>2012-04-12T09:25:22Z</time>
      </trkpt>
      <trkpt lat="47.29988" lon="6.60804">
        <ele>557.2</ele>
        <time>2012-04-12T09:25:27Z</time>
      </trkpt>
      <trkpt lat="47.29996" lon="6.60806">
        <ele>556.9</ele>
        <time>2012-04-12T09:25:34Z</time>
      </trkpt>
      <trkpt lat="47.30003" lon="6.60807">
        <ele>555.2</ele>
        <time>2012-04-12T09:25:40Z</time>
      </trkpt>
      <trkpt lat="47.30009" lon="6.60804">
        <ele>555.8</ele>
        <time>2012-04-12T09:25:46Z</time>
      </trkpt>
      <trkpt lat="47.30015" lon="6.608">
        <ele>556.7</ele>
        <time>2012-04-12T09:25:53Z</time>
      </trkpt>
      <trkpt lat="47.30024" lon="6.60798">
        <ele>557.3</ele>
        <time>2012-04-12T09:25:59Z</time>
      </trkpt>
      <trkpt lat="47.30031" lon="6.60799">
        <ele>558.3</ele>
        <time>2012-04-12T09:26:04Z</time>
      </trkpt>
      <trkpt lat="47.30038" lon="6.60798">
        <ele>559.3</ele>
        <time>2012-04-12T09:26:08Z</time>
      </trkpt>
      <trkpt lat="47.30045" lon="6.60794">
        <ele>559.8</ele>
        <time>2012-04-12T09:26:15Z</time>
      </trkpt>
      <trkpt lat="47.30051" lon="6.60789">
        <ele>559.5</ele>
        <time>2012-04-12T09:26:24Z</time>
      </trkpt>
      <trkpt lat="47.30058" lon="6.60787">
        <ele>559.8</ele>
        <time>2012-04-12T09:26:28Z</time>
      </trkpt>
      <trkpt lat="47.30064" lon="6.60783">
        <ele>558.6</ele>
        <time>2012-04-12T09:26:34Z</time>
      </trkpt>
      <trkpt lat="47.3007" lon="6.60776">
        <ele>557.6</ele>
        <time>2012-04-12T09:26:41Z</time>
      </trkpt>
      <trkpt lat="47.30076" lon="6.60771">
        <ele>555.1</ele>
        <time>2012-04-12T09:26:47Z</time>
      </trkpt>
      <trkpt lat="47.3008" lon="6.60763">
        <ele>556.9</ele>
        <time>2012-04-12T09:26:52Z</time>
      </trkpt>
      <trkpt lat="47.30086" lon="6.6076">
        <ele>556.5</ele>
        <time>2012-04-12T09:26:58Z</time>
      </trkpt>
      <trkpt lat="47.30091" lon="6.60754">
        <ele>556.8</ele>
        <time>2012-04-12T09:27:03Z</time>
      </trkpt>
      <trkpt lat="47.30098" lon="6.60752">
        <ele>556.5</ele>
        <time>2012-04-12T09:27:09Z</time>
      </trkpt>
      <trkpt lat="47.30104" lon="6.60751">
        <ele>556.2</ele>
        <time>2012-04-12T09:27:14Z</time>
      </trkpt>
      <trkpt lat="47.30105" lon="6.6074">
        <ele>557.2</ele>
        <time>2012-04-12T09:27:20Z</time>
      </trkpt>
      <trkpt lat="47.30113" lon="6.60737">
        <ele>558.2</ele>
        <time>2012-04-12T09:27:26Z</time>
      </trkpt>
      <trkpt lat="47.30119" lon="6.60732">
        <ele>557.9</ele>
        <time>2012-04-12T09:27:32Z</time>
      </trkpt>
      <trkpt lat="47.30125" lon="6.60727">
        <ele>555.9</ele>
        <time>2012-04-12T09:27:38Z</time>
      </trkpt>
      <trkpt lat="47.30131" lon="6.60721">
        <ele>556.5</ele>
        <time>2012-04-12T09:27:44Z</time>
      </trkpt>
      <trkpt lat="47.30135" lon="6.60713">
        <ele>558.8</ele>
        <time>2012-04-12T09:27:49Z</time>
      </trkpt>
      <trkpt lat="47.30271" lon="6.60635">
        <ele>556.5</ele>
        <time>2012-04-12T09:29:50Z</time>
      </trkpt>
      <trkpt lat="47.30278" lon="6.60633">
        <ele>556.3</ele>
        <time>2012-04-12T09:29:53Z</time>
      </trkpt>
      <trkpt lat="47.30283" lon="6.60626">
        <ele>557.4</ele>
        <time>2012-04-12T09:29:59Z</time>
      </trkpt>
      <trkpt lat="47.30289" lon="6.60623">
        <ele>556.7</ele>
        <time>2012-04-12T09:30:04Z</time>
      </trkpt>
      <trkpt lat="47.30293" lon="6.60615">
        <ele>558.9</ele>
        <time>2012-04-12T09:30:12Z</time>
      </trkpt>
      <trkpt lat="47.303" lon="6.60614">
        <ele>559.4</ele>
        <time>2012-04-12T09:30:16Z</time>
      </trkpt>
      <trkpt lat="47.30304" lon="6.60605">
        <ele>557.9</ele>
        <time>2012-04-12T09:30:24Z</time>
      </trkpt>
      <trkpt lat="47.30305" lon="6.60595">
        <ele>559.4</ele>
        <time>2012-04-12T09:30:29Z</time>
      </trkpt>
      <trkpt lat="47.3031" lon="6.60589">
        <ele>559.8</ele>
        <time>2012-04-12T09:30:34Z</time>
      </trkpt>
      <trkpt lat="47.30316" lon="6.60583">
        <ele>558.2</ele>
        <time>2012-04-12T09:30:39Z</time>
      </trkpt>
      <trkpt lat="47.30318" lon="6.60572">
        <ele>555.8</ele>
        <time>2012-04-12T09:30:46Z</time>
      </trkpt>
      <trkpt lat="47.30318" lon="6.60572">
        <ele>508</ele>
        <time>2012-04-12T09:33:36Z</time>
      </trkpt>
      <trkpt lat="47.30318" lon="6.60572">
        <ele>508</ele>
        <time>2012-04-12T09:33:48Z</time>
      </trkpt>
      <trkpt lat="47.30318" lon="6.60572">
        <ele>508</ele>
        <time>2012-04-12T09:33:59Z</time>
      </trkpt>
      <trkpt lat="47.30418" lon="6.60481">
        <ele>553.4</ele>
        <time>2012-04-12T09:34:03Z</time>
      </trkpt>
      <trkpt lat="47.30423" lon="6.60474">
        <ele>553.5</ele>
        <time>2012-04-12T09:34:09Z</time>
      </trkpt>
      <trkpt lat="47.30421" lon="6.60465">
        <ele>552.2</ele>
        <time>2012-04-12T09:34:19Z</time>
      </trkpt>
      <trkpt lat="47.30421" lon="6.60465">
        <ele>505.9</ele>
        <time>2012-04-12T09:34:30Z</time>
      </trkpt>
      <trkpt lat="47.30421" lon="6.60465">
        <ele>505.9</ele>
        <time>2012-04-12T09:34:39Z</time>
      </trkpt>
      <trkpt lat="47.30408" lon="6.60454">
        <ele>556.8</ele>
        <time>2012-04-12T09:34:45Z</time>
      </trkpt>
      <trkpt lat="47.30403" lon="6.60446">
        <ele>557.4</ele>
        <time>2012-04-12T09:34:52Z</time>
      </trkpt>
      <trkpt lat="47.30399" lon="6.60439">
        <ele>555.4</ele>
        <time>2012-04-12T09:34:56Z</time>
      </trkpt>
      <trkpt lat="47.30392" lon="6.60435">
        <ele>553.3</ele>
        <time>2012-04-12T09:35:02Z</time>
      </trkpt>
      <trkpt lat="47.30386" lon="6.60431">
        <ele>555.3</ele>
        <time>2012-04-12T09:35:13Z</time>
      </trkpt>
      <trkpt lat="47.3038" lon="6.60424">
        <ele>556.3</ele>
        <time>2012-04-12T09:35:20Z</time>
      </trkpt>
      <trkpt lat="47.30374" lon="6.60423">
        <ele>558.7</ele>
        <time>2012-04-12T09:35:26Z</time>
      </trkpt>
      <trkpt lat="47.30374" lon="6.60423">
        <ele>507</ele>
        <time>2012-04-12T09:35:38Z</time>
      </trkpt>
      <trkpt lat="47.30374" lon="6.60423">
        <ele>507</ele>
        <time>2012-04-12T09:35:43Z</time>
      </trkpt>
      <trkpt lat="47.30361" lon="6.60418">
        <ele>557.9</ele>
        <time>2012-04-12T09:35:50Z</time>
      </trkpt>
      <trkpt lat="47.30354" lon="6.60416">
        <ele>557.8</ele>
        <time>2012-04-12T09:35:54Z</time>
      </trkpt>
      <trkpt lat="47.30348" lon="6.60415">
        <ele>557.7</ele>
        <time>2012-04-12T09:36:02Z</time>
      </trkpt>
      <trkpt lat="47.30348" lon="6.60415">
        <ele>507.5</ele>
        <time>2012-04-12T09:36:14Z</time>
      </trkpt>
      <trkpt lat="47.30348" lon="6.60415">
        <ele>507.5</ele>
        <time>2012-04-12T09:37:37Z</time>
      </trkpt>
      <trkpt lat="47.30348" lon="6.60415">
        <ele>507.5</ele>
        <time>2012-04-12T09:37:49Z</time>
      </trkpt>
      <trkpt lat="47.30348" lon="6.60415">
        <ele>507.5</ele>
        <time>2012-04-12T09:38:10Z</time>
      </trkpt>
      <trkpt lat="47.30348" lon="6.60415">
        <ele>507.5</ele>
        <time>2012-04-12T09:38:22Z</time>
      </trkpt>
      <trkpt lat="47.30348" lon="6.60415">
        <ele>507.5</ele>
        <time>2012-04-12T09:38:26Z</time>
      </trkpt>
      <trkpt lat="47.30348" lon="6.60415">
        <ele>507.5</ele>
        <time>2012-04-12T09:44:43Z</time>
      </trkpt>
      <trkpt lat="47.30348" lon="6.60415">
        <ele>507.5</ele>
        <time>2012-04-12T09:45:27Z</time>
      </trkpt>
      <trkpt lat="47.30348" lon="6.60415">
        <ele>507.5</ele>
        <time>2012-04-12T09:47:14Z</time>
      </trkpt>
      <trkpt lat="47.30437" lon="6.60378">
        <ele>557.7</ele>
        <time>2012-04-12T09:47:21Z</time>
      </trkpt>
      <trkpt lat="47.30437" lon="6.60378">
        <ele>506.2</ele>
        <time>2012-04-12T09:47:32Z</time>
      </trkpt>
      <trkpt lat="47.30437" lon="6.60378">
        <ele>506.2</ele>
        <time>2012-04-12T09:47:35Z</time>
      </trkpt>
      <trkpt lat="47.30437" lon="6.60378">
        <ele>506.2</ele>
        <time>2012-04-12T09:47:47Z</time>
      </trkpt>
      <trkpt lat="47.30437" lon="6.60378">
        <ele>506.2</ele>
        <time>2012-04-12T09:47:54Z</time>
      </trkpt>
      <trkpt lat="47.30419" lon="6.60362">
        <ele>556.8</ele>
        <time>2012-04-12T09:47:58Z</time>
      </trkpt>
      <trkpt lat="47.30419" lon="6.60362">
        <ele>506</ele>
        <time>2012-04-12T09:48:10Z</time>
      </trkpt>
      <trkpt lat="47.30419" lon="6.60362">
        <ele>506</ele>
        <time>2012-04-12T09:48:17Z</time>
      </trkpt>
      <trkpt lat="47.30406" lon="6.6036">
        <ele>560.3</ele>
        <time>2012-04-12T09:48:24Z</time>
      </trkpt>
      <trkpt lat="47.30407" lon="6.60351">
        <ele>554.2</ele>
        <time>2012-04-12T09:48:30Z</time>
      </trkpt>
      <trkpt lat="47.30407" lon="6.60351">
        <ele>506</ele>
        <time>2012-04-12T09:48:42Z</time>
      </trkpt>
      <trkpt lat="47.30407" lon="6.60351">
        <ele>506</ele>
        <time>2012-04-12T09:48:58Z</time>
      </trkpt>
      <trkpt lat="47.30407" lon="6.60351">
        <ele>506</ele>
        <time>2012-04-12T09:49:09Z</time>
      </trkpt>
      <trkpt lat="47.30407" lon="6.60351">
        <ele>506</ele>
        <time>2012-04-12T09:49:17Z</time>
      </trkpt>
      <trkpt lat="47.30404" lon="6.60337">
        <ele>554.6</ele>
        <time>2012-04-12T09:49:25Z</time>
      </trkpt>
      <trkpt lat="47.30412" lon="6.60342">
        <ele>554.3</ele>
        <time>2012-04-12T09:49:32Z</time>
      </trkpt>
      <trkpt lat="47.30412" lon="6.60342">
        <ele>506</ele>
        <time>2012-04-12T09:49:43Z</time>
      </trkpt>
      <trkpt lat="47.30412" lon="6.60342">
        <ele>506</ele>
        <time>2012-04-12T09:50:14Z</time>
      </trkpt>
      <trkpt lat="47.3042" lon="6.60357">
        <ele>556.2</ele>
        <time>2012-04-12T09:50:17Z</time>
      </trkpt>
      <trkpt lat="47.30426" lon="6.60364">
        <ele>556.5</ele>
        <time>2012-04-12T09:50:25Z</time>
      </trkpt>
      <trkpt lat="47.30426" lon="6.60364">
        <ele>506.1</ele>
        <time>2012-04-12T09:50:37Z</time>
      </trkpt>
      <trkpt lat="47.30426" lon="6.60364">
        <ele>506.1</ele>
        <time>2012-04-12T09:51:24Z</time>
      </trkpt>
      <trkpt lat="47.30438" lon="6.60374">
        <ele>558.6</ele>
        <time>2012-04-12T09:51:35Z</time>
      </trkpt>
      <trkpt lat="47.30443" lon="6.60382">
        <ele>559.6</ele>
        <time>2012-04-12T09:51:44Z</time>
      </trkpt>
      <trkpt lat="47.30443" lon="6.60382">
        <ele>506</ele>
        <time>2012-04-12T09:51:55Z</time>
      </trkpt>
      <trkpt lat="47.30443" lon="6.60382">
        <ele>506</ele>
        <time>2012-04-12T09:52:21Z</time>
      </trkpt>
      <trkpt lat="47.30443" lon="6.60382">
        <ele>506</ele>
        <time>2012-04-12T09:52:33Z</time>
      </trkpt>
      <trkpt lat="47.30443" lon="6.60382">
        <ele>506</ele>
        <time>2012-04-12T09:52:35Z</time>
      </trkpt>
      <trkpt lat="47.30443" lon="6.60382">
        <ele>506</ele>
        <time>2012-04-12T09:52:47Z</time>
      </trkpt>
      <trkpt lat="47.30443" lon="6.60382">
        <ele>506</ele>
        <time>2012-04-12T09:52:53Z</time>
      </trkpt>
      <trkpt lat="47.30453" lon="6.60394">
        <ele>560.2</ele>
        <time>2012-04-12T09:53:00Z</time>
      </trkpt>
      <trkpt lat="47.30447" lon="6.6039">
        <ele>561.7</ele>
        <time>2012-04-12T09:53:05Z</time>
      </trkpt>
      <trkpt lat="47.30447" lon="6.6039">
        <ele>505.9</ele>
        <time>2012-04-12T09:53:17Z</time>
      </trkpt>
      <trkpt lat="47.30447" lon="6.6039">
        <ele>505.9</ele>
        <time>2012-04-12T09:54:38Z</time>
      </trkpt>
      <trkpt lat="47.30468" lon="6.60389">
        <ele>559</ele>
        <time>2012-04-12T09:54:39Z</time>
      </trkpt>
      <trkpt lat="47.30474" lon="6.60388">
        <ele>557.2</ele>
        <time>2012-04-12T09:54:42Z</time>
      </trkpt>
      <trkpt lat="47.30481" lon="6.60389">
        <ele>559.5</ele>
        <time>2012-04-12T09:54:46Z</time>
      </trkpt>
      <trkpt lat="47.30489" lon="6.60388">
        <ele>559</ele>
        <time>2012-04-12T09:54:51Z</time>
      </trkpt>
      <trkpt lat="47.30495" lon="6.60388">
        <ele>562.6</ele>
        <time>2012-04-12T09:54:54Z</time>
      </trkpt>
      <trkpt lat="47.30502" lon="6.60392">
        <ele>562.3</ele>
        <time>2012-04-12T09:55:04Z</time>
      </trkpt>
      <trkpt lat="47.30509" lon="6.60394">
        <ele>559.6</ele>
        <time>2012-04-12T09:55:10Z</time>
      </trkpt>
      <trkpt lat="47.30516" lon="6.60394">
        <ele>558.4</ele>
        <time>2012-04-12T09:55:20Z</time>
      </trkpt>
      <trkpt lat="47.30522" lon="6.60399">
        <ele>558.3</ele>
        <time>2012-04-12T09:55:27Z</time>
      </trkpt>
      <trkpt lat="47.30528" lon="6.60401">
        <ele>557.8</ele>
        <time>2012-04-12T09:55:34Z</time>
      </trkpt>
      <trkpt lat="47.30532" lon="6.60409">
        <ele>555.8</ele>
        <time>2012-04-12T09:55:42Z</time>
      </trkpt>
      <trkpt lat="47.30532" lon="6.60409">
        <ele>504.8</ele>
        <time>2012-04-12T09:55:53Z</time>
      </trkpt>
      <trkpt lat="47.30532" lon="6.60409">
        <ele>504.8</ele>
        <time>2012-04-12T09:55:55Z</time>
      </trkpt>
      <trkpt lat="47.30546" lon="6.60411">
        <ele>558.6</ele>
        <time>2012-04-12T09:56:01Z</time>
      </trkpt>
      <trkpt lat="47.30546" lon="6.60411">
        <ele>504.9</ele>
        <time>2012-04-12T09:56:13Z</time>
      </trkpt>
      <trkpt lat="47.30546" lon="6.60411">
        <ele>504.9</ele>
        <time>2012-04-12T09:56:52Z</time>
      </trkpt>
      <trkpt lat="47.30548" lon="6.60397">
        <ele>571.1</ele>
        <time>2012-04-12T09:56:55Z</time>
      </trkpt>
      <trkpt lat="47.30555" lon="6.60396">
        <ele>571.3</ele>
        <time>2012-04-12T09:56:56Z</time>
      </trkpt>
      <trkpt lat="47.3055" lon="6.604">
        <ele>564.4</ele>
        <time>2012-04-12T09:57:01Z</time>
      </trkpt>
      <trkpt lat="47.3055" lon="6.604">
        <ele>504.9</ele>
        <time>2012-04-12T09:57:12Z</time>
      </trkpt>
      <trkpt lat="47.3055" lon="6.604">
        <ele>504.9</ele>
        <time>2012-04-12T09:59:34Z</time>
      </trkpt>
      <trkpt lat="47.3055" lon="6.604">
        <ele>504.9</ele>
        <time>2012-04-12T09:59:45Z</time>
      </trkpt>
      <trkpt lat="47.3055" lon="6.604">
        <ele>504.9</ele>
        <time>2012-04-12T10:00:33Z</time>
      </trkpt>
      <trkpt lat="47.30566" lon="6.60419">
        <ele>555.2</ele>
        <time>2012-04-12T10:00:43Z</time>
      </trkpt>
      <trkpt lat="47.30572" lon="6.60424">
        <ele>556</ele>
        <time>2012-04-12T10:00:46Z</time>
      </trkpt>
      <trkpt lat="47.30576" lon="6.60432">
        <ele>557.3</ele>
        <time>2012-04-12T10:00:55Z</time>
      </trkpt>
      <trkpt lat="47.30576" lon="6.60432">
        <ele>505.6</ele>
        <time>2012-04-12T10:01:06Z</time>
      </trkpt>
      <trkpt lat="47.30576" lon="6.60432">
        <ele>505.6</ele>
        <time>2012-04-12T10:01:15Z</time>
      </trkpt>
      <trkpt lat="47.30589" lon="6.60435">
        <ele>558.5</ele>
        <time>2012-04-12T10:01:19Z</time>
      </trkpt>
      <trkpt lat="47.30595" lon="6.60438">
        <ele>559.8</ele>
        <time>2012-04-12T10:01:25Z</time>
      </trkpt>
      <trkpt lat="47.30602" lon="6.6044">
        <ele>559.1</ele>
        <time>2012-04-12T10:01:31Z</time>
      </trkpt>
      <trkpt lat="47.30608" lon="6.60443">
        <ele>558</ele>
        <time>2012-04-12T10:01:35Z</time>
      </trkpt>
      <trkpt lat="47.30611" lon="6.60452">
        <ele>557.4</ele>
        <time>2012-04-12T10:01:40Z</time>
      </trkpt>
      <trkpt lat="47.30617" lon="6.60458">
        <ele>556</ele>
        <time>2012-04-12T10:01:45Z</time>
      </trkpt>
      <trkpt lat="47.30623" lon="6.60463">
        <ele>556.6</ele>
        <time>2012-04-12T10:01:51Z</time>
      </trkpt>
      <trkpt lat="47.30628" lon="6.60469">
        <ele>557.3</ele>
        <time>2012-04-12T10:01:56Z</time>
      </trkpt>
      <trkpt lat="47.30634" lon="6.60476">
        <ele>556.9</ele>
        <time>2012-04-12T10:02:04Z</time>
      </trkpt>
      <trkpt lat="47.30639" lon="6.60481">
        <ele>559.3</ele>
        <time>2012-04-12T10:02:09Z</time>
      </trkpt>
      <trkpt lat="47.30646" lon="6.60485">
        <ele>559.5</ele>
        <time>2012-04-12T10:02:14Z</time>
      </trkpt>
      <trkpt lat="47.30652" lon="6.60489">
        <ele>560.4</ele>
        <time>2012-04-12T10:02:17Z</time>
      </trkpt>
      <trkpt lat="47.30645" lon="6.60496">
        <ele>556</ele>
        <time>2012-04-12T10:02:20Z</time>
      </trkpt>
      <trkpt lat="47.30645" lon="6.60496">
        <ele>510.8</ele>
        <time>2012-04-12T10:02:31Z</time>
      </trkpt>
      <trkpt lat="47.30645" lon="6.60496">
        <ele>510.8</ele>
        <time>2012-04-12T10:02:54Z</time>
      </trkpt>
      <trkpt lat="47.30657" lon="6.60506">
        <ele>557.8</ele>
        <time>2012-04-12T10:02:58Z</time>
      </trkpt>
      <trkpt lat="47.30657" lon="6.60506">
        <ele>512.4</ele>
        <time>2012-04-12T10:03:09Z</time>
      </trkpt>
      <trkpt lat="47.30657" lon="6.60506">
        <ele>512.4</ele>
        <time>2012-04-12T10:03:18Z</time>
      </trkpt>
      <trkpt lat="47.3067" lon="6.60514">
        <ele>558.3</ele>
        <time>2012-04-12T10:03:24Z</time>
      </trkpt>
      <trkpt lat="47.30674" lon="6.60522">
        <ele>562.7</ele>
        <time>2012-04-12T10:03:32Z</time>
      </trkpt>
      <trkpt lat="47.30681" lon="6.60524">
        <ele>565.8</ele>
        <time>2012-04-12T10:03:37Z</time>
      </trkpt>
      <trkpt lat="47.30681" lon="6.60524">
        <ele>516</ele>
        <time>2012-04-12T10:03:48Z</time>
      </trkpt>
      <trkpt lat="47.30681" lon="6.60524">
        <ele>516</ele>
        <time>2012-04-12T10:03:55Z</time>
      </trkpt>
      <trkpt lat="47.3069" lon="6.60536">
        <ele>564.4</ele>
        <time>2012-04-12T10:04:00Z</time>
      </trkpt>
      <trkpt lat="47.30697" lon="6.6054">
        <ele>565.5</ele>
        <time>2012-04-12T10:04:05Z</time>
      </trkpt>
      <trkpt lat="47.30703" lon="6.60544">
        <ele>567.2</ele>
        <time>2012-04-12T10:04:11Z</time>
      </trkpt>
      <trkpt lat="47.30708" lon="6.60551">
        <ele>567.2</ele>
        <time>2012-04-12T10:04:17Z</time>
      </trkpt>
      <trkpt lat="47.30714" lon="6.60556">
        <ele>568.8</ele>
        <time>2012-04-12T10:04:22Z</time>
      </trkpt>
      <trkpt lat="47.30721" lon="6.60556">
        <ele>569.5</ele>
        <time>2012-04-12T10:04:28Z</time>
      </trkpt>
      <trkpt lat="47.30727" lon="6.60562">
        <ele>570.1</ele>
        <time>2012-04-12T10:04:36Z</time>
      </trkpt>
      <trkpt lat="47.30732" lon="6.60569">
        <ele>569</ele>
        <time>2012-04-12T10:04:48Z</time>
      </trkpt>
      <trkpt lat="47.30738" lon="6.60574">
        <ele>570.7</ele>
        <time>2012-04-12T10:04:56Z</time>
      </trkpt>
      <trkpt lat="47.30744" lon="6.60579">
        <ele>573</ele>
        <time>2012-04-12T10:05:03Z</time>
      </trkpt>
      <trkpt lat="47.30752" lon="6.60583">
        <ele>574.5</ele>
        <time>2012-04-12T10:05:10Z</time>
      </trkpt>
      <trkpt lat="47.30758" lon="6.60586">
        <ele>576.7</ele>
        <time>2012-04-12T10:05:17Z</time>
      </trkpt>
      <trkpt lat="47.30763" lon="6.60592">
        <ele>578.1</ele>
        <time>2012-04-12T10:05:24Z</time>
      </trkpt>
      <trkpt lat="47.30768" lon="6.60598">
        <ele>578</ele>
        <time>2012-04-12T10:05:35Z</time>
      </trkpt>
      <trkpt lat="47.30774" lon="6.60602">
        <ele>577.9</ele>
        <time>2012-04-12T10:05:41Z</time>
      </trkpt>
      <trkpt lat="47.3078" lon="6.60604">
        <ele>578.1</ele>
        <time>2012-04-12T10:05:48Z</time>
      </trkpt>
      <trkpt lat="47.30787" lon="6.6061">
        <ele>575.6</ele>
        <time>2012-04-12T10:05:54Z</time>
      </trkpt>
      <trkpt lat="47.30795" lon="6.60612">
        <ele>576.1</ele>
        <time>2012-04-12T10:06:01Z</time>
      </trkpt>
      <trkpt lat="47.30801" lon="6.60618">
        <ele>576.6</ele>
        <time>2012-04-12T10:06:09Z</time>
      </trkpt>
      <trkpt lat="47.30801" lon="6.60618">
        <ele>529.7</ele>
        <time>2012-04-12T10:06:20Z</time>
      </trkpt>
      <trkpt lat="47.30801" lon="6.60618">
        <ele>529.7</ele>
        <time>2012-04-12T10:06:22Z</time>
      </trkpt>
      <trkpt lat="47.30811" lon="6.6063">
        <ele>579.5</ele>
        <time>2012-04-12T10:06:30Z</time>
      </trkpt>
      <trkpt lat="47.30817" lon="6.60635">
        <ele>579.7</ele>
        <time>2012-04-12T10:06:38Z</time>
      </trkpt>
      <trkpt lat="47.30822" lon="6.6064">
        <ele>580.1</ele>
        <time>2012-04-12T10:06:46Z</time>
      </trkpt>
      <trkpt lat="47.30828" lon="6.60648">
        <ele>579.7</ele>
        <time>2012-04-12T10:06:51Z</time>
      </trkpt>
      <trkpt lat="47.30834" lon="6.6065">
        <ele>582.7</ele>
        <time>2012-04-12T10:07:00Z</time>
      </trkpt>
      <trkpt lat="47.30834" lon="6.6065">
        <ele>533.6</ele>
        <time>2012-04-12T10:07:11Z</time>
      </trkpt>
      <trkpt lat="47.30834" lon="6.6065">
        <ele>533.6</ele>
        <time>2012-04-12T10:07:19Z</time>
      </trkpt>
      <trkpt lat="47.30846" lon="6.60663">
        <ele>582.7</ele>
        <time>2012-04-12T10:07:23Z</time>
      </trkpt>
      <trkpt lat="47.30852" lon="6.60664">
        <ele>582</ele>
        <time>2012-04-12T10:07:27Z</time>
      </trkpt>
      <trkpt lat="47.30858" lon="6.6067">
        <ele>586.3</ele>
        <time>2012-04-12T10:07:38Z</time>
      </trkpt>
      <trkpt lat="47.30862" lon="6.60678">
        <ele>587.1</ele>
        <time>2012-04-12T10:07:46Z</time>
      </trkpt>
      <trkpt lat="47.30869" lon="6.60678">
        <ele>588</ele>
        <time>2012-04-12T10:07:53Z</time>
      </trkpt>
      <trkpt lat="47.30874" lon="6.60684">
        <ele>586.5</ele>
        <time>2012-04-12T10:08:00Z</time>
      </trkpt>
      <trkpt lat="47.3088" lon="6.60691">
        <ele>588.5</ele>
        <time>2012-04-12T10:08:06Z</time>
      </trkpt>
      <trkpt lat="47.30886" lon="6.60694">
        <ele>590.8</ele>
        <time>2012-04-12T10:08:11Z</time>
      </trkpt>
      <trkpt lat="47.30894" lon="6.60694">
        <ele>588.6</ele>
        <time>2012-04-12T10:08:17Z</time>
      </trkpt>
      <trkpt lat="47.30894" lon="6.60694">
        <ele>538.6</ele>
        <time>2012-04-12T10:08:28Z</time>
      </trkpt>
      <trkpt lat="47.30894" lon="6.60694">
        <ele>538.6</ele>
        <time>2012-04-12T10:08:54Z</time>
      </trkpt>
      <trkpt lat="47.30902" lon="6.60709">
        <ele>588.8</ele>
        <time>2012-04-12T10:09:02Z</time>
      </trkpt>
      <trkpt lat="47.30906" lon="6.60718">
        <ele>589.3</ele>
        <time>2012-04-12T10:09:06Z</time>
      </trkpt>
      <trkpt lat="47.30909" lon="6.60728">
        <ele>591.1</ele>
        <time>2012-04-12T10:09:14Z</time>
      </trkpt>
      <trkpt lat="47.30906" lon="6.60738">
        <ele>593</ele>
        <time>2012-04-12T10:09:20Z</time>
      </trkpt>
      <trkpt lat="47.30903" lon="6.60747">
        <ele>591.9</ele>
        <time>2012-04-12T10:09:27Z</time>
      </trkpt>
      <trkpt lat="47.30897" lon="6.60753">
        <ele>590.1</ele>
        <time>2012-04-12T10:09:31Z</time>
      </trkpt>
      <trkpt lat="47.3089" lon="6.60756">
        <ele>589.7</ele>
        <time>2012-04-12T10:09:38Z</time>
      </trkpt>
      <trkpt lat="47.30883" lon="6.60759">
        <ele>590.9</ele>
        <time>2012-04-12T10:09:46Z</time>
      </trkpt>
      <trkpt lat="47.30876" lon="6.60764">
        <ele>592.9</ele>
        <time>2012-04-12T10:09:53Z</time>
      </trkpt>
      <trkpt lat="47.3087" lon="6.60768">
        <ele>594</ele>
        <time>2012-04-12T10:10:00Z</time>
      </trkpt>
      <trkpt lat="47.30864" lon="6.6077">
        <ele>595</ele>
        <time>2012-04-12T10:10:06Z</time>
      </trkpt>
      <trkpt lat="47.30857" lon="6.60773">
        <ele>595</ele>
        <time>2012-04-12T10:10:13Z</time>
      </trkpt>
      <trkpt lat="47.3085" lon="6.60775">
        <ele>597</ele>
        <time>2012-04-12T10:10:21Z</time>
      </trkpt>
      <trkpt lat="47.30844" lon="6.6078">
        <ele>596.8</ele>
        <time>2012-04-12T10:10:31Z</time>
      </trkpt>
      <trkpt lat="47.30838" lon="6.60783">
        <ele>597.1</ele>
        <time>2012-04-12T10:10:36Z</time>
      </trkpt>
      <trkpt lat="47.30832" lon="6.60788">
        <ele>598</ele>
        <time>2012-04-12T10:10:43Z</time>
      </trkpt>
      <trkpt lat="47.30826" lon="6.60789">
        <ele>599.3</ele>
        <time>2012-04-12T10:10:49Z</time>
      </trkpt>
      <trkpt lat="47.3082" lon="6.60795">
        <ele>602</ele>
        <time>2012-04-12T10:10:57Z</time>
      </trkpt>
      <trkpt lat="47.30816" lon="6.60801">
        <ele>599.9</ele>
        <time>2012-04-12T10:11:04Z</time>
      </trkpt>
      <trkpt lat="47.3081" lon="6.60807">
        <ele>600.9</ele>
        <time>2012-04-12T10:11:12Z</time>
      </trkpt>
      <trkpt lat="47.30804" lon="6.6081">
        <ele>603.2</ele>
        <time>2012-04-12T10:11:18Z</time>
      </trkpt>
      <trkpt lat="47.30798" lon="6.60809">
        <ele>604.9</ele>
        <time>2012-04-12T10:11:24Z</time>
      </trkpt>
      <trkpt lat="47.30792" lon="6.60814">
        <ele>608.1</ele>
        <time>2012-04-12T10:11:35Z</time>
      </trkpt>
      <trkpt lat="47.30788" lon="6.60821">
        <ele>609.3</ele>
        <time>2012-04-12T10:11:40Z</time>
      </trkpt>
      <trkpt lat="47.30783" lon="6.60828">
        <ele>609.5</ele>
        <time>2012-04-12T10:11:45Z</time>
      </trkpt>
      <trkpt lat="47.30776" lon="6.60831">
        <ele>610.8</ele>
        <time>2012-04-12T10:11:48Z</time>
      </trkpt>
      <trkpt lat="47.30776" lon="6.60831">
        <ele>563.3</ele>
        <time>2012-04-12T10:11:59Z</time>
      </trkpt>
      <trkpt lat="47.30776" lon="6.60831">
        <ele>563.3</ele>
        <time>2012-04-12T10:12:31Z</time>
      </trkpt>
      <trkpt lat="47.30787" lon="6.60817">
        <ele>608.6</ele>
        <time>2012-04-12T10:12:36Z</time>
      </trkpt>
      <trkpt lat="47.30794" lon="6.60813">
        <ele>611</ele>
        <time>2012-04-12T10:12:42Z</time>
      </trkpt>
      <trkpt lat="47.30801" lon="6.6081">
        <ele>610.2</ele>
        <time>2012-04-12T10:12:46Z</time>
      </trkpt>
      <trkpt lat="47.30801" lon="6.6081">
        <ele>558</ele>
        <time>2012-04-12T10:12:57Z</time>
      </trkpt>
      <trkpt lat="47.30801" lon="6.6081">
        <ele>558</ele>
        <time>2012-04-12T10:13:00Z</time>
      </trkpt>
      <trkpt lat="47.30814" lon="6.60813">
        <ele>608.7</ele>
        <time>2012-04-12T10:13:04Z</time>
      </trkpt>
      <trkpt lat="47.3082" lon="6.60814">
        <ele>609.3</ele>
        <time>2012-04-12T10:13:08Z</time>
      </trkpt>
      <trkpt lat="47.30826" lon="6.60811">
        <ele>608.5</ele>
        <time>2012-04-12T10:13:12Z</time>
      </trkpt>
      <trkpt lat="47.30832" lon="6.60815">
        <ele>609.8</ele>
        <time>2012-04-12T10:13:18Z</time>
      </trkpt>
      <trkpt lat="47.30832" lon="6.60815">
        <ele>559.1</ele>
        <time>2012-04-12T10:13:29Z</time>
      </trkpt>
      <trkpt lat="47.30832" lon="6.60815">
        <ele>559.1</ele>
        <time>2012-04-12T10:13:30Z</time>
      </trkpt>
      <trkpt lat="47.30847" lon="6.60812">
        <ele>609.7</ele>
        <time>2012-04-12T10:13:36Z</time>
      </trkpt>
      <trkpt lat="47.30853" lon="6.60813">
        <ele>612</ele>
        <time>2012-04-12T10:13:43Z</time>
      </trkpt>
      <trkpt lat="47.30853" lon="6.60813">
        <ele>558.6</ele>
        <time>2012-04-12T10:13:55Z</time>
      </trkpt>
      <trkpt lat="47.30853" lon="6.60813">
        <ele>558.6</ele>
        <time>2012-04-12T10:14:01Z</time>
      </trkpt>
      <trkpt lat="47.30866" lon="6.60822">
        <ele>606.3</ele>
        <time>2012-04-12T10:14:06Z</time>
      </trkpt>
      <trkpt lat="47.30866" lon="6.60822">
        <ele>560.2</ele>
        <time>2012-04-12T10:14:17Z</time>
      </trkpt>
      <trkpt lat="47.30866" lon="6.60822">
        <ele>560.2</ele>
        <time>2012-04-12T10:14:17Z</time>
      </trkpt>
      <trkpt lat="47.3088" lon="6.60822">
        <ele>609.5</ele>
        <time>2012-04-12T10:14:20Z</time>
      </trkpt>
      <trkpt lat="47.30887" lon="6.6082">
        <ele>611.4</ele>
        <time>2012-04-12T10:14:25Z</time>
      </trkpt>
      <trkpt lat="47.30893" lon="6.60825">
        <ele>613</ele>
        <time>2012-04-12T10:14:31Z</time>
      </trkpt>
      <trkpt lat="47.309" lon="6.60827">
        <ele>614.3</ele>
        <time>2012-04-12T10:14:37Z</time>
      </trkpt>
      <trkpt lat="47.30907" lon="6.60827">
        <ele>614.9</ele>
        <time>2012-04-12T10:14:43Z</time>
      </trkpt>
      <trkpt lat="47.30914" lon="6.60824">
        <ele>613.8</ele>
        <time>2012-04-12T10:14:50Z</time>
      </trkpt>
      <trkpt lat="47.3092" lon="6.60829">
        <ele>614.2</ele>
        <time>2012-04-12T10:14:54Z</time>
      </trkpt>
      <trkpt lat="47.3092" lon="6.60829">
        <ele>558</ele>
        <time>2012-04-12T10:17:08Z</time>
      </trkpt>
      <trkpt lat="47.3092" lon="6.60829">
        <ele>558</ele>
        <time>2012-04-12T10:17:56Z</time>
      </trkpt>
      <trkpt lat="47.31057" lon="6.60867">
        <ele>603.2</ele>
        <time>2012-04-12T10:18:05Z</time>
      </trkpt>
      <trkpt lat="47.31057" lon="6.60867">
        <ele>557</ele>
        <time>2012-04-12T10:18:16Z</time>
      </trkpt>
      <trkpt lat="47.31057" lon="6.60867">
        <ele>557</ele>
        <time>2012-04-12T10:18:19Z</time>
      </trkpt>
      <trkpt lat="47.31075" lon="6.6087">
        <ele>602.5</ele>
        <time>2012-04-12T10:18:22Z</time>
      </trkpt>
      <trkpt lat="47.31084" lon="6.60871">
        <ele>603</ele>
        <time>2012-04-12T10:18:25Z</time>
      </trkpt>
      <trkpt lat="47.31091" lon="6.60872">
        <ele>602.3</ele>
        <time>2012-04-12T10:18:27Z</time>
      </trkpt>
      <trkpt lat="47.31099" lon="6.60873">
        <ele>602.5</ele>
        <time>2012-04-12T10:18:32Z</time>
      </trkpt>
      <trkpt lat="47.31106" lon="6.60874">
        <ele>602.9</ele>
        <time>2012-04-12T10:18:38Z</time>
      </trkpt>
      <trkpt lat="47.31113" lon="6.60869">
        <ele>602.7</ele>
        <time>2012-04-12T10:18:44Z</time>
      </trkpt>
      <trkpt lat="47.31121" lon="6.60869">
        <ele>604.1</ele>
        <time>2012-04-12T10:18:51Z</time>
      </trkpt>
      <trkpt lat="47.31127" lon="6.60875">
        <ele>604.7</ele>
        <time>2012-04-12T10:18:56Z</time>
      </trkpt>
      <trkpt lat="47.31133" lon="6.60871">
        <ele>605.1</ele>
        <time>2012-04-12T10:19:02Z</time>
      </trkpt>
      <trkpt lat="47.31141" lon="6.60874">
        <ele>605.3</ele>
        <time>2012-04-12T10:19:06Z</time>
      </trkpt>
      <trkpt lat="47.31148" lon="6.60876">
        <ele>604.4</ele>
        <time>2012-04-12T10:19:12Z</time>
      </trkpt>
      <trkpt lat="47.31154" lon="6.60875">
        <ele>605.7</ele>
        <time>2012-04-12T10:19:20Z</time>
      </trkpt>
      <trkpt lat="47.31162" lon="6.60874">
        <ele>605</ele>
        <time>2012-04-12T10:19:26Z</time>
      </trkpt>
      <trkpt lat="47.31168" lon="6.60875">
        <ele>605.7</ele>
        <time>2012-04-12T10:19:32Z</time>
      </trkpt>
      <trkpt lat="47.31174" lon="6.60878">
        <ele>605</ele>
        <time>2012-04-12T10:19:36Z</time>
      </trkpt>
      <trkpt lat="47.31174" lon="6.60878">
        <ele>557.1</ele>
        <time>2012-04-12T10:19:47Z</time>
      </trkpt>
      <trkpt lat="47.31174" lon="6.60878">
        <ele>557.1</ele>
        <time>2012-04-12T10:19:55Z</time>
      </trkpt>
      <trkpt lat="47.31188" lon="6.60881">
        <ele>603.6</ele>
        <time>2012-04-12T10:20:01Z</time>
      </trkpt>
      <trkpt lat="47.31193" lon="6.60886">
        <ele>601.2</ele>
        <time>2012-04-12T10:20:08Z</time>
      </trkpt>
      <trkpt lat="47.31193" lon="6.60886">
        <ele>558.4</ele>
        <time>2012-04-12T10:20:19Z</time>
      </trkpt>
      <trkpt lat="47.31193" lon="6.60886">
        <ele>558.4</ele>
        <time>2012-04-12T10:20:53Z</time>
      </trkpt>
      <trkpt lat="47.31208" lon="6.60889">
        <ele>600.6</ele>
        <time>2012-04-12T10:21:01Z</time>
      </trkpt>
      <trkpt lat="47.31213" lon="6.60885">
        <ele>601.9</ele>
        <time>2012-04-12T10:21:06Z</time>
      </trkpt>
      <trkpt lat="47.3122" lon="6.60886">
        <ele>601.7</ele>
        <time>2012-04-12T10:21:12Z</time>
      </trkpt>
      <trkpt lat="47.31228" lon="6.60885">
        <ele>603</ele>
        <time>2012-04-12T10:21:18Z</time>
      </trkpt>
      <trkpt lat="47.31235" lon="6.60884">
        <ele>604.6</ele>
        <time>2012-04-12T10:21:25Z</time>
      </trkpt>
      <trkpt lat="47.31243" lon="6.60884">
        <ele>606.5</ele>
        <time>2012-04-12T10:21:29Z</time>
      </trkpt>
      <trkpt lat="47.3125" lon="6.60884">
        <ele>607.7</ele>
        <time>2012-04-12T10:21:33Z</time>
      </trkpt>
      <trkpt lat="47.31256" lon="6.60882">
        <ele>608.8</ele>
        <time>2012-04-12T10:21:41Z</time>
      </trkpt>
      <trkpt lat="47.31262" lon="6.60879">
        <ele>608.1</ele>
        <time>2012-04-12T10:21:46Z</time>
      </trkpt>
      <trkpt lat="47.31268" lon="6.60885">
        <ele>607.8</ele>
        <time>2012-04-12T10:21:54Z</time>
      </trkpt>
      <trkpt lat="47.31275" lon="6.60881">
        <ele>607.5</ele>
        <time>2012-04-12T10:22:01Z</time>
      </trkpt>
      <trkpt lat="47.31283" lon="6.6088">
        <ele>609.4</ele>
        <time>2012-04-12T10:22:07Z</time>
      </trkpt>
      <trkpt lat="47.3129" lon="6.6088">
        <ele>608.4</ele>
        <time>2012-04-12T10:22:13Z</time>
      </trkpt>
      <trkpt lat="47.31296" lon="6.60879">
        <ele>606.5</ele>
        <time>2012-04-12T10:22:22Z</time>
      </trkpt>
      <trkpt lat="47.31303" lon="6.60879">
        <ele>604.8</ele>
        <time>2012-04-12T10:22:29Z</time>
      </trkpt>
      <trkpt lat="47.31311" lon="6.60878">
        <ele>608.1</ele>
        <time>2012-04-12T10:22:36Z</time>
      </trkpt>
      <trkpt lat="47.31319" lon="6.60875">
        <ele>607.7</ele>
        <time>2012-04-12T10:22:42Z</time>
      </trkpt>
      <trkpt lat="47.31327" lon="6.60875">
        <ele>606.4</ele>
        <time>2012-04-12T10:22:49Z</time>
      </trkpt>
      <trkpt lat="47.31335" lon="6.60878">
        <ele>608.7</ele>
        <time>2012-04-12T10:22:55Z</time>
      </trkpt>
      <trkpt lat="47.31342" lon="6.60876">
        <ele>609.4</ele>
        <time>2012-04-12T10:23:04Z</time>
      </trkpt>
      <trkpt lat="47.31349" lon="6.60878">
        <ele>611.7</ele>
        <time>2012-04-12T10:23:09Z</time>
      </trkpt>
      <trkpt lat="47.31356" lon="6.60876">
        <ele>608.7</ele>
        <time>2012-04-12T10:23:19Z</time>
      </trkpt>
      <trkpt lat="47.31363" lon="6.6088">
        <ele>611.9</ele>
        <time>2012-04-12T10:23:25Z</time>
      </trkpt>
      <trkpt lat="47.3137" lon="6.60879">
        <ele>611.9</ele>
        <time>2012-04-12T10:23:32Z</time>
      </trkpt>
      <trkpt lat="47.31376" lon="6.6088">
        <ele>611.2</ele>
        <time>2012-04-12T10:23:37Z</time>
      </trkpt>
      <trkpt lat="47.31383" lon="6.60878">
        <ele>609.5</ele>
        <time>2012-04-12T10:23:45Z</time>
      </trkpt>
      <trkpt lat="47.31383" lon="6.60878">
        <ele>559.6</ele>
        <time>2012-04-12T10:23:56Z</time>
      </trkpt>
      <trkpt lat="47.31383" lon="6.60878">
        <ele>559.6</ele>
        <time>2012-04-12T10:23:58Z</time>
      </trkpt>
      <trkpt lat="47.31398" lon="6.60878">
        <ele>608.3</ele>
        <time>2012-04-12T10:24:04Z</time>
      </trkpt>
      <trkpt lat="47.31405" lon="6.6088">
        <ele>609.3</ele>
        <time>2012-04-12T10:24:09Z</time>
      </trkpt>
      <trkpt lat="47.31414" lon="6.60882">
        <ele>610.7</ele>
        <time>2012-04-12T10:24:16Z</time>
      </trkpt>
      <trkpt lat="47.31414" lon="6.60882">
        <ele>559.8</ele>
        <time>2012-04-12T10:24:27Z</time>
      </trkpt>
      <trkpt lat="47.31414" lon="6.60882">
        <ele>559.8</ele>
        <time>2012-04-12T10:24:32Z</time>
      </trkpt>
      <trkpt lat="47.31427" lon="6.60884">
        <ele>613.6</ele>
        <time>2012-04-12T10:24:37Z</time>
      </trkpt>
      <trkpt lat="47.31434" lon="6.60889">
        <ele>613.2</ele>
        <time>2012-04-12T10:24:44Z</time>
      </trkpt>
      <trkpt lat="47.31441" lon="6.60889">
        <ele>614.4</ele>
        <time>2012-04-12T10:24:52Z</time>
      </trkpt>
      <trkpt lat="47.31441" lon="6.60889">
        <ele>561.9</ele>
        <time>2012-04-12T10:25:04Z</time>
      </trkpt>
      <trkpt lat="47.31441" lon="6.60889">
        <ele>561.9</ele>
        <time>2012-04-12T10:25:17Z</time>
      </trkpt>
      <trkpt lat="47.31453" lon="6.60893">
        <ele>614.8</ele>
        <time>2012-04-12T10:25:20Z</time>
      </trkpt>
      <trkpt lat="47.3146" lon="6.60894">
        <ele>613.5</ele>
        <time>2012-04-12T10:25:26Z</time>
      </trkpt>
      <trkpt lat="47.31467" lon="6.60893">
        <ele>613.6</ele>
        <time>2012-04-12T10:25:33Z</time>
      </trkpt>
      <trkpt lat="47.31476" lon="6.60892">
        <ele>612.7</ele>
        <time>2012-04-12T10:25:43Z</time>
      </trkpt>
      <trkpt lat="47.31483" lon="6.60893">
        <ele>611.6</ele>
        <time>2012-04-12T10:25:51Z</time>
      </trkpt>
      <trkpt lat="47.3149" lon="6.60896">
        <ele>610</ele>
        <time>2012-04-12T10:25:56Z</time>
      </trkpt>
      <trkpt lat="47.31497" lon="6.60899">
        <ele>609.1</ele>
        <time>2012-04-12T10:26:03Z</time>
      </trkpt>
      <trkpt lat="47.31504" lon="6.60897">
        <ele>610.7</ele>
        <time>2012-04-12T10:26:13Z</time>
      </trkpt>
      <trkpt lat="47.31511" lon="6.60898">
        <ele>611.1</ele>
        <time>2012-04-12T10:26:21Z</time>
      </trkpt>
      <trkpt lat="47.31517" lon="6.60896">
        <ele>612.6</ele>
        <time>2012-04-12T10:26:27Z</time>
      </trkpt>
      <trkpt lat="47.31524" lon="6.60893">
        <ele>614.9</ele>
        <time>2012-04-12T10:26:35Z</time>
      </trkpt>
      <trkpt lat="47.31529" lon="6.609">
        <ele>614.3</ele>
        <time>2012-04-12T10:26:42Z</time>
      </trkpt>
      <trkpt lat="47.31529" lon="6.609">
        <ele>568</ele>
        <time>2012-04-12T10:26:53Z</time>
      </trkpt>
      <trkpt lat="47.31529" lon="6.609">
        <ele>568</ele>
        <time>2012-04-12T10:26:55Z</time>
      </trkpt>
      <trkpt lat="47.31542" lon="6.60905">
        <ele>613.6</ele>
        <time>2012-04-12T10:27:02Z</time>
      </trkpt>
      <trkpt lat="47.31549" lon="6.60903">
        <ele>614.5</ele>
        <time>2012-04-12T10:27:07Z</time>
      </trkpt>
      <trkpt lat="47.31558" lon="6.60903">
        <ele>618.2</ele>
        <time>2012-04-12T10:27:15Z</time>
      </trkpt>
      <trkpt lat="47.31565" lon="6.60902">
        <ele>617.8</ele>
        <time>2012-04-12T10:27:21Z</time>
      </trkpt>
      <trkpt lat="47.31573" lon="6.60906">
        <ele>618.6</ele>
        <time>2012-04-12T10:27:28Z</time>
      </trkpt>
      <trkpt lat="47.31579" lon="6.609">
        <ele>619.4</ele>
        <time>2012-04-12T10:27:35Z</time>
      </trkpt>
      <trkpt lat="47.31586" lon="6.60901">
        <ele>619.2</ele>
        <time>2012-04-12T10:27:41Z</time>
      </trkpt>
      <trkpt lat="47.31592" lon="6.609">
        <ele>620.1</ele>
        <time>2012-04-12T10:27:50Z</time>
      </trkpt>
      <trkpt lat="47.31598" lon="6.609">
        <ele>619.3</ele>
        <time>2012-04-12T10:27:57Z</time>
      </trkpt>
      <trkpt lat="47.31605" lon="6.60899">
        <ele>619.8</ele>
        <time>2012-04-12T10:28:01Z</time>
      </trkpt>
      <trkpt lat="47.31613" lon="6.609">
        <ele>618.5</ele>
        <time>2012-04-12T10:28:06Z</time>
      </trkpt>
      <trkpt lat="47.3162" lon="6.60901">
        <ele>616.6</ele>
        <time>2012-04-12T10:28:16Z</time>
      </trkpt>
      <trkpt lat="47.31626" lon="6.60902">
        <ele>615.7</ele>
        <time>2012-04-12T10:28:22Z</time>
      </trkpt>
      <trkpt lat="47.31633" lon="6.60901">
        <ele>615.6</ele>
        <time>2012-04-12T10:28:26Z</time>
      </trkpt>
      <trkpt lat="47.3164" lon="6.609">
        <ele>617.6</ele>
        <time>2012-04-12T10:28:30Z</time>
      </trkpt>
      <trkpt lat="47.31647" lon="6.60902">
        <ele>617.3</ele>
        <time>2012-04-12T10:28:37Z</time>
      </trkpt>
      <trkpt lat="47.31647" lon="6.60902">
        <ele>572.4</ele>
        <time>2012-04-12T10:28:48Z</time>
      </trkpt>
      <trkpt lat="47.31647" lon="6.60902">
        <ele>572.4</ele>
        <time>2012-04-12T10:28:50Z</time>
      </trkpt>
      <trkpt lat="47.31663" lon="6.60901">
        <ele>619.3</ele>
        <time>2012-04-12T10:28:57Z</time>
      </trkpt>
      <trkpt lat="47.31663" lon="6.60901">
        <ele>572.1</ele>
        <time>2012-04-12T10:29:08Z</time>
      </trkpt>
      <trkpt lat="47.31663" lon="6.60901">
        <ele>572.1</ele>
        <time>2012-04-12T10:29:16Z</time>
      </trkpt>
      <trkpt lat="47.31675" lon="6.60908">
        <ele>619.8</ele>
        <time>2012-04-12T10:29:25Z</time>
      </trkpt>
      <trkpt lat="47.31682" lon="6.60908">
        <ele>620.3</ele>
        <time>2012-04-12T10:29:30Z</time>
      </trkpt>
      <trkpt lat="47.3169" lon="6.60913">
        <ele>621.1</ele>
        <time>2012-04-12T10:29:35Z</time>
      </trkpt>
      <trkpt lat="47.31697" lon="6.60914">
        <ele>619.9</ele>
        <time>2012-04-12T10:29:41Z</time>
      </trkpt>
      <trkpt lat="47.31703" lon="6.60917">
        <ele>620.5</ele>
        <time>2012-04-12T10:29:45Z</time>
      </trkpt>
      <trkpt lat="47.3171" lon="6.60918">
        <ele>620.4</ele>
        <time>2012-04-12T10:29:53Z</time>
      </trkpt>
      <trkpt lat="47.31718" lon="6.60917">
        <ele>620.8</ele>
        <time>2012-04-12T10:29:59Z</time>
      </trkpt>
      <trkpt lat="47.31833" lon="6.60579">
        <ele>636.6</ele>
        <time>2012-04-12T11:27:45Z</time>
      </trkpt>
      <trkpt lat="47.31839" lon="6.60583">
        <ele>636.2</ele>
        <time>2012-04-12T11:27:50Z</time>
      </trkpt>
      <trkpt lat="47.31845" lon="6.60588">
        <ele>637</ele>
        <time>2012-04-12T11:27:55Z</time>
      </trkpt>
      <trkpt lat="47.31853" lon="6.60592">
        <ele>637.1</ele>
        <time>2012-04-12T11:27:58Z</time>
      </trkpt>
      <trkpt lat="47.31857" lon="6.60599">
        <ele>639</ele>
        <time>2012-04-12T11:28:04Z</time>
      </trkpt>
      <trkpt lat="47.31862" lon="6.60604">
        <ele>638.5</ele>
        <time>2012-04-12T11:28:13Z</time>
      </trkpt>
      <trkpt lat="47.31868" lon="6.60609">
        <ele>637.1</ele>
        <time>2012-04-12T11:28:17Z</time>
      </trkpt>
      <trkpt lat="47.3187" lon="6.60619">
        <ele>636.7</ele>
        <time>2012-04-12T11:28:22Z</time>
      </trkpt>
      <trkpt lat="47.31876" lon="6.60623">
        <ele>636.3</ele>
        <time>2012-04-12T11:28:27Z</time>
      </trkpt>
      <trkpt lat="47.31884" lon="6.6063">
        <ele>635.8</ele>
        <time>2012-04-12T11:28:36Z</time>
      </trkpt>
      <trkpt lat="47.31887" lon="6.60638">
        <ele>636</ele>
        <time>2012-04-12T11:28:41Z</time>
      </trkpt>
      <trkpt lat="47.31894" lon="6.6064">
        <ele>636.5</ele>
        <time>2012-04-12T11:28:47Z</time>
      </trkpt>
      <trkpt lat="47.31902" lon="6.60641">
        <ele>635.2</ele>
        <time>2012-04-12T11:28:54Z</time>
      </trkpt>
      <trkpt lat="47.31908" lon="6.60647">
        <ele>635.7</ele>
        <time>2012-04-12T11:28:58Z</time>
      </trkpt>
      <trkpt lat="47.31914" lon="6.60651">
        <ele>634.3</ele>
        <time>2012-04-12T11:29:03Z</time>
      </trkpt>
      <trkpt lat="47.31919" lon="6.60657">
        <ele>636</ele>
        <time>2012-04-12T11:29:09Z</time>
      </trkpt>
      <trkpt lat="47.31926" lon="6.6066">
        <ele>637.4</ele>
        <time>2012-04-12T11:29:15Z</time>
      </trkpt>
      <trkpt lat="47.31927" lon="6.6067">
        <ele>638.3</ele>
        <time>2012-04-12T11:29:20Z</time>
      </trkpt>
      <trkpt lat="47.3193" lon="6.6068">
        <ele>637.6</ele>
        <time>2012-04-12T11:29:27Z</time>
      </trkpt>
      <trkpt lat="47.31933" lon="6.60689">
        <ele>638.9</ele>
        <time>2012-04-12T11:29:32Z</time>
      </trkpt>
      <trkpt lat="47.31937" lon="6.60697">
        <ele>640.1</ele>
        <time>2012-04-12T11:29:39Z</time>
      </trkpt>
      <trkpt lat="47.31939" lon="6.60706">
        <ele>641.4</ele>
        <time>2012-04-12T11:29:45Z</time>
      </trkpt>
      <trkpt lat="47.31943" lon="6.60713">
        <ele>642.1</ele>
        <time>2012-04-12T11:29:52Z</time>
      </trkpt>
      <trkpt lat="47.31948" lon="6.60721">
        <ele>641.1</ele>
        <time>2012-04-12T11:29:59Z</time>
      </trkpt>
      <trkpt lat="47.31954" lon="6.60718">
        <ele>641.8</ele>
        <time>2012-04-12T11:30:07Z</time>
      </trkpt>
      <trkpt lat="47.31955" lon="6.60708">
        <ele>641.3</ele>
        <time>2012-04-12T11:30:14Z</time>
      </trkpt>
      <trkpt lat="47.31953" lon="6.60699">
        <ele>640.7</ele>
        <time>2012-04-12T11:30:19Z</time>
      </trkpt>
      <trkpt lat="47.31952" lon="6.60689">
        <ele>639.3</ele>
        <time>2012-04-12T11:30:26Z</time>
      </trkpt>
      <trkpt lat="47.31952" lon="6.6068">
        <ele>639.4</ele>
        <time>2012-04-12T11:30:29Z</time>
      </trkpt>
      <trkpt lat="47.31951" lon="6.60669">
        <ele>637.9</ele>
        <time>2012-04-12T11:30:39Z</time>
      </trkpt>
      <trkpt lat="47.31948" lon="6.60661">
        <ele>639</ele>
        <time>2012-04-12T11:30:45Z</time>
      </trkpt>
      <trkpt lat="47.31944" lon="6.60652">
        <ele>638.1</ele>
        <time>2012-04-12T11:30:52Z</time>
      </trkpt>
      <trkpt lat="47.31942" lon="6.60641">
        <ele>639.1</ele>
        <time>2012-04-12T11:30:58Z</time>
      </trkpt>
      <trkpt lat="47.31941" lon="6.6063">
        <ele>638.5</ele>
        <time>2012-04-12T11:31:06Z</time>
      </trkpt>
      <trkpt lat="47.31941" lon="6.6062">
        <ele>638.3</ele>
        <time>2012-04-12T11:31:12Z</time>
      </trkpt>
      <trkpt lat="47.31938" lon="6.60611">
        <ele>640.7</ele>
        <time>2012-04-12T11:31:20Z</time>
      </trkpt>
      <trkpt lat="47.31936" lon="6.60602">
        <ele>643</ele>
        <time>2012-04-12T11:31:27Z</time>
      </trkpt>
      <trkpt lat="47.31931" lon="6.60595">
        <ele>644.6</ele>
        <time>2012-04-12T11:31:38Z</time>
      </trkpt>
      <trkpt lat="47.31931" lon="6.60595">
        <ele>597.2</ele>
        <time>2012-04-12T11:31:50Z</time>
      </trkpt>
      <trkpt lat="47.31931" lon="6.60595">
        <ele>597.2</ele>
        <time>2012-04-12T11:32:04Z</time>
      </trkpt>
      <trkpt lat="47.31929" lon="6.60577">
        <ele>645.4</ele>
        <time>2012-04-12T11:32:10Z</time>
      </trkpt>
      <trkpt lat="47.31931" lon="6.60568">
        <ele>644.3</ele>
        <time>2012-04-12T11:32:16Z</time>
      </trkpt>
      <trkpt lat="47.31931" lon="6.60568">
        <ele>601.7</ele>
        <time>2012-04-12T11:32:28Z</time>
      </trkpt>
      <trkpt lat="47.31931" lon="6.60568">
        <ele>601.7</ele>
        <time>2012-04-12T11:32:46Z</time>
      </trkpt>
      <trkpt lat="47.31931" lon="6.60568">
        <ele>601.7</ele>
        <time>2012-04-12T11:32:58Z</time>
      </trkpt>
      <trkpt lat="47.31931" lon="6.60568">
        <ele>601.7</ele>
        <time>2012-04-12T11:33:01Z</time>
      </trkpt>
      <trkpt lat="47.31951" lon="6.60575">
        <ele>655</ele>
        <time>2012-04-12T11:33:06Z</time>
      </trkpt>
      <trkpt lat="47.31958" lon="6.60574">
        <ele>655.1</ele>
        <time>2012-04-12T11:33:18Z</time>
      </trkpt>
      <trkpt lat="47.31964" lon="6.60575">
        <ele>657.3</ele>
        <time>2012-04-12T11:33:24Z</time>
      </trkpt>
      <trkpt lat="47.31964" lon="6.60575">
        <ele>610.5</ele>
        <time>2012-04-12T11:33:36Z</time>
      </trkpt>
      <trkpt lat="47.31964" lon="6.60575">
        <ele>610.5</ele>
        <time>2012-04-12T11:33:46Z</time>
      </trkpt>
      <trkpt lat="47.31964" lon="6.60575">
        <ele>610.5</ele>
        <time>2012-04-12T11:33:58Z</time>
      </trkpt>
      <trkpt lat="47.31964" lon="6.60575">
        <ele>610.5</ele>
        <time>2012-04-12T11:34:28Z</time>
      </trkpt>
      <trkpt lat="47.31957" lon="6.60552">
        <ele>656.5</ele>
        <time>2012-04-12T11:34:34Z</time>
      </trkpt>
      <trkpt lat="47.31952" lon="6.60545">
        <ele>655.7</ele>
        <time>2012-04-12T11:34:41Z</time>
      </trkpt>
      <trkpt lat="47.31947" lon="6.6054">
        <ele>657.2</ele>
        <time>2012-04-12T11:34:49Z</time>
      </trkpt>
      <trkpt lat="47.31945" lon="6.6053">
        <ele>659.7</ele>
        <time>2012-04-12T11:34:56Z</time>
      </trkpt>
      <trkpt lat="47.31939" lon="6.60523">
        <ele>660</ele>
        <time>2012-04-12T11:35:04Z</time>
      </trkpt>
      <trkpt lat="47.3178" lon="6.60358">
        <ele>676.2</ele>
        <time>2012-04-12T11:42:48Z</time>
      </trkpt>
      <trkpt lat="47.31773" lon="6.60354">
        <ele>678.7</ele>
        <time>2012-04-12T11:42:55Z</time>
      </trkpt>
      <trkpt lat="47.31768" lon="6.60347">
        <ele>679.8</ele>
        <time>2012-04-12T11:43:06Z</time>
      </trkpt>
      <trkpt lat="47.31765" lon="6.60339">
        <ele>680.1</ele>
        <time>2012-04-12T11:43:14Z</time>
      </trkpt>
      <trkpt lat="47.31765" lon="6.60339">
        <ele>626.2</ele>
        <time>2012-04-12T11:43:25Z</time>
      </trkpt>
      <trkpt lat="47.31765" lon="6.60339">
        <ele>626.2</ele>
        <time>2012-04-12T11:43:26Z</time>
      </trkpt>
      <trkpt lat="47.31752" lon="6.60333">
        <ele>680</ele>
        <time>2012-04-12T11:43:35Z</time>
      </trkpt>
      <trkpt lat="47.31749" lon="6.60324">
        <ele>682.4</ele>
        <time>2012-04-12T11:43:45Z</time>
      </trkpt>
      <trkpt lat="47.31743" lon="6.60319">
        <ele>684</ele>
        <time>2012-04-12T11:43:52Z</time>
      </trkpt>
      <trkpt lat="47.31736" lon="6.60316">
        <ele>684.9</ele>
        <time>2012-04-12T11:44:00Z</time>
      </trkpt>
      <trkpt lat="47.31735" lon="6.60306">
        <ele>683.9</ele>
        <time>2012-04-12T11:44:08Z</time>
      </trkpt>
      <trkpt lat="47.3173" lon="6.60298">
        <ele>683.8</ele>
        <time>2012-04-12T11:44:16Z</time>
      </trkpt>
      <trkpt lat="47.31723" lon="6.60296">
        <ele>684.3</ele>
        <time>2012-04-12T11:44:23Z</time>
      </trkpt>
      <trkpt lat="47.31723" lon="6.60296">
        <ele>623.7</ele>
        <time>2012-04-12T11:44:35Z</time>
      </trkpt>
      <trkpt lat="47.31723" lon="6.60296">
        <ele>623.7</ele>
        <time>2012-04-12T11:45:43Z</time>
      </trkpt>
      <trkpt lat="47.31723" lon="6.60296">
        <ele>623.7</ele>
        <time>2012-04-12T11:45:54Z</time>
      </trkpt>
      <trkpt lat="47.31723" lon="6.60296">
        <ele>623.7</ele>
        <time>2012-04-12T11:46:55Z</time>
      </trkpt>
      <trkpt lat="47.31735" lon="6.60285">
        <ele>688.3</ele>
        <time>2012-04-12T11:47:01Z</time>
      </trkpt>
      <trkpt lat="47.31741" lon="6.60288">
        <ele>688</ele>
        <time>2012-04-12T11:47:06Z</time>
      </trkpt>
      <trkpt lat="47.31751" lon="6.60302">
        <ele>687.7</ele>
        <time>2012-04-12T11:47:09Z</time>
      </trkpt>
      <trkpt lat="47.31758" lon="6.60302">
        <ele>687.9</ele>
        <time>2012-04-12T11:47:19Z</time>
      </trkpt>
      <trkpt lat="47.31766" lon="6.60305">
        <ele>687.8</ele>
        <time>2012-04-12T11:47:29Z</time>
      </trkpt>
      <trkpt lat="47.31773" lon="6.60307">
        <ele>690.9</ele>
        <time>2012-04-12T11:47:37Z</time>
      </trkpt>
      <trkpt lat="47.3178" lon="6.6031">
        <ele>690.8</ele>
        <time>2012-04-12T11:47:48Z</time>
      </trkpt>
      <trkpt lat="47.3178" lon="6.6031">
        <ele>640.6</ele>
        <time>2012-04-12T11:47:59Z</time>
      </trkpt>
      <trkpt lat="47.3178" lon="6.6031">
        <ele>640.6</ele>
        <time>2012-04-12T11:48:01Z</time>
      </trkpt>
      <trkpt lat="47.31793" lon="6.60301">
        <ele>695.2</ele>
        <time>2012-04-12T11:48:09Z</time>
      </trkpt>
      <trkpt lat="47.31793" lon="6.60301">
        <ele>644.4</ele>
        <time>2012-04-12T11:48:20Z</time>
      </trkpt>
      <trkpt lat="47.31793" lon="6.60301">
        <ele>644.4</ele>
        <time>2012-04-12T11:48:22Z</time>
      </trkpt>
      <trkpt lat="47.31779" lon="6.60299">
        <ele>695.7</ele>
        <time>2012-04-12T11:48:29Z</time>
      </trkpt>
      <trkpt lat="47.31773" lon="6.60294">
        <ele>697.2</ele>
        <time>2012-04-12T11:48:34Z</time>
      </trkpt>
      <trkpt lat="47.31767" lon="6.60293">
        <ele>698.3</ele>
        <time>2012-04-12T11:48:40Z</time>
      </trkpt>
      <trkpt lat="47.31767" lon="6.60293">
        <ele>640.1</ele>
        <time>2012-04-12T11:48:52Z</time>
      </trkpt>
      <trkpt lat="47.31767" lon="6.60293">
        <ele>640.1</ele>
        <time>2012-04-12T11:50:23Z</time>
      </trkpt>
      <trkpt lat="47.3178" lon="6.60297">
        <ele>697.5</ele>
        <time>2012-04-12T11:50:25Z</time>
      </trkpt>
      <trkpt lat="47.31787" lon="6.60296">
        <ele>698.4</ele>
        <time>2012-04-12T11:50:27Z</time>
      </trkpt>
      <trkpt lat="47.31795" lon="6.60298">
        <ele>700</ele>
        <time>2012-04-12T11:50:30Z</time>
      </trkpt>
      <trkpt lat="47.31803" lon="6.603">
        <ele>701.4</ele>
        <time>2012-04-12T11:50:33Z</time>
      </trkpt>
      <trkpt lat="47.3181" lon="6.60298">
        <ele>702</ele>
        <time>2012-04-12T11:50:36Z</time>
      </trkpt>
      <trkpt lat="47.31815" lon="6.60305">
        <ele>702.2</ele>
        <time>2012-04-12T11:50:45Z</time>
      </trkpt>
      <trkpt lat="47.31821" lon="6.6031">
        <ele>702.4</ele>
        <time>2012-04-12T11:50:48Z</time>
      </trkpt>
      <trkpt lat="47.31828" lon="6.60314">
        <ele>702</ele>
        <time>2012-04-12T11:50:53Z</time>
      </trkpt>
      <trkpt lat="47.31834" lon="6.60312">
        <ele>701.7</ele>
        <time>2012-04-12T11:50:56Z</time>
      </trkpt>
      <trkpt lat="47.31838" lon="6.60321">
        <ele>702.3</ele>
        <time>2012-04-12T11:51:02Z</time>
      </trkpt>
      <trkpt lat="47.31843" lon="6.60327">
        <ele>702.6</ele>
        <time>2012-04-12T11:51:12Z</time>
      </trkpt>
      <trkpt lat="47.3185" lon="6.60329">
        <ele>702.3</ele>
        <time>2012-04-12T11:51:17Z</time>
      </trkpt>
      <trkpt lat="47.31856" lon="6.60332">
        <ele>700.9</ele>
        <time>2012-04-12T11:51:22Z</time>
      </trkpt>
      <trkpt lat="47.31862" lon="6.60336">
        <ele>700.5</ele>
        <time>2012-04-12T11:51:29Z</time>
      </trkpt>
      <trkpt lat="47.3187" lon="6.60333">
        <ele>701.2</ele>
        <time>2012-04-12T11:51:34Z</time>
      </trkpt>
      <trkpt lat="47.31875" lon="6.6034">
        <ele>701</ele>
        <time>2012-04-12T11:51:40Z</time>
      </trkpt>
      <trkpt lat="47.3188" lon="6.60345">
        <ele>701.4</ele>
        <time>2012-04-12T11:51:45Z</time>
      </trkpt>
      <trkpt lat="47.31888" lon="6.60346">
        <ele>701</ele>
        <time>2012-04-12T11:51:49Z</time>
      </trkpt>
      <trkpt lat="47.31895" lon="6.60349">
        <ele>702.2</ele>
        <time>2012-04-12T11:51:55Z</time>
      </trkpt>
      <trkpt lat="47.31898" lon="6.60357">
        <ele>703</ele>
        <time>2012-04-12T11:52:02Z</time>
      </trkpt>
      <trkpt lat="47.31898" lon="6.60357">
        <ele>650.7</ele>
        <time>2012-04-12T11:52:13Z</time>
      </trkpt>
      <trkpt lat="47.31898" lon="6.60357">
        <ele>650.7</ele>
        <time>2012-04-12T11:52:14Z</time>
      </trkpt>
      <trkpt lat="47.31908" lon="6.60373">
        <ele>705</ele>
        <time>2012-04-12T11:52:21Z</time>
      </trkpt>
      <trkpt lat="47.31915" lon="6.60377">
        <ele>705</ele>
        <time>2012-04-12T11:52:29Z</time>
      </trkpt>
      <trkpt lat="47.31916" lon="6.60386">
        <ele>706.5</ele>
        <time>2012-04-12T11:52:37Z</time>
      </trkpt>
      <trkpt lat="47.31924" lon="6.60386">
        <ele>706.4</ele>
        <time>2012-04-12T11:52:42Z</time>
      </trkpt>
      <trkpt lat="47.3193" lon="6.60389">
        <ele>707.1</ele>
        <time>2012-04-12T11:52:49Z</time>
      </trkpt>
      <trkpt lat="47.31935" lon="6.60395">
        <ele>707.8</ele>
        <time>2012-04-12T11:52:56Z</time>
      </trkpt>
      <trkpt lat="47.31941" lon="6.60393">
        <ele>708.8</ele>
        <time>2012-04-12T11:53:03Z</time>
      </trkpt>
      <trkpt lat="47.31948" lon="6.60401">
        <ele>706.6</ele>
        <time>2012-04-12T11:53:09Z</time>
      </trkpt>
      <trkpt lat="47.31954" lon="6.60406">
        <ele>707</ele>
        <time>2012-04-12T11:53:16Z</time>
      </trkpt>
      <trkpt lat="47.31958" lon="6.60417">
        <ele>704.6</ele>
        <time>2012-04-12T11:53:23Z</time>
      </trkpt>
      <trkpt lat="47.31963" lon="6.60424">
        <ele>707.2</ele>
        <time>2012-04-12T11:53:32Z</time>
      </trkpt>
      <trkpt lat="47.31969" lon="6.60429">
        <ele>706.8</ele>
        <time>2012-04-12T11:53:37Z</time>
      </trkpt>
      <trkpt lat="47.31975" lon="6.6043">
        <ele>707</ele>
        <time>2012-04-12T11:53:41Z</time>
      </trkpt>
      <trkpt lat="47.31984" lon="6.60427">
        <ele>707.8</ele>
        <time>2012-04-12T11:53:47Z</time>
      </trkpt>
      <trkpt lat="47.3199" lon="6.60431">
        <ele>708.9</ele>
        <time>2012-04-12T11:53:54Z</time>
      </trkpt>
      <trkpt lat="47.31996" lon="6.60429">
        <ele>708.6</ele>
        <time>2012-04-12T11:54:00Z</time>
      </trkpt>
      <trkpt lat="47.32002" lon="6.6043">
        <ele>706.3</ele>
        <time>2012-04-12T11:54:08Z</time>
      </trkpt>
      <trkpt lat="47.32008" lon="6.60428">
        <ele>703.3</ele>
        <time>2012-04-12T11:54:15Z</time>
      </trkpt>
      <trkpt lat="47.32008" lon="6.60428">
        <ele>649</ele>
        <time>2012-04-12T11:54:26Z</time>
      </trkpt>
      <trkpt lat="47.32008" lon="6.60428">
        <ele>649</ele>
        <time>2012-04-12T11:54:59Z</time>
      </trkpt>
      <trkpt lat="47.32024" lon="6.60428">
        <ele>695.4</ele>
        <time>2012-04-12T11:55:09Z</time>
      </trkpt>
      <trkpt lat="47.3203" lon="6.60431">
        <ele>698.1</ele>
        <time>2012-04-12T11:55:16Z</time>
      </trkpt>
      <trkpt lat="47.32038" lon="6.60431">
        <ele>698.5</ele>
        <time>2012-04-12T11:55:23Z</time>
      </trkpt>
      <trkpt lat="47.32045" lon="6.60428">
        <ele>701</ele>
        <time>2012-04-12T11:55:30Z</time>
      </trkpt>
      <trkpt lat="47.32053" lon="6.60424">
        <ele>701.6</ele>
        <time>2012-04-12T11:55:35Z</time>
      </trkpt>
      <trkpt lat="47.32059" lon="6.60424">
        <ele>700.4</ele>
        <time>2012-04-12T11:55:41Z</time>
      </trkpt>
      <trkpt lat="47.32065" lon="6.6042">
        <ele>703</ele>
        <time>2012-04-12T11:55:47Z</time>
      </trkpt>
      <trkpt lat="47.32071" lon="6.60421">
        <ele>702.4</ele>
        <time>2012-04-12T11:55:53Z</time>
      </trkpt>
      <trkpt lat="47.32078" lon="6.60422">
        <ele>701.8</ele>
        <time>2012-04-12T11:56:01Z</time>
      </trkpt>
      <trkpt lat="47.32085" lon="6.60422">
        <ele>703</ele>
        <time>2012-04-12T11:56:10Z</time>
      </trkpt>
      <trkpt lat="47.32092" lon="6.60418">
        <ele>702.1</ele>
        <time>2012-04-12T11:56:15Z</time>
      </trkpt>
      <trkpt lat="47.32092" lon="6.60409">
        <ele>700.3</ele>
        <time>2012-04-12T11:56:23Z</time>
      </trkpt>
      <trkpt lat="47.32093" lon="6.60399">
        <ele>701.6</ele>
        <time>2012-04-12T11:56:31Z</time>
      </trkpt>
      <trkpt lat="47.32095" lon="6.60391">
        <ele>701.6</ele>
        <time>2012-04-12T11:56:37Z</time>
      </trkpt>
      <trkpt lat="47.32099" lon="6.60381">
        <ele>702.7</ele>
        <time>2012-04-12T11:56:41Z</time>
      </trkpt>
      <trkpt lat="47.32104" lon="6.60376">
        <ele>698.9</ele>
        <time>2012-04-12T11:56:47Z</time>
      </trkpt>
      <trkpt lat="47.32109" lon="6.60367">
        <ele>699.5</ele>
        <time>2012-04-12T11:56:53Z</time>
      </trkpt>
      <trkpt lat="47.32112" lon="6.60359">
        <ele>698.9</ele>
        <time>2012-04-12T11:57:02Z</time>
      </trkpt>
      <trkpt lat="47.32115" lon="6.60351">
        <ele>699.4</ele>
        <time>2012-04-12T11:57:08Z</time>
      </trkpt>
      <trkpt lat="47.32119" lon="6.60341">
        <ele>700.9</ele>
        <time>2012-04-12T11:57:13Z</time>
      </trkpt>
      <trkpt lat="47.32123" lon="6.60333">
        <ele>699.4</ele>
        <time>2012-04-12T11:57:20Z</time>
      </trkpt>
      <trkpt lat="47.32128" lon="6.60326">
        <ele>699.9</ele>
        <time>2012-04-12T11:57:28Z</time>
      </trkpt>
      <trkpt lat="47.32133" lon="6.60319">
        <ele>699.7</ele>
        <time>2012-04-12T11:57:33Z</time>
      </trkpt>
      <trkpt lat="47.32139" lon="6.60312">
        <ele>699.9</ele>
        <time>2012-04-12T11:57:39Z</time>
      </trkpt>
      <trkpt lat="47.32145" lon="6.60304">
        <ele>699.6</ele>
        <time>2012-04-12T11:57:44Z</time>
      </trkpt>
      <trkpt lat="47.32147" lon="6.60294">
        <ele>697.7</ele>
        <time>2012-04-12T11:57:51Z</time>
      </trkpt>
      <trkpt lat="47.32149" lon="6.60285">
        <ele>695.6</ele>
        <time>2012-04-12T11:57:58Z</time>
      </trkpt>
      <trkpt lat="47.32153" lon="6.60275">
        <ele>694.9</ele>
        <time>2012-04-12T11:58:06Z</time>
      </trkpt>
      <trkpt lat="47.32156" lon="6.60267">
        <ele>697.2</ele>
        <time>2012-04-12T11:58:13Z</time>
      </trkpt>
      <trkpt lat="47.3216" lon="6.60259">
        <ele>696.4</ele>
        <time>2012-04-12T11:58:20Z</time>
      </trkpt>
      <trkpt lat="47.32162" lon="6.60249">
        <ele>695.4</ele>
        <time>2012-04-12T11:58:26Z</time>
      </trkpt>
      <trkpt lat="47.32166" lon="6.60242">
        <ele>695</ele>
        <time>2012-04-12T11:58:31Z</time>
      </trkpt>
      <trkpt lat="47.32168" lon="6.60231">
        <ele>693.4</ele>
        <time>2012-04-12T11:58:41Z</time>
      </trkpt>
      <trkpt lat="47.32173" lon="6.60223">
        <ele>692.8</ele>
        <time>2012-04-12T11:58:47Z</time>
      </trkpt>
      <trkpt lat="47.32178" lon="6.60215">
        <ele>690.8</ele>
        <time>2012-04-12T11:58:53Z</time>
      </trkpt>
      <trkpt lat="47.32181" lon="6.60207">
        <ele>691</ele>
        <time>2012-04-12T11:58:58Z</time>
      </trkpt>
      <trkpt lat="47.3218" lon="6.60197">
        <ele>693.7</ele>
        <time>2012-04-12T11:59:05Z</time>
      </trkpt>
      <trkpt lat="47.3218" lon="6.60197">
        <ele>647.5</ele>
        <time>2012-04-12T11:59:16Z</time>
      </trkpt>
      <trkpt lat="47.3218" lon="6.60197">
        <ele>647.5</ele>
        <time>2012-04-12T12:00:14Z</time>
      </trkpt>
      <trkpt lat="47.3218" lon="6.60197">
        <ele>647.5</ele>
        <time>2012-04-12T12:00:26Z</time>
      </trkpt>
      <trkpt lat="47.3218" lon="6.60197">
        <ele>647.5</ele>
        <time>2012-04-12T12:01:32Z</time>
      </trkpt>
      <trkpt lat="47.3218" lon="6.60197">
        <ele>647.5</ele>
        <time>2012-04-12T12:01:44Z</time>
      </trkpt>
      <trkpt lat="47.3218" lon="6.60197">
        <ele>647.5</ele>
        <time>2012-04-12T12:01:51Z</time>
      </trkpt>
      <trkpt lat="47.32189" lon="6.60177">
        <ele>693.4</ele>
        <time>2012-04-12T12:01:58Z</time>
      </trkpt>
      <trkpt lat="47.32192" lon="6.60169">
        <ele>694.9</ele>
        <time>2012-04-12T12:02:04Z</time>
      </trkpt>
      <trkpt lat="47.32194" lon="6.6016">
        <ele>697.4</ele>
        <time>2012-04-12T12:02:13Z</time>
      </trkpt>
      <trkpt lat="47.32197" lon="6.6015">
        <ele>697.5</ele>
        <time>2012-04-12T12:02:21Z</time>
      </trkpt>
      <trkpt lat="47.32202" lon="6.60142">
        <ele>698.1</ele>
        <time>2012-04-12T12:02:30Z</time>
      </trkpt>
      <trkpt lat="47.32206" lon="6.60134">
        <ele>698.6</ele>
        <time>2012-04-12T12:02:36Z</time>
      </trkpt>
      <trkpt lat="47.3221" lon="6.60126">
        <ele>697.1</ele>
        <time>2012-04-12T12:02:43Z</time>
      </trkpt>
      <trkpt lat="47.32213" lon="6.60118">
        <ele>699.6</ele>
        <time>2012-04-12T12:02:51Z</time>
      </trkpt>
      <trkpt lat="47.32217" lon="6.6011">
        <ele>701.7</ele>
        <time>2012-04-12T12:02:58Z</time>
      </trkpt>
      <trkpt lat="47.32219" lon="6.60101">
        <ele>700.9</ele>
        <time>2012-04-12T12:03:06Z</time>
      </trkpt>
      <trkpt lat="47.32223" lon="6.60094">
        <ele>702.2</ele>
        <time>2012-04-12T12:03:12Z</time>
      </trkpt>
      <trkpt lat="47.32228" lon="6.60088">
        <ele>702.7</ele>
        <time>2012-04-12T12:03:17Z</time>
      </trkpt>
      <trkpt lat="47.3223" lon="6.60079">
        <ele>706</ele>
        <time>2012-04-12T12:03:23Z</time>
      </trkpt>
      <trkpt lat="47.3223" lon="6.60069">
        <ele>706.3</ele>
        <time>2012-04-12T12:03:28Z</time>
      </trkpt>
      <trkpt lat="47.3223" lon="6.60069">
        <ele>656.4</ele>
        <time>2012-04-12T12:03:39Z</time>
      </trkpt>
      <trkpt lat="47.3223" lon="6.60069">
        <ele>656.4</ele>
        <time>2012-04-12T12:03:40Z</time>
      </trkpt>
      <trkpt lat="47.32237" lon="6.60056">
        <ele>707.3</ele>
        <time>2012-04-12T12:03:44Z</time>
      </trkpt>
      <trkpt lat="47.32239" lon="6.60046">
        <ele>709</ele>
        <time>2012-04-12T12:03:51Z</time>
      </trkpt>
      <trkpt lat="47.32243" lon="6.60035">
        <ele>710.8</ele>
        <time>2012-04-12T12:04:00Z</time>
      </trkpt>
      <trkpt lat="47.32247" lon="6.60027">
        <ele>713.6</ele>
        <time>2012-04-12T12:04:05Z</time>
      </trkpt>
      <trkpt lat="47.3225" lon="6.60018">
        <ele>712</ele>
        <time>2012-04-12T12:04:15Z</time>
      </trkpt>
      <trkpt lat="47.32253" lon="6.60011">
        <ele>715.2</ele>
        <time>2012-04-12T12:04:19Z</time>
      </trkpt>
      <trkpt lat="47.32253" lon="6.60011">
        <ele>659.7</ele>
        <time>2012-04-12T12:04:31Z</time>
      </trkpt>
      <trkpt lat="47.32253" lon="6.60011">
        <ele>659.7</ele>
        <time>2012-04-12T12:04:47Z</time>
      </trkpt>
      <trkpt lat="47.32253" lon="6.60011">
        <ele>659.7</ele>
        <time>2012-04-12T12:04:59Z</time>
      </trkpt>
      <trkpt lat="47.32253" lon="6.60011">
        <ele>659.7</ele>
        <time>2012-04-12T12:07:19Z</time>
      </trkpt>
      <trkpt lat="47.32251" lon="6.59999">
        <ele>715.6</ele>
        <time>2012-04-12T12:07:23Z</time>
      </trkpt>
      <trkpt lat="47.32251" lon="6.59999">
        <ele>658.8</ele>
        <time>2012-04-12T12:07:34Z</time>
      </trkpt>
      <trkpt lat="47.32251" lon="6.59999">
        <ele>658.8</ele>
        <time>2012-04-12T12:10:28Z</time>
      </trkpt>
      <trkpt lat="47.32249" lon="6.60019">
        <ele>709.8</ele>
        <time>2012-04-12T12:10:37Z</time>
      </trkpt>
      <trkpt lat="47.32244" lon="6.60025">
        <ele>710.2</ele>
        <time>2012-04-12T12:10:42Z</time>
      </trkpt>
      <trkpt lat="47.32241" lon="6.60036">
        <ele>711.1</ele>
        <time>2012-04-12T12:10:48Z</time>
      </trkpt>
      <trkpt lat="47.32238" lon="6.60044">
        <ele>711.2</ele>
        <time>2012-04-12T12:10:54Z</time>
      </trkpt>
      <trkpt lat="47.32235" lon="6.60053">
        <ele>711.2</ele>
        <time>2012-04-12T12:11:02Z</time>
      </trkpt>
      <trkpt lat="47.32235" lon="6.60053">
        <ele>657.2</ele>
        <time>2012-04-12T12:11:13Z</time>
      </trkpt>
      <trkpt lat="47.32235" lon="6.60053">
        <ele>657.2</ele>
        <time>2012-04-12T12:11:15Z</time>
      </trkpt>
      <trkpt lat="47.32229" lon="6.60071">
        <ele>713.7</ele>
        <time>2012-04-12T12:11:21Z</time>
      </trkpt>
      <trkpt lat="47.32226" lon="6.6008">
        <ele>711.1</ele>
        <time>2012-04-12T12:11:29Z</time>
      </trkpt>
      <trkpt lat="47.32224" lon="6.6009">
        <ele>710.5</ele>
        <time>2012-04-12T12:11:38Z</time>
      </trkpt>
      <trkpt lat="47.32221" lon="6.60099">
        <ele>709.5</ele>
        <time>2012-04-12T12:11:48Z</time>
      </trkpt>
      <trkpt lat="47.32221" lon="6.60099">
        <ele>655.7</ele>
        <time>2012-04-12T12:12:00Z</time>
      </trkpt>
      <trkpt lat="47.32221" lon="6.60099">
        <ele>655.7</ele>
        <time>2012-04-12T12:12:04Z</time>
      </trkpt>
      <trkpt lat="47.32211" lon="6.60116">
        <ele>706.9</ele>
        <time>2012-04-12T12:12:10Z</time>
      </trkpt>
      <trkpt lat="47.32207" lon="6.60124">
        <ele>708.3</ele>
        <time>2012-04-12T12:12:15Z</time>
      </trkpt>
      <trkpt lat="47.32204" lon="6.60132">
        <ele>704.8</ele>
        <time>2012-04-12T12:12:25Z</time>
      </trkpt>
      <trkpt lat="47.32201" lon="6.60142">
        <ele>702.7</ele>
        <time>2012-04-12T12:12:32Z</time>
      </trkpt>
      <trkpt lat="47.32199" lon="6.60151">
        <ele>701.6</ele>
        <time>2012-04-12T12:12:37Z</time>
      </trkpt>
      <trkpt lat="47.32195" lon="6.60159">
        <ele>701</ele>
        <time>2012-04-12T12:12:43Z</time>
      </trkpt>
      <trkpt lat="47.32192" lon="6.60168">
        <ele>699.4</ele>
        <time>2012-04-12T12:12:53Z</time>
      </trkpt>
      <trkpt lat="47.32187" lon="6.60177">
        <ele>698.4</ele>
        <time>2012-04-12T12:13:01Z</time>
      </trkpt>
      <trkpt lat="47.32187" lon="6.60186">
        <ele>700.3</ele>
        <time>2012-04-12T12:13:07Z</time>
      </trkpt>
      <trkpt lat="47.32183" lon="6.60194">
        <ele>698.3</ele>
        <time>2012-04-12T12:13:12Z</time>
      </trkpt>
      <trkpt lat="47.32181" lon="6.60204">
        <ele>696.7</ele>
        <time>2012-04-12T12:13:23Z</time>
      </trkpt>
      <trkpt lat="47.32181" lon="6.60204">
        <ele>648.4</ele>
        <time>2012-04-12T12:13:34Z</time>
      </trkpt>
      <trkpt lat="47.32181" lon="6.60204">
        <ele>648.4</ele>
        <time>2012-04-12T12:13:37Z</time>
      </trkpt>
      <trkpt lat="47.32181" lon="6.60204">
        <ele>648.4</ele>
        <time>2012-04-12T12:13:48Z</time>
      </trkpt>
      <trkpt lat="47.32181" lon="6.60204">
        <ele>648.4</ele>
        <time>2012-04-12T12:13:53Z</time>
      </trkpt>
      <trkpt lat="47.32171" lon="6.60233">
        <ele>697.9</ele>
        <time>2012-04-12T12:14:00Z</time>
      </trkpt>
      <trkpt lat="47.32168" lon="6.6024">
        <ele>696.9</ele>
        <time>2012-04-12T12:14:06Z</time>
      </trkpt>
      <trkpt lat="47.32165" lon="6.60249">
        <ele>696.3</ele>
        <time>2012-04-12T12:14:13Z</time>
      </trkpt>
      <trkpt lat="47.32164" lon="6.60259">
        <ele>696.8</ele>
        <time>2012-04-12T12:14:21Z</time>
      </trkpt>
      <trkpt lat="47.32162" lon="6.60271">
        <ele>696.5</ele>
        <time>2012-04-12T12:14:27Z</time>
      </trkpt>
      <trkpt lat="47.32159" lon="6.6028">
        <ele>697.3</ele>
        <time>2012-04-12T12:14:33Z</time>
      </trkpt>
      <trkpt lat="47.32156" lon="6.60288">
        <ele>697</ele>
        <time>2012-04-12T12:14:38Z</time>
      </trkpt>
      <trkpt lat="47.32155" lon="6.603">
        <ele>696.2</ele>
        <time>2012-04-12T12:14:44Z</time>
      </trkpt>
      <trkpt lat="47.32153" lon="6.60309">
        <ele>697</ele>
        <time>2012-04-12T12:14:50Z</time>
      </trkpt>
      <trkpt lat="47.32148" lon="6.60316">
        <ele>696.1</ele>
        <time>2012-04-12T12:14:56Z</time>
      </trkpt>
      <trkpt lat="47.32145" lon="6.60324">
        <ele>697.6</ele>
        <time>2012-04-12T12:15:00Z</time>
      </trkpt>
      <trkpt lat="47.3214" lon="6.60332">
        <ele>699.6</ele>
        <time>2012-04-12T12:15:06Z</time>
      </trkpt>
      <trkpt lat="47.32134" lon="6.60341">
        <ele>699.9</ele>
        <time>2012-04-12T12:15:16Z</time>
      </trkpt>
      <trkpt lat="47.3213" lon="6.6035">
        <ele>700.9</ele>
        <time>2012-04-12T12:15:22Z</time>
      </trkpt>
      <trkpt lat="47.32125" lon="6.60356">
        <ele>700.1</ele>
        <time>2012-04-12T12:15:31Z</time>
      </trkpt>
      <trkpt lat="47.3212" lon="6.60361">
        <ele>699.6</ele>
        <time>2012-04-12T12:15:35Z</time>
      </trkpt>
      <trkpt lat="47.32115" lon="6.60369">
        <ele>696.9</ele>
        <time>2012-04-12T12:15:39Z</time>
      </trkpt>
      <trkpt lat="47.32109" lon="6.60377">
        <ele>695.6</ele>
        <time>2012-04-12T12:15:47Z</time>
      </trkpt>
      <trkpt lat="47.32109" lon="6.60377">
        <ele>641.3</ele>
        <time>2012-04-12T12:15:58Z</time>
      </trkpt>
      <trkpt lat="47.32109" lon="6.60377">
        <ele>641.3</ele>
        <time>2012-04-12T12:16:02Z</time>
      </trkpt>
      <trkpt lat="47.32105" lon="6.60396">
        <ele>695.1</ele>
        <time>2012-04-12T12:16:07Z</time>
      </trkpt>
      <trkpt lat="47.32101" lon="6.60404">
        <ele>693.5</ele>
        <time>2012-04-12T12:16:13Z</time>
      </trkpt>
      <trkpt lat="47.32101" lon="6.60414">
        <ele>692.3</ele>
        <time>2012-04-12T12:16:20Z</time>
      </trkpt>
      <trkpt lat="47.32101" lon="6.60424">
        <ele>693.4</ele>
        <time>2012-04-12T12:16:27Z</time>
      </trkpt>
      <trkpt lat="47.32099" lon="6.60433">
        <ele>692.5</ele>
        <time>2012-04-12T12:16:35Z</time>
      </trkpt>
      <trkpt lat="47.32092" lon="6.60435">
        <ele>692.9</ele>
        <time>2012-04-12T12:16:44Z</time>
      </trkpt>
      <trkpt lat="47.32085" lon="6.60438">
        <ele>692.1</ele>
        <time>2012-04-12T12:16:50Z</time>
      </trkpt>
      <trkpt lat="47.32076" lon="6.60439">
        <ele>692.8</ele>
        <time>2012-04-12T12:16:59Z</time>
      </trkpt>
      <trkpt lat="47.32069" lon="6.60438">
        <ele>691.2</ele>
        <time>2012-04-12T12:17:05Z</time>
      </trkpt>
      <trkpt lat="47.32062" lon="6.60436">
        <ele>692.6</ele>
        <time>2012-04-12T12:17:14Z</time>
      </trkpt>
      <trkpt lat="47.32054" lon="6.6044">
        <ele>693</ele>
        <time>2012-04-12T12:17:19Z</time>
      </trkpt>
      <trkpt lat="47.32048" lon="6.6044">
        <ele>692.9</ele>
        <time>2012-04-12T12:17:26Z</time>
      </trkpt>
      <trkpt lat="47.3204" lon="6.6044">
        <ele>693.9</ele>
        <time>2012-04-12T12:17:34Z</time>
      </trkpt>
      <trkpt lat="47.3204" lon="6.6044">
        <ele>647.7</ele>
        <time>2012-04-12T12:17:45Z</time>
      </trkpt>
      <trkpt lat="47.3204" lon="6.6044">
        <ele>647.7</ele>
        <time>2012-04-12T12:17:47Z</time>
      </trkpt>
      <trkpt lat="47.32026" lon="6.60438">
        <ele>694.1</ele>
        <time>2012-04-12T12:17:55Z</time>
      </trkpt>
      <trkpt lat="47.3202" lon="6.60432">
        <ele>695.4</ele>
        <time>2012-04-12T12:18:03Z</time>
      </trkpt>
      <trkpt lat="47.32013" lon="6.60436">
        <ele>697.7</ele>
        <time>2012-04-12T12:18:09Z</time>
      </trkpt>
      <trkpt lat="47.32007" lon="6.60438">
        <ele>701.5</ele>
        <time>2012-04-12T12:18:17Z</time>
      </trkpt>
      <trkpt lat="47.32" lon="6.60436">
        <ele>701.4</ele>
        <time>2012-04-12T12:18:23Z</time>
      </trkpt>
      <trkpt lat="47.32" lon="6.60436">
        <ele>651.1</ele>
        <time>2012-04-12T12:18:34Z</time>
      </trkpt>
      <trkpt lat="47.32" lon="6.60436">
        <ele>651.1</ele>
        <time>2012-04-12T12:19:59Z</time>
      </trkpt>
      <trkpt lat="47.31988" lon="6.60439">
        <ele>703.7</ele>
        <time>2012-04-12T12:20:06Z</time>
      </trkpt>
      <trkpt lat="47.31981" lon="6.60434">
        <ele>701.9</ele>
        <time>2012-04-12T12:20:12Z</time>
      </trkpt>
      <trkpt lat="47.31975" lon="6.60429">
        <ele>702.2</ele>
        <time>2012-04-12T12:20:18Z</time>
      </trkpt>
      <trkpt lat="47.31968" lon="6.60426">
        <ele>703.2</ele>
        <time>2012-04-12T12:20:23Z</time>
      </trkpt>
      <trkpt lat="47.31963" lon="6.6042">
        <ele>703.5</ele>
        <time>2012-04-12T12:20:29Z</time>
      </trkpt>
      <trkpt lat="47.31956" lon="6.60416">
        <ele>704.1</ele>
        <time>2012-04-12T12:20:35Z</time>
      </trkpt>
      <trkpt lat="47.31949" lon="6.60411">
        <ele>703.2</ele>
        <time>2012-04-12T12:20:43Z</time>
      </trkpt>
      <trkpt lat="47.31943" lon="6.60408">
        <ele>703.4</ele>
        <time>2012-04-12T12:20:48Z</time>
      </trkpt>
      <trkpt lat="47.31936" lon="6.60406">
        <ele>702.6</ele>
        <time>2012-04-12T12:20:56Z</time>
      </trkpt>
      <trkpt lat="47.31931" lon="6.604">
        <ele>701.3</ele>
        <time>2012-04-12T12:21:00Z</time>
      </trkpt>
      <trkpt lat="47.31925" lon="6.60395">
        <ele>702.4</ele>
        <time>2012-04-12T12:21:06Z</time>
      </trkpt>
      <trkpt lat="47.31919" lon="6.6039">
        <ele>700.8</ele>
        <time>2012-04-12T12:21:12Z</time>
      </trkpt>
      <trkpt lat="47.31913" lon="6.60384">
        <ele>700.6</ele>
        <time>2012-04-12T12:21:19Z</time>
      </trkpt>
      <trkpt lat="47.31908" lon="6.60378">
        <ele>699.3</ele>
        <time>2012-04-12T12:21:24Z</time>
      </trkpt>
      <trkpt lat="47.31902" lon="6.60373">
        <ele>697.4</ele>
        <time>2012-04-12T12:21:32Z</time>
      </trkpt>
      <trkpt lat="47.31896" lon="6.60368">
        <ele>696.9</ele>
        <time>2012-04-12T12:21:38Z</time>
      </trkpt>
      <trkpt lat="47.31889" lon="6.60366">
        <ele>697.9</ele>
        <time>2012-04-12T12:21:43Z</time>
      </trkpt>
      <trkpt lat="47.31884" lon="6.60358">
        <ele>699.3</ele>
        <time>2012-04-12T12:21:49Z</time>
      </trkpt>
      <trkpt lat="47.31879" lon="6.60353">
        <ele>697.8</ele>
        <time>2012-04-12T12:21:55Z</time>
      </trkpt>
      <trkpt lat="47.31872" lon="6.60348">
        <ele>698.7</ele>
        <time>2012-04-12T12:22:01Z</time>
      </trkpt>
      <trkpt lat="47.31866" lon="6.60343">
        <ele>701</ele>
        <time>2012-04-12T12:22:07Z</time>
      </trkpt>
      <trkpt lat="47.3186" lon="6.60339">
        <ele>702.2</ele>
        <time>2012-04-12T12:22:14Z</time>
      </trkpt>
      <trkpt lat="47.31854" lon="6.60334">
        <ele>700.2</ele>
        <time>2012-04-12T12:22:19Z</time>
      </trkpt>
      <trkpt lat="47.31849" lon="6.6033">
        <ele>697.7</ele>
        <time>2012-04-12T12:22:25Z</time>
      </trkpt>
      <trkpt lat="47.31843" lon="6.60327">
        <ele>698.4</ele>
        <time>2012-04-12T12:22:30Z</time>
      </trkpt>
      <trkpt lat="47.31836" lon="6.60328">
        <ele>699.7</ele>
        <time>2012-04-12T12:22:35Z</time>
      </trkpt>
      <trkpt lat="47.3183" lon="6.60323">
        <ele>700.9</ele>
        <time>2012-04-12T12:22:41Z</time>
      </trkpt>
      <trkpt lat="47.31824" lon="6.60319">
        <ele>700.5</ele>
        <time>2012-04-12T12:22:47Z</time>
      </trkpt>
      <trkpt lat="47.31817" lon="6.60313">
        <ele>699.3</ele>
        <time>2012-04-12T12:22:54Z</time>
      </trkpt>
      <trkpt lat="47.3181" lon="6.60312">
        <ele>699.6</ele>
        <time>2012-04-12T12:22:59Z</time>
      </trkpt>
      <trkpt lat="47.31804" lon="6.60308">
        <ele>699.8</ele>
        <time>2012-04-12T12:23:04Z</time>
      </trkpt>
      <trkpt lat="47.31796" lon="6.60309">
        <ele>700.4</ele>
        <time>2012-04-12T12:23:11Z</time>
      </trkpt>
      <trkpt lat="47.31796" lon="6.60309">
        <ele>643.5</ele>
        <time>2012-04-12T12:23:22Z</time>
      </trkpt>
      <trkpt lat="47.31796" lon="6.60309">
        <ele>643.5</ele>
        <time>2012-04-12T12:23:24Z</time>
      </trkpt>
      <trkpt lat="47.31783" lon="6.60317">
        <ele>695.5</ele>
        <time>2012-04-12T12:23:30Z</time>
      </trkpt>
      <trkpt lat="47.31777" lon="6.60321">
        <ele>694.2</ele>
        <time>2012-04-12T12:23:37Z</time>
      </trkpt>
      <trkpt lat="47.3177" lon="6.60321">
        <ele>694</ele>
        <time>2012-04-12T12:23:45Z</time>
      </trkpt>
      <trkpt lat="47.31765" lon="6.60326">
        <ele>694.7</ele>
        <time>2012-04-12T12:23:52Z</time>
      </trkpt>
      <trkpt lat="47.31759" lon="6.60328">
        <ele>695.4</ele>
        <time>2012-04-12T12:23:57Z</time>
      </trkpt>
      <trkpt lat="47.31752" lon="6.60326">
        <ele>693.9</ele>
        <time>2012-04-12T12:24:02Z</time>
      </trkpt>
      <trkpt lat="47.31745" lon="6.60329">
        <ele>697.9</ele>
        <time>2012-04-12T12:24:09Z</time>
      </trkpt>
      <trkpt lat="47.31741" lon="6.60322">
        <ele>696.6</ele>
        <time>2012-04-12T12:24:16Z</time>
      </trkpt>
      <trkpt lat="47.31734" lon="6.60321">
        <ele>698.6</ele>
        <time>2012-04-12T12:24:21Z</time>
      </trkpt>
      <trkpt lat="47.31727" lon="6.60319">
        <ele>700.2</ele>
        <time>2012-04-12T12:24:27Z</time>
      </trkpt>
      <trkpt lat="47.31722" lon="6.60314">
        <ele>700.2</ele>
        <time>2012-04-12T12:24:32Z</time>
      </trkpt>
      <trkpt lat="47.31718" lon="6.60307">
        <ele>698.3</ele>
        <time>2012-04-12T12:24:42Z</time>
      </trkpt>
      <trkpt lat="47.31712" lon="6.60302">
        <ele>695.4</ele>
        <time>2012-04-12T12:24:53Z</time>
      </trkpt>
      <trkpt lat="47.31712" lon="6.60302">
        <ele>618.7</ele>
        <time>2012-04-12T12:25:04Z</time>
      </trkpt>
      <trkpt lat="47.31712" lon="6.60302">
        <ele>618.7</ele>
        <time>2012-04-12T12:25:24Z</time>
      </trkpt>
      <trkpt lat="47.31723" lon="6.60292">
        <ele>687.2</ele>
        <time>2012-04-12T12:25:31Z</time>
      </trkpt>
      <trkpt lat="47.31728" lon="6.60298">
        <ele>688.4</ele>
        <time>2012-04-12T12:25:36Z</time>
      </trkpt>
      <trkpt lat="47.31733" lon="6.60304">
        <ele>688.3</ele>
        <time>2012-04-12T12:25:43Z</time>
      </trkpt>
      <trkpt lat="47.31739" lon="6.6031">
        <ele>686.4</ele>
        <time>2012-04-12T12:25:52Z</time>
      </trkpt>
      <trkpt lat="47.31746" lon="6.60314">
        <ele>685.7</ele>
        <time>2012-04-12T12:25:57Z</time>
      </trkpt>
      <trkpt lat="47.3175" lon="6.60323">
        <ele>686.8</ele>
        <time>2012-04-12T12:26:02Z</time>
      </trkpt>
      <trkpt lat="47.31756" lon="6.60327">
        <ele>685.1</ele>
        <time>2012-04-12T12:26:07Z</time>
      </trkpt>
      <trkpt lat="47.31762" lon="6.60331">
        <ele>684.7</ele>
        <time>2012-04-12T12:26:13Z</time>
      </trkpt>
      <trkpt lat="47.31767" lon="6.60337">
        <ele>684.9</ele>
        <time>2012-04-12T12:26:18Z</time>
      </trkpt>
      <trkpt lat="47.31773" lon="6.60339">
        <ele>680.3</ele>
        <time>2012-04-12T12:26:26Z</time>
      </trkpt>
      <trkpt lat="47.31779" lon="6.60346">
        <ele>677.7</ele>
        <time>2012-04-12T12:26:32Z</time>
      </trkpt>
      <trkpt lat="47.31783" lon="6.60353">
        <ele>677.2</ele>
        <time>2012-04-12T12:26:39Z</time>
      </trkpt>
      <trkpt lat="47.31788" lon="6.6036">
        <ele>677.1</ele>
        <time>2012-04-12T12:26:46Z</time>
      </trkpt>
      <trkpt lat="47.31793" lon="6.60367">
        <ele>675.4</ele>
        <time>2012-04-12T12:26:58Z</time>
      </trkpt>
      <trkpt lat="47.31798" lon="6.60372">
        <ele>673.9</ele>
        <time>2012-04-12T12:27:04Z</time>
      </trkpt>
      <trkpt lat="47.31802" lon="6.6038">
        <ele>674.4</ele>
        <time>2012-04-12T12:27:13Z</time>
      </trkpt>
      <trkpt lat="47.31807" lon="6.60387">
        <ele>676.1</ele>
        <time>2012-04-12T12:27:19Z</time>
      </trkpt>
      <trkpt lat="47.31811" lon="6.60394">
        <ele>676.6</ele>
        <time>2012-04-12T12:27:24Z</time>
      </trkpt>
      <trkpt lat="47.31816" lon="6.60402">
        <ele>676</ele>
        <time>2012-04-12T12:27:29Z</time>
      </trkpt>
      <trkpt lat="47.31823" lon="6.60406">
        <ele>675.2</ele>
        <time>2012-04-12T12:27:35Z</time>
      </trkpt>
      <trkpt lat="47.31828" lon="6.60413">
        <ele>674.9</ele>
        <time>2012-04-12T12:27:41Z</time>
      </trkpt>
      <trkpt lat="47.31834" lon="6.60417">
        <ele>674.1</ele>
        <time>2012-04-12T12:27:49Z</time>
      </trkpt>
      <trkpt lat="47.31842" lon="6.60419">
        <ele>672.6</ele>
        <time>2012-04-12T12:27:56Z</time>
      </trkpt>
      <trkpt lat="47.31836" lon="6.60423">
        <ele>671.9</ele>
        <time>2012-04-12T12:27:59Z</time>
      </trkpt>
      <trkpt lat="47.3183" lon="6.60424">
        <ele>671.8</ele>
        <time>2012-04-12T12:28:03Z</time>
      </trkpt>
      <trkpt lat="47.31823" lon="6.60424">
        <ele>670.8</ele>
        <time>2012-04-12T12:28:08Z</time>
      </trkpt>
      <trkpt lat="47.31817" lon="6.60421">
        <ele>670.3</ele>
        <time>2012-04-12T12:28:15Z</time>
      </trkpt>
      <trkpt lat="47.3181" lon="6.60418">
        <ele>667.3</ele>
        <time>2012-04-12T12:28:23Z</time>
      </trkpt>
      <trkpt lat="47.31804" lon="6.60418">
        <ele>665.7</ele>
        <time>2012-04-12T12:28:29Z</time>
      </trkpt>
      <trkpt lat="47.31798" lon="6.60413">
        <ele>665.5</ele>
        <time>2012-04-12T12:28:37Z</time>
      </trkpt>
      <trkpt lat="47.31791" lon="6.6041">
        <ele>663.8</ele>
        <time>2012-04-12T12:28:45Z</time>
      </trkpt>
      <trkpt lat="47.31784" lon="6.60407">
        <ele>661.6</ele>
        <time>2012-04-12T12:28:54Z</time>
      </trkpt>
      <trkpt lat="47.31778" lon="6.60406">
        <ele>659.4</ele>
        <time>2012-04-12T12:28:59Z</time>
      </trkpt>
      <trkpt lat="47.31772" lon="6.60403">
        <ele>660</ele>
        <time>2012-04-12T12:29:07Z</time>
      </trkpt>
      <trkpt lat="47.31765" lon="6.60404">
        <ele>658.7</ele>
        <time>2012-04-12T12:29:13Z</time>
      </trkpt>
      <trkpt lat="47.31758" lon="6.60405">
        <ele>657.5</ele>
        <time>2012-04-12T12:29:19Z</time>
      </trkpt>
      <trkpt lat="47.31751" lon="6.60404">
        <ele>655.9</ele>
        <time>2012-04-12T12:29:25Z</time>
      </trkpt>
      <trkpt lat="47.31746" lon="6.60398">
        <ele>655.2</ele>
        <time>2012-04-12T12:29:31Z</time>
      </trkpt>
      <trkpt lat="47.3174" lon="6.60394">
        <ele>654.1</ele>
        <time>2012-04-12T12:29:37Z</time>
      </trkpt>
      <trkpt lat="47.31733" lon="6.60391">
        <ele>654.7</ele>
        <time>2012-04-12T12:29:41Z</time>
      </trkpt>
      <trkpt lat="47.31727" lon="6.60387">
        <ele>654.4</ele>
        <time>2012-04-12T12:29:48Z</time>
      </trkpt>
      <trkpt lat="47.31721" lon="6.60384">
        <ele>655.6</ele>
        <time>2012-04-12T12:29:54Z</time>
      </trkpt>
      <trkpt lat="47.31714" lon="6.60381">
        <ele>653.4</ele>
        <time>2012-04-12T12:30:00Z</time>
      </trkpt>
      <trkpt lat="47.31709" lon="6.60376">
        <ele>652.1</ele>
        <time>2012-04-12T12:30:06Z</time>
      </trkpt>
      <trkpt lat="47.31702" lon="6.60373">
        <ele>651.9</ele>
        <time>2012-04-12T12:30:14Z</time>
      </trkpt>
      <trkpt lat="47.31696" lon="6.60368">
        <ele>651.8</ele>
        <time>2012-04-12T12:30:21Z</time>
      </trkpt>
      <trkpt lat="47.31689" lon="6.60366">
        <ele>652.2</ele>
        <time>2012-04-12T12:30:27Z</time>
      </trkpt>
      <trkpt lat="47.31681" lon="6.60364">
        <ele>650.2</ele>
        <time>2012-04-12T12:30:36Z</time>
      </trkpt>
      <trkpt lat="47.31675" lon="6.60368">
        <ele>650.7</ele>
        <time>2012-04-12T12:30:42Z</time>
      </trkpt>
      <trkpt lat="47.31669" lon="6.60372">
        <ele>652.5</ele>
        <time>2012-04-12T12:30:48Z</time>
      </trkpt>
      <trkpt lat="47.31662" lon="6.60371">
        <ele>653.4</ele>
        <time>2012-04-12T12:30:54Z</time>
      </trkpt>
      <trkpt lat="47.31662" lon="6.60371">
        <ele>592.2</ele>
        <time>2012-04-12T12:31:06Z</time>
      </trkpt>
      <trkpt lat="47.31662" lon="6.60371">
        <ele>592.2</ele>
        <time>2012-04-12T12:31:10Z</time>
      </trkpt>
      <trkpt lat="47.31674" lon="6.60379">
        <ele>650.8</ele>
        <time>2012-04-12T12:31:17Z</time>
      </trkpt>
      <trkpt lat="47.31678" lon="6.60387">
        <ele>650.6</ele>
        <time>2012-04-12T12:31:23Z</time>
      </trkpt>
      <trkpt lat="47.31682" lon="6.60396">
        <ele>649.5</ele>
        <time>2012-04-12T12:31:28Z</time>
      </trkpt>
      <trkpt lat="47.31687" lon="6.60401">
        <ele>648.2</ele>
        <time>2012-04-12T12:31:31Z</time>
      </trkpt>
      <trkpt lat="47.31687" lon="6.60401">
        <ele>593.3</ele>
        <time>2012-04-12T12:31:42Z</time>
      </trkpt>
      <trkpt lat="47.31687" lon="6.60401">
        <ele>593.3</ele>
        <time>2012-04-12T12:32:49Z</time>
      </trkpt>
      <trkpt lat="47.31679" lon="6.60385">
        <ele>644.2</ele>
        <time>2012-04-12T12:32:55Z</time>
      </trkpt>
      <trkpt lat="47.31673" lon="6.60379">
        <ele>642.3</ele>
        <time>2012-04-12T12:32:59Z</time>
      </trkpt>
      <trkpt lat="47.31667" lon="6.6037">
        <ele>642.8</ele>
        <time>2012-04-12T12:33:06Z</time>
      </trkpt>
      <trkpt lat="47.31662" lon="6.60363">
        <ele>644.4</ele>
        <time>2012-04-12T12:33:12Z</time>
      </trkpt>
      <trkpt lat="47.31657" lon="6.60355">
        <ele>644.7</ele>
        <time>2012-04-12T12:33:17Z</time>
      </trkpt>
      <trkpt lat="47.3165" lon="6.60357">
        <ele>645.6</ele>
        <time>2012-04-12T12:33:22Z</time>
      </trkpt>
      <trkpt lat="47.31643" lon="6.60356">
        <ele>644.4</ele>
        <time>2012-04-12T12:33:29Z</time>
      </trkpt>
      <trkpt lat="47.31637" lon="6.60353">
        <ele>644.8</ele>
        <time>2012-04-12T12:33:39Z</time>
      </trkpt>
      <trkpt lat="47.3163" lon="6.60351">
        <ele>645.4</ele>
        <time>2012-04-12T12:33:49Z</time>
      </trkpt>
      <trkpt lat="47.3163" lon="6.60351">
        <ele>586.4</ele>
        <time>2012-04-12T12:34:01Z</time>
      </trkpt>
      <trkpt lat="47.3163" lon="6.60351">
        <ele>586.4</ele>
        <time>2012-04-12T12:34:08Z</time>
      </trkpt>
      <trkpt lat="47.31624" lon="6.60336">
        <ele>641.8</ele>
        <time>2012-04-12T12:34:15Z</time>
      </trkpt>
      <trkpt lat="47.3162" lon="6.60327">
        <ele>641.3</ele>
        <time>2012-04-12T12:34:21Z</time>
      </trkpt>
      <trkpt lat="47.31619" lon="6.60317">
        <ele>641.3</ele>
        <time>2012-04-12T12:34:29Z</time>
      </trkpt>
      <trkpt lat="47.31617" lon="6.60308">
        <ele>639.2</ele>
        <time>2012-04-12T12:34:35Z</time>
      </trkpt>
      <trkpt lat="47.31617" lon="6.60308">
        <ele>585.5</ele>
        <time>2012-04-12T12:34:46Z</time>
      </trkpt>
      <trkpt lat="47.31617" lon="6.60308">
        <ele>585.5</ele>
        <time>2012-04-12T12:36:04Z</time>
      </trkpt>
      <trkpt lat="47.31611" lon="6.60291">
        <ele>636.2</ele>
        <time>2012-04-12T12:36:08Z</time>
      </trkpt>
      <trkpt lat="47.31613" lon="6.60281">
        <ele>636</ele>
        <time>2012-04-12T12:36:12Z</time>
      </trkpt>
      <trkpt lat="47.31608" lon="6.60274">
        <ele>639.3</ele>
        <time>2012-04-12T12:36:20Z</time>
      </trkpt>
      <trkpt lat="47.31608" lon="6.60274">
        <ele>583.8</ele>
        <time>2012-04-12T12:36:32Z</time>
      </trkpt>
      <trkpt lat="47.31608" lon="6.60274">
        <ele>583.8</ele>
        <time>2012-04-12T12:36:50Z</time>
      </trkpt>
      <trkpt lat="47.31605" lon="6.60255">
        <ele>636.1</ele>
        <time>2012-04-12T12:36:57Z</time>
      </trkpt>
      <trkpt lat="47.31602" lon="6.60246">
        <ele>634.5</ele>
        <time>2012-04-12T12:37:03Z</time>
      </trkpt>
      <trkpt lat="47.31599" lon="6.60237">
        <ele>633.3</ele>
        <time>2012-04-12T12:37:11Z</time>
      </trkpt>
      <trkpt lat="47.31596" lon="6.60228">
        <ele>631.5</ele>
        <time>2012-04-12T12:37:19Z</time>
      </trkpt>
      <trkpt lat="47.3159" lon="6.60222">
        <ele>633.2</ele>
        <time>2012-04-12T12:37:27Z</time>
      </trkpt>
      <trkpt lat="47.31584" lon="6.60219">
        <ele>632.8</ele>
        <time>2012-04-12T12:37:33Z</time>
      </trkpt>
      <trkpt lat="47.31584" lon="6.60219">
        <ele>575</ele>
        <time>2012-04-12T12:37:44Z</time>
      </trkpt>
      <trkpt lat="47.31584" lon="6.60219">
        <ele>575</ele>
        <time>2012-04-12T12:37:53Z</time>
      </trkpt>
      <trkpt lat="47.31579" lon="6.60202">
        <ele>626.7</ele>
        <time>2012-04-12T12:37:58Z</time>
      </trkpt>
      <trkpt lat="47.31574" lon="6.60195">
        <ele>626</ele>
        <time>2012-04-12T12:38:06Z</time>
      </trkpt>
      <trkpt lat="47.31569" lon="6.60189">
        <ele>627.6</ele>
        <time>2012-04-12T12:38:14Z</time>
      </trkpt>
      <trkpt lat="47.31568" lon="6.60179">
        <ele>626.2</ele>
        <time>2012-04-12T12:38:21Z</time>
      </trkpt>
      <trkpt lat="47.31568" lon="6.60169">
        <ele>625.7</ele>
        <time>2012-04-12T12:38:27Z</time>
      </trkpt>
      <trkpt lat="47.31564" lon="6.60161">
        <ele>621.4</ele>
        <time>2012-04-12T12:38:34Z</time>
      </trkpt>
      <trkpt lat="47.31564" lon="6.60152">
        <ele>619.1</ele>
        <time>2012-04-12T12:38:43Z</time>
      </trkpt>
      <trkpt lat="47.31562" lon="6.60143">
        <ele>618.7</ele>
        <time>2012-04-12T12:38:54Z</time>
      </trkpt>
      <trkpt lat="47.31561" lon="6.60133">
        <ele>616.7</ele>
        <time>2012-04-12T12:39:02Z</time>
      </trkpt>
      <trkpt lat="47.31561" lon="6.60123">
        <ele>615.8</ele>
        <time>2012-04-12T12:39:08Z</time>
      </trkpt>
      <trkpt lat="47.31557" lon="6.60115">
        <ele>617</ele>
        <time>2012-04-12T12:39:13Z</time>
      </trkpt>
      <trkpt lat="47.31557" lon="6.60104">
        <ele>618.7</ele>
        <time>2012-04-12T12:39:20Z</time>
      </trkpt>
      <trkpt lat="47.31558" lon="6.60094">
        <ele>617</ele>
        <time>2012-04-12T12:39:29Z</time>
      </trkpt>
      <trkpt lat="47.31558" lon="6.60094">
        <ele>561.8</ele>
        <time>2012-04-12T12:39:40Z</time>
      </trkpt>
      <trkpt lat="47.31558" lon="6.60094">
        <ele>561.8</ele>
        <time>2012-04-12T12:42:33Z</time>
      </trkpt>
      <trkpt lat="47.31558" lon="6.60094">
        <ele>561.8</ele>
        <time>2012-04-12T12:42:46Z</time>
      </trkpt>
      <trkpt lat="47.31457" lon="6.59975">
        <ele>595.3</ele>
        <time>2012-04-12T12:42:50Z</time>
      </trkpt>
      <trkpt lat="47.31452" lon="6.59968">
        <ele>593.3</ele>
        <time>2012-04-12T12:42:55Z</time>
      </trkpt>
      <trkpt lat="47.31445" lon="6.59963">
        <ele>594</ele>
        <time>2012-04-12T12:43:06Z</time>
      </trkpt>
      <trkpt lat="47.31439" lon="6.59956">
        <ele>592.5</ele>
        <time>2012-04-12T12:43:10Z</time>
      </trkpt>
      <trkpt lat="47.31434" lon="6.5995">
        <ele>592.6</ele>
        <time>2012-04-12T12:43:16Z</time>
      </trkpt>
      <trkpt lat="47.31429" lon="6.5994">
        <ele>591.1</ele>
        <time>2012-04-12T12:43:26Z</time>
      </trkpt>
      <trkpt lat="47.31423" lon="6.59936">
        <ele>587.8</ele>
        <time>2012-04-12T12:43:33Z</time>
      </trkpt>
      <trkpt lat="47.3142" lon="6.59926">
        <ele>587.3</ele>
        <time>2012-04-12T12:43:39Z</time>
      </trkpt>
      <trkpt lat="47.31418" lon="6.59917">
        <ele>588.1</ele>
        <time>2012-04-12T12:43:47Z</time>
      </trkpt>
      <trkpt lat="47.31418" lon="6.59917">
        <ele>531.2</ele>
        <time>2012-04-12T12:43:59Z</time>
      </trkpt>
      <trkpt lat="47.31418" lon="6.59917">
        <ele>531.2</ele>
        <time>2012-04-12T12:43:59Z</time>
      </trkpt>
      <trkpt lat="47.31414" lon="6.59897">
        <ele>584.3</ele>
        <time>2012-04-12T12:44:05Z</time>
      </trkpt>
      <trkpt lat="47.3141" lon="6.59888">
        <ele>583.5</ele>
        <time>2012-04-12T12:44:10Z</time>
      </trkpt>
      <trkpt lat="47.31405" lon="6.59879">
        <ele>581.8</ele>
        <time>2012-04-12T12:44:16Z</time>
      </trkpt>
      <trkpt lat="47.31405" lon="6.59879">
        <ele>528</ele>
        <time>2012-04-12T12:44:27Z</time>
      </trkpt>
      <trkpt lat="47.31405" lon="6.59879">
        <ele>528</ele>
        <time>2012-04-12T12:44:28Z</time>
      </trkpt>
      <trkpt lat="47.31397" lon="6.59863">
        <ele>580.2</ele>
        <time>2012-04-12T12:44:39Z</time>
      </trkpt>
      <trkpt lat="47.31391" lon="6.59851">
        <ele>580.4</ele>
        <time>2012-04-12T12:44:45Z</time>
      </trkpt>
      <trkpt lat="47.31385" lon="6.59844">
        <ele>581.2</ele>
        <time>2012-04-12T12:44:50Z</time>
      </trkpt>
      <trkpt lat="47.3138" lon="6.59838">
        <ele>579</ele>
        <time>2012-04-12T12:44:57Z</time>
      </trkpt>
      <trkpt lat="47.31376" lon="6.5983">
        <ele>576</ele>
        <time>2012-04-12T12:45:02Z</time>
      </trkpt>
      <trkpt lat="47.31376" lon="6.5983">
        <ele>521.8</ele>
        <time>2012-04-12T12:45:13Z</time>
      </trkpt>
      <trkpt lat="47.31376" lon="6.5983">
        <ele>521.8</ele>
        <time>2012-04-12T12:45:16Z</time>
      </trkpt>
      <trkpt lat="47.31365" lon="6.59819">
        <ele>575.1</ele>
        <time>2012-04-12T12:45:25Z</time>
      </trkpt>
      <trkpt lat="47.31358" lon="6.59825">
        <ele>576</ele>
        <time>2012-04-12T12:45:32Z</time>
      </trkpt>
      <trkpt lat="47.31352" lon="6.59829">
        <ele>576.3</ele>
        <time>2012-04-12T12:45:38Z</time>
      </trkpt>
      <trkpt lat="47.31352" lon="6.59829">
        <ele>520</ele>
        <time>2012-04-12T12:45:50Z</time>
      </trkpt>
      <trkpt lat="47.31352" lon="6.59829">
        <ele>520</ele>
        <time>2012-04-12T12:45:50Z</time>
      </trkpt>
      <trkpt lat="47.31338" lon="6.59833">
        <ele>573.7</ele>
        <time>2012-04-12T12:45:58Z</time>
      </trkpt>
      <trkpt lat="47.31332" lon="6.59836">
        <ele>571.4</ele>
        <time>2012-04-12T12:46:07Z</time>
      </trkpt>
      <trkpt lat="47.31325" lon="6.59837">
        <ele>570.2</ele>
        <time>2012-04-12T12:46:12Z</time>
      </trkpt>
      <trkpt lat="47.31325" lon="6.59837">
        <ele>518.5</ele>
        <time>2012-04-12T12:46:23Z</time>
      </trkpt>
      <trkpt lat="47.31325" lon="6.59837">
        <ele>518.5</ele>
        <time>2012-04-12T12:46:57Z</time>
      </trkpt>
      <trkpt lat="47.31312" lon="6.5984">
        <ele>566.6</ele>
        <time>2012-04-12T12:47:05Z</time>
      </trkpt>
      <trkpt lat="47.31305" lon="6.59841">
        <ele>568</ele>
        <time>2012-04-12T12:47:12Z</time>
      </trkpt>
      <trkpt lat="47.31299" lon="6.59845">
        <ele>567.4</ele>
        <time>2012-04-12T12:47:19Z</time>
      </trkpt>
      <trkpt lat="47.31292" lon="6.59844">
        <ele>569.4</ele>
        <time>2012-04-12T12:47:24Z</time>
      </trkpt>
      <trkpt lat="47.31285" lon="6.59844">
        <ele>570.3</ele>
        <time>2012-04-12T12:47:34Z</time>
      </trkpt>
      <trkpt lat="47.31278" lon="6.59847">
        <ele>569.4</ele>
        <time>2012-04-12T12:47:39Z</time>
      </trkpt>
      <trkpt lat="47.31271" lon="6.59845">
        <ele>567.1</ele>
        <time>2012-04-12T12:47:47Z</time>
      </trkpt>
      <trkpt lat="47.31266" lon="6.5984">
        <ele>569.6</ele>
        <time>2012-04-12T12:47:56Z</time>
      </trkpt>
      <trkpt lat="47.31259" lon="6.59839">
        <ele>570</ele>
        <time>2012-04-12T12:48:00Z</time>
      </trkpt>
      <trkpt lat="47.31254" lon="6.59833">
        <ele>572.2</ele>
        <time>2012-04-12T12:48:04Z</time>
      </trkpt>
      <trkpt lat="47.31247" lon="6.5983">
        <ele>572.8</ele>
        <time>2012-04-12T12:48:10Z</time>
      </trkpt>
      <trkpt lat="47.3124" lon="6.59823">
        <ele>572.4</ele>
        <time>2012-04-12T12:48:17Z</time>
      </trkpt>
      <trkpt lat="47.31233" lon="6.59822">
        <ele>571.9</ele>
        <time>2012-04-12T12:48:24Z</time>
      </trkpt>
      <trkpt lat="47.31226" lon="6.59819">
        <ele>570.2</ele>
        <time>2012-04-12T12:48:30Z</time>
      </trkpt>
      <trkpt lat="47.3122" lon="6.59814">
        <ele>570.3</ele>
        <time>2012-04-12T12:48:37Z</time>
      </trkpt>
      <trkpt lat="47.31214" lon="6.59809">
        <ele>569.1</ele>
        <time>2012-04-12T12:48:42Z</time>
      </trkpt>
      <trkpt lat="47.31208" lon="6.59805">
        <ele>569.3</ele>
        <time>2012-04-12T12:48:47Z</time>
      </trkpt>
      <trkpt lat="47.31202" lon="6.59799">
        <ele>567.4</ele>
        <time>2012-04-12T12:48:55Z</time>
      </trkpt>
      <trkpt lat="47.31198" lon="6.59791">
        <ele>566.6</ele>
        <time>2012-04-12T12:49:01Z</time>
      </trkpt>
      <trkpt lat="47.31193" lon="6.59785">
        <ele>567.5</ele>
        <time>2012-04-12T12:49:07Z</time>
      </trkpt>
      <trkpt lat="47.31189" lon="6.59776">
        <ele>568.9</ele>
        <time>2012-04-12T12:49:14Z</time>
      </trkpt>
      <trkpt lat="47.31184" lon="6.5977">
        <ele>567</ele>
        <time>2012-04-12T12:49:20Z</time>
      </trkpt>
      <trkpt lat="47.3118" lon="6.59762">
        <ele>565.8</ele>
        <time>2012-04-12T12:49:27Z</time>
      </trkpt>
      <trkpt lat="47.31176" lon="6.59755">
        <ele>567.5</ele>
        <time>2012-04-12T12:49:33Z</time>
      </trkpt>
      <trkpt lat="47.31173" lon="6.59746">
        <ele>564.7</ele>
        <time>2012-04-12T12:49:40Z</time>
      </trkpt>
      <trkpt lat="47.31168" lon="6.59738">
        <ele>565.5</ele>
        <time>2012-04-12T12:49:48Z</time>
      </trkpt>
      <trkpt lat="47.31163" lon="6.59728">
        <ele>564.7</ele>
        <time>2012-04-12T12:49:57Z</time>
      </trkpt>
      <trkpt lat="47.31158" lon="6.59721">
        <ele>564.7</ele>
        <time>2012-04-12T12:50:01Z</time>
      </trkpt>
      <trkpt lat="47.31155" lon="6.59712">
        <ele>560.8</ele>
        <time>2012-04-12T12:50:05Z</time>
      </trkpt>
      <trkpt lat="47.31152" lon="6.59703">
        <ele>562.8</ele>
        <time>2012-04-12T12:50:12Z</time>
      </trkpt>
      <trkpt lat="47.31145" lon="6.59698">
        <ele>562.4</ele>
        <time>2012-04-12T12:50:18Z</time>
      </trkpt>
      <trkpt lat="47.31145" lon="6.59698">
        <ele>508.3</ele>
        <time>2012-04-12T12:50:29Z</time>
      </trkpt>
      <trkpt lat="47.31145" lon="6.59698">
        <ele>508.3</ele>
        <time>2012-04-12T12:50:41Z</time>
      </trkpt>
      <trkpt lat="47.31145" lon="6.59698">
        <ele>508.3</ele>
        <time>2012-04-12T12:50:52Z</time>
      </trkpt>
      <trkpt lat="47.31145" lon="6.59698">
        <ele>508.3</ele>
        <time>2012-04-12T12:51:09Z</time>
      </trkpt>
      <trkpt lat="47.31128" lon="6.59685">
        <ele>563</ele>
        <time>2012-04-12T12:51:15Z</time>
      </trkpt>
      <trkpt lat="47.31123" lon="6.59678">
        <ele>562.2</ele>
        <time>2012-04-12T12:51:20Z</time>
      </trkpt>
      <trkpt lat="47.31117" lon="6.59681">
        <ele>562.8</ele>
        <time>2012-04-12T12:51:24Z</time>
      </trkpt>
      <trkpt lat="47.31115" lon="6.59672">
        <ele>564.7</ele>
        <time>2012-04-12T12:51:32Z</time>
      </trkpt>
      <trkpt lat="47.31115" lon="6.59672">
        <ele>507.1</ele>
        <time>2012-04-12T12:51:44Z</time>
      </trkpt>
      <trkpt lat="47.31115" lon="6.59672">
        <ele>507.1</ele>
        <time>2012-04-12T12:51:45Z</time>
      </trkpt>
      <trkpt lat="47.31103" lon="6.5966">
        <ele>561.3</ele>
        <time>2012-04-12T12:51:53Z</time>
      </trkpt>
      <trkpt lat="47.31103" lon="6.5966">
        <ele>506.5</ele>
        <time>2012-04-12T12:52:05Z</time>
      </trkpt>
      <trkpt lat="47.31103" lon="6.5966">
        <ele>506.5</ele>
        <time>2012-04-12T12:52:09Z</time>
      </trkpt>
      <trkpt lat="47.31096" lon="6.59644">
        <ele>561.7</ele>
        <time>2012-04-12T12:52:15Z</time>
      </trkpt>
      <trkpt lat="47.3109" lon="6.59638">
        <ele>560.1</ele>
        <time>2012-04-12T12:52:21Z</time>
      </trkpt>
      <trkpt lat="47.31085" lon="6.59632">
        <ele>560.3</ele>
        <time>2012-04-12T12:52:26Z</time>
      </trkpt>
      <trkpt lat="47.31079" lon="6.59626">
        <ele>558</ele>
        <time>2012-04-12T12:52:31Z</time>
      </trkpt>
      <trkpt lat="47.3107" lon="6.59625">
        <ele>558.4</ele>
        <time>2012-04-12T12:52:37Z</time>
      </trkpt>
      <trkpt lat="47.31064" lon="6.59622">
        <ele>558.6</ele>
        <time>2012-04-12T12:52:41Z</time>
      </trkpt>
      <trkpt lat="47.31058" lon="6.59619">
        <ele>560.1</ele>
        <time>2012-04-12T12:52:46Z</time>
      </trkpt>
      <trkpt lat="47.31056" lon="6.59609">
        <ele>560.9</ele>
        <time>2012-04-12T12:52:51Z</time>
      </trkpt>
      <trkpt lat="47.31049" lon="6.59605">
        <ele>559.9</ele>
        <time>2012-04-12T12:52:56Z</time>
      </trkpt>
      <trkpt lat="47.31042" lon="6.59605">
        <ele>560.4</ele>
        <time>2012-04-12T12:53:01Z</time>
      </trkpt>
      <trkpt lat="47.31035" lon="6.59598">
        <ele>559.9</ele>
        <time>2012-04-12T12:53:06Z</time>
      </trkpt>
      <trkpt lat="47.31031" lon="6.5959">
        <ele>558.2</ele>
        <time>2012-04-12T12:53:13Z</time>
      </trkpt>
      <trkpt lat="47.31025" lon="6.59586">
        <ele>558.9</ele>
        <time>2012-04-12T12:53:21Z</time>
      </trkpt>
      <trkpt lat="47.31018" lon="6.59581">
        <ele>557.7</ele>
        <time>2012-04-12T12:53:28Z</time>
      </trkpt>
      <trkpt lat="47.31011" lon="6.59578">
        <ele>557.7</ele>
        <time>2012-04-12T12:53:33Z</time>
      </trkpt>
      <trkpt lat="47.31005" lon="6.59573">
        <ele>560</ele>
        <time>2012-04-12T12:53:39Z</time>
      </trkpt>
      <trkpt lat="47.30998" lon="6.59573">
        <ele>561.1</ele>
        <time>2012-04-12T12:53:43Z</time>
      </trkpt>
      <trkpt lat="47.30992" lon="6.59568">
        <ele>561.5</ele>
        <time>2012-04-12T12:53:48Z</time>
      </trkpt>
      <trkpt lat="47.30986" lon="6.59561">
        <ele>561.3</ele>
        <time>2012-04-12T12:53:58Z</time>
      </trkpt>
      <trkpt lat="47.30979" lon="6.59558">
        <ele>561.1</ele>
        <time>2012-04-12T12:54:04Z</time>
      </trkpt>
      <trkpt lat="47.30972" lon="6.59554">
        <ele>561.3</ele>
        <time>2012-04-12T12:54:08Z</time>
      </trkpt>
      <trkpt lat="47.30972" lon="6.59554">
        <ele>503.1</ele>
        <time>2012-04-12T12:54:19Z</time>
      </trkpt>
      <trkpt lat="47.30972" lon="6.59554">
        <ele>503.1</ele>
        <time>2012-04-12T12:54:22Z</time>
      </trkpt>
      <trkpt lat="47.30972" lon="6.59554">
        <ele>503.1</ele>
        <time>2012-04-12T12:54:34Z</time>
      </trkpt>
      <trkpt lat="47.30972" lon="6.59554">
        <ele>503.1</ele>
        <time>2012-04-12T12:54:34Z</time>
      </trkpt>
      <trkpt lat="47.30956" lon="6.59535">
        <ele>560.8</ele>
        <time>2012-04-12T12:54:39Z</time>
      </trkpt>
      <trkpt lat="47.30948" lon="6.59532">
        <ele>562</ele>
        <time>2012-04-12T12:54:45Z</time>
      </trkpt>
      <trkpt lat="47.30943" lon="6.59525">
        <ele>565.4</ele>
        <time>2012-04-12T12:54:50Z</time>
      </trkpt>
      <trkpt lat="47.30939" lon="6.59517">
        <ele>564.2</ele>
        <time>2012-04-12T12:54:57Z</time>
      </trkpt>
      <trkpt lat="47.30934" lon="6.5951">
        <ele>563</ele>
        <time>2012-04-12T12:55:03Z</time>
      </trkpt>
      <trkpt lat="47.30931" lon="6.59501">
        <ele>562.7</ele>
        <time>2012-04-12T12:55:09Z</time>
      </trkpt>
      <trkpt lat="47.30926" lon="6.59494">
        <ele>562.3</ele>
        <time>2012-04-12T12:55:13Z</time>
      </trkpt>
      <trkpt lat="47.30922" lon="6.59486">
        <ele>561.5</ele>
        <time>2012-04-12T12:55:19Z</time>
      </trkpt>
      <trkpt lat="47.30914" lon="6.59482">
        <ele>562.4</ele>
        <time>2012-04-12T12:55:24Z</time>
      </trkpt>
      <trkpt lat="47.30908" lon="6.59478">
        <ele>562.4</ele>
        <time>2012-04-12T12:55:30Z</time>
      </trkpt>
      <trkpt lat="47.30905" lon="6.5947">
        <ele>561.7</ele>
        <time>2012-04-12T12:55:36Z</time>
      </trkpt>
      <trkpt lat="47.309" lon="6.59462">
        <ele>562.5</ele>
        <time>2012-04-12T12:55:44Z</time>
      </trkpt>
      <trkpt lat="47.30894" lon="6.59459">
        <ele>563.2</ele>
        <time>2012-04-12T12:55:51Z</time>
      </trkpt>
      <trkpt lat="47.30888" lon="6.59455">
        <ele>562</ele>
        <time>2012-04-12T12:55:57Z</time>
      </trkpt>
      <trkpt lat="47.30881" lon="6.59452">
        <ele>562.5</ele>
        <time>2012-04-12T12:56:03Z</time>
      </trkpt>
      <trkpt lat="47.30874" lon="6.59449">
        <ele>561</ele>
        <time>2012-04-12T12:56:10Z</time>
      </trkpt>
      <trkpt lat="47.30867" lon="6.59449">
        <ele>560.4</ele>
        <time>2012-04-12T12:56:17Z</time>
      </trkpt>
      <trkpt lat="47.3086" lon="6.59448">
        <ele>559.6</ele>
        <time>2012-04-12T12:56:22Z</time>
      </trkpt>
      <trkpt lat="47.30854" lon="6.59448">
        <ele>559.3</ele>
        <time>2012-04-12T12:56:28Z</time>
      </trkpt>
      <trkpt lat="47.30847" lon="6.59445">
        <ele>559</ele>
        <time>2012-04-12T12:56:34Z</time>
      </trkpt>
      <trkpt lat="47.30841" lon="6.5945">
        <ele>556.3</ele>
        <time>2012-04-12T12:56:38Z</time>
      </trkpt>
      <trkpt lat="47.30835" lon="6.59447">
        <ele>557.9</ele>
        <time>2012-04-12T12:56:43Z</time>
      </trkpt>
      <trkpt lat="47.30828" lon="6.59443">
        <ele>559</ele>
        <time>2012-04-12T12:56:49Z</time>
      </trkpt>
      <trkpt lat="47.30823" lon="6.59436">
        <ele>558.9</ele>
        <time>2012-04-12T12:57:00Z</time>
      </trkpt>
      <trkpt lat="47.30819" lon="6.5943">
        <ele>560.3</ele>
        <time>2012-04-12T12:57:08Z</time>
      </trkpt>
      <trkpt lat="47.30812" lon="6.5943">
        <ele>559.7</ele>
        <time>2012-04-12T12:57:12Z</time>
      </trkpt>
      <trkpt lat="47.30805" lon="6.59432">
        <ele>560.4</ele>
        <time>2012-04-12T12:57:18Z</time>
      </trkpt>
      <trkpt lat="47.30799" lon="6.59434">
        <ele>561.8</ele>
        <time>2012-04-12T12:57:23Z</time>
      </trkpt>
      <trkpt lat="47.30792" lon="6.59439">
        <ele>561.2</ele>
        <time>2012-04-12T12:57:29Z</time>
      </trkpt>
      <trkpt lat="47.30787" lon="6.59433">
        <ele>561.1</ele>
        <time>2012-04-12T12:57:35Z</time>
      </trkpt>
      <trkpt lat="47.30781" lon="6.59428">
        <ele>559.8</ele>
        <time>2012-04-12T12:57:41Z</time>
      </trkpt>
      <trkpt lat="47.30776" lon="6.59434">
        <ele>558.4</ele>
        <time>2012-04-12T12:57:46Z</time>
      </trkpt>
      <trkpt lat="47.3077" lon="6.59434">
        <ele>556.1</ele>
        <time>2012-04-12T12:57:52Z</time>
      </trkpt>
      <trkpt lat="47.30762" lon="6.59436">
        <ele>556.2</ele>
        <time>2012-04-12T12:58:00Z</time>
      </trkpt>
      <trkpt lat="47.30756" lon="6.59438">
        <ele>556.1</ele>
        <time>2012-04-12T12:58:05Z</time>
      </trkpt>
      <trkpt lat="47.30749" lon="6.59441">
        <ele>556.7</ele>
        <time>2012-04-12T12:58:09Z</time>
      </trkpt>
      <trkpt lat="47.30743" lon="6.59436">
        <ele>554.3</ele>
        <time>2012-04-12T12:58:16Z</time>
      </trkpt>
      <trkpt lat="47.30736" lon="6.59432">
        <ele>552.3</ele>
        <time>2012-04-12T12:58:21Z</time>
      </trkpt>
      <trkpt lat="47.30733" lon="6.59422">
        <ele>551.8</ele>
        <time>2012-04-12T12:58:27Z</time>
      </trkpt>
      <trkpt lat="47.30727" lon="6.59418">
        <ele>554.2</ele>
        <time>2012-04-12T12:58:34Z</time>
      </trkpt>
      <trkpt lat="47.3072" lon="6.59422">
        <ele>552.3</ele>
        <time>2012-04-12T12:58:39Z</time>
      </trkpt>
      <trkpt lat="47.30713" lon="6.59424">
        <ele>553.4</ele>
        <time>2012-04-12T12:58:44Z</time>
      </trkpt>
      <trkpt lat="47.30707" lon="6.59431">
        <ele>551.9</ele>
        <time>2012-04-12T12:58:48Z</time>
      </trkpt>
      <trkpt lat="47.307" lon="6.59431">
        <ele>552.9</ele>
        <time>2012-04-12T12:58:54Z</time>
      </trkpt>
      <trkpt lat="47.30693" lon="6.59431">
        <ele>551.9</ele>
        <time>2012-04-12T12:59:00Z</time>
      </trkpt>
      <trkpt lat="47.30687" lon="6.59437">
        <ele>554</ele>
        <time>2012-04-12T12:59:05Z</time>
      </trkpt>
      <trkpt lat="47.3068" lon="6.59438">
        <ele>555.2</ele>
        <time>2012-04-12T12:59:10Z</time>
      </trkpt>
      <trkpt lat="47.30674" lon="6.59435">
        <ele>555.6</ele>
        <time>2012-04-12T12:59:16Z</time>
      </trkpt>
      <trkpt lat="47.30669" lon="6.59442">
        <ele>557</ele>
        <time>2012-04-12T12:59:20Z</time>
      </trkpt>
      <trkpt lat="47.30662" lon="6.59443">
        <ele>556.2</ele>
        <time>2012-04-12T12:59:26Z</time>
      </trkpt>
      <trkpt lat="47.3066" lon="6.59431">
        <ele>556.3</ele>
        <time>2012-04-12T12:59:37Z</time>
      </trkpt>
      <trkpt lat="47.30654" lon="6.59433">
        <ele>555.6</ele>
        <time>2012-04-12T12:59:41Z</time>
      </trkpt>
      <trkpt lat="47.30646" lon="6.59428">
        <ele>553.2</ele>
        <time>2012-04-12T12:59:47Z</time>
      </trkpt>
      <trkpt lat="47.3064" lon="6.59423">
        <ele>549.9</ele>
        <time>2012-04-12T12:59:53Z</time>
      </trkpt>
      <trkpt lat="47.30633" lon="6.5943">
        <ele>549.4</ele>
        <time>2012-04-12T12:59:57Z</time>
      </trkpt>
      <trkpt lat="47.30626" lon="6.59427">
        <ele>551.8</ele>
        <time>2012-04-12T13:00:02Z</time>
      </trkpt>
      <trkpt lat="47.30619" lon="6.59423">
        <ele>550.6</ele>
        <time>2012-04-12T13:00:08Z</time>
      </trkpt>
      <trkpt lat="47.30611" lon="6.59429">
        <ele>550.5</ele>
        <time>2012-04-12T13:00:13Z</time>
      </trkpt>
      <trkpt lat="47.30604" lon="6.59431">
        <ele>552</ele>
        <time>2012-04-12T13:00:17Z</time>
      </trkpt>
      <trkpt lat="47.30598" lon="6.59427">
        <ele>552.5</ele>
        <time>2012-04-12T13:00:25Z</time>
      </trkpt>
      <trkpt lat="47.30592" lon="6.59421">
        <ele>554.4</ele>
        <time>2012-04-12T13:00:32Z</time>
      </trkpt>
      <trkpt lat="47.30585" lon="6.59426">
        <ele>555.1</ele>
        <time>2012-04-12T13:00:37Z</time>
      </trkpt>
      <trkpt lat="47.30579" lon="6.59434">
        <ele>555.7</ele>
        <time>2012-04-12T13:00:40Z</time>
      </trkpt>
      <trkpt lat="47.30574" lon="6.59442">
        <ele>555</ele>
        <time>2012-04-12T13:00:43Z</time>
      </trkpt>
      <trkpt lat="47.30569" lon="6.59449">
        <ele>553.8</ele>
        <time>2012-04-12T13:00:47Z</time>
      </trkpt>
      <trkpt lat="47.30561" lon="6.5945">
        <ele>554.7</ele>
        <time>2012-04-12T13:00:52Z</time>
      </trkpt>
      <trkpt lat="47.30554" lon="6.59447">
        <ele>551.9</ele>
        <time>2012-04-12T13:01:00Z</time>
      </trkpt>
      <trkpt lat="47.30548" lon="6.59446">
        <ele>551.6</ele>
        <time>2012-04-12T13:01:06Z</time>
      </trkpt>
      <trkpt lat="47.30544" lon="6.59438">
        <ele>552.2</ele>
        <time>2012-04-12T13:01:09Z</time>
      </trkpt>
      <trkpt lat="47.30537" lon="6.59438">
        <ele>550.6</ele>
        <time>2012-04-12T13:01:16Z</time>
      </trkpt>
      <trkpt lat="47.30532" lon="6.59445">
        <ele>550.5</ele>
        <time>2012-04-12T13:01:19Z</time>
      </trkpt>
      <trkpt lat="47.30525" lon="6.59442">
        <ele>548.4</ele>
        <time>2012-04-12T13:01:25Z</time>
      </trkpt>
      <trkpt lat="47.30517" lon="6.59445">
        <ele>554.1</ele>
        <time>2012-04-12T13:01:30Z</time>
      </trkpt>
      <trkpt lat="47.30511" lon="6.59446">
        <ele>555.2</ele>
        <time>2012-04-12T13:01:35Z</time>
      </trkpt>
      <trkpt lat="47.30506" lon="6.59439">
        <ele>552.8</ele>
        <time>2012-04-12T13:01:40Z</time>
      </trkpt>
      <trkpt lat="47.30499" lon="6.59437">
        <ele>551.6</ele>
        <time>2012-04-12T13:01:45Z</time>
      </trkpt>
      <trkpt lat="47.30495" lon="6.59426">
        <ele>550.6</ele>
        <time>2012-04-12T13:01:51Z</time>
      </trkpt>
      <trkpt lat="47.3049" lon="6.59419">
        <ele>551.9</ele>
        <time>2012-04-12T13:01:55Z</time>
      </trkpt>
      <trkpt lat="47.30485" lon="6.59409">
        <ele>552.6</ele>
        <time>2012-04-12T13:01:59Z</time>
      </trkpt>
      <trkpt lat="47.30481" lon="6.59402">
        <ele>554.2</ele>
        <time>2012-04-12T13:02:06Z</time>
      </trkpt>
      <trkpt lat="47.30476" lon="6.59394">
        <ele>554.8</ele>
        <time>2012-04-12T13:02:10Z</time>
      </trkpt>
      <trkpt lat="47.30471" lon="6.59386">
        <ele>556.1</ele>
        <time>2012-04-12T13:02:16Z</time>
      </trkpt>
      <trkpt lat="47.30468" lon="6.59377">
        <ele>555</ele>
        <time>2012-04-12T13:02:20Z</time>
      </trkpt>
      <trkpt lat="47.30462" lon="6.59371">
        <ele>554.2</ele>
        <time>2012-04-12T13:02:26Z</time>
      </trkpt>
      <trkpt lat="47.30457" lon="6.59364">
        <ele>553.3</ele>
        <time>2012-04-12T13:02:31Z</time>
      </trkpt>
      <trkpt lat="47.30452" lon="6.59358">
        <ele>556.8</ele>
        <time>2012-04-12T13:02:38Z</time>
      </trkpt>
      <trkpt lat="47.30449" lon="6.5935">
        <ele>556</ele>
        <time>2012-04-12T13:02:44Z</time>
      </trkpt>
      <trkpt lat="47.30442" lon="6.59348">
        <ele>555.1</ele>
        <time>2012-04-12T13:02:50Z</time>
      </trkpt>
      <trkpt lat="47.30439" lon="6.59339">
        <ele>555.7</ele>
        <time>2012-04-12T13:02:54Z</time>
      </trkpt>
      <trkpt lat="47.30432" lon="6.59343">
        <ele>555.4</ele>
        <time>2012-04-12T13:02:59Z</time>
      </trkpt>
      <trkpt lat="47.30426" lon="6.59335">
        <ele>554.6</ele>
        <time>2012-04-12T13:03:06Z</time>
      </trkpt>
      <trkpt lat="47.30424" lon="6.59325">
        <ele>553.7</ele>
        <time>2012-04-12T13:03:13Z</time>
      </trkpt>
      <trkpt lat="47.30424" lon="6.59325">
        <ele>498.2</ele>
        <time>2012-04-12T13:03:24Z</time>
      </trkpt>
      <trkpt lat="47.30424" lon="6.59325">
        <ele>498.2</ele>
        <time>2012-04-12T13:03:30Z</time>
      </trkpt>
      <trkpt lat="47.30413" lon="6.59318">
        <ele>552.1</ele>
        <time>2012-04-12T13:03:39Z</time>
      </trkpt>
      <trkpt lat="47.30411" lon="6.5931">
        <ele>551.8</ele>
        <time>2012-04-12T13:03:45Z</time>
      </trkpt>
      <trkpt lat="47.30411" lon="6.5931">
        <ele>498.6</ele>
        <time>2012-04-12T13:03:57Z</time>
      </trkpt>
      <trkpt lat="47.30411" lon="6.5931">
        <ele>498.6</ele>
        <time>2012-04-12T13:04:01Z</time>
      </trkpt>
      <trkpt lat="47.30411" lon="6.5931">
        <ele>498.6</ele>
        <time>2012-04-12T13:04:13Z</time>
      </trkpt>
      <trkpt lat="47.30411" lon="6.5931">
        <ele>498.6</ele>
        <time>2012-04-12T13:04:27Z</time>
      </trkpt>
      <trkpt lat="47.30396" lon="6.59297">
        <ele>551.2</ele>
        <time>2012-04-12T13:04:31Z</time>
      </trkpt>
      <trkpt lat="47.30391" lon="6.59291">
        <ele>552.7</ele>
        <time>2012-04-12T13:04:35Z</time>
      </trkpt>
      <trkpt lat="47.30386" lon="6.59285">
        <ele>554.3</ele>
        <time>2012-04-12T13:04:42Z</time>
      </trkpt>
      <trkpt lat="47.3038" lon="6.59279">
        <ele>554.7</ele>
        <time>2012-04-12T13:04:48Z</time>
      </trkpt>
      <trkpt lat="47.30374" lon="6.59276">
        <ele>555.7</ele>
        <time>2012-04-12T13:04:54Z</time>
      </trkpt>
      <trkpt lat="47.30369" lon="6.59266">
        <ele>555.2</ele>
        <time>2012-04-12T13:05:00Z</time>
      </trkpt>
      <trkpt lat="47.30364" lon="6.59259">
        <ele>553.6</ele>
        <time>2012-04-12T13:05:06Z</time>
      </trkpt>
      <trkpt lat="47.30364" lon="6.59259">
        <ele>500.1</ele>
        <time>2012-04-12T13:05:17Z</time>
      </trkpt>
      <trkpt lat="47.30364" lon="6.59259">
        <ele>500.1</ele>
        <time>2012-04-12T13:05:19Z</time>
      </trkpt>
      <trkpt lat="47.30364" lon="6.59259">
        <ele>500.1</ele>
        <time>2012-04-12T13:05:30Z</time>
      </trkpt>
      <trkpt lat="47.30364" lon="6.59259">
        <ele>500.1</ele>
        <time>2012-04-12T13:05:33Z</time>
      </trkpt>
      <trkpt lat="47.30351" lon="6.59236">
        <ele>545.1</ele>
        <time>2012-04-12T13:05:40Z</time>
      </trkpt>
      <trkpt lat="47.30347" lon="6.59227">
        <ele>543.1</ele>
        <time>2012-04-12T13:05:47Z</time>
      </trkpt>
      <trkpt lat="47.30347" lon="6.59227">
        <ele>500.2</ele>
        <time>2012-04-12T13:05:58Z</time>
      </trkpt>
      <trkpt lat="47.30347" lon="6.59227">
        <ele>500.2</ele>
        <time>2012-04-12T13:06:07Z</time>
      </trkpt>
      <trkpt lat="47.30347" lon="6.59227">
        <ele>500.2</ele>
        <time>2012-04-12T13:06:18Z</time>
      </trkpt>
      <trkpt lat="47.30347" lon="6.59227">
        <ele>500.2</ele>
        <time>2012-04-12T13:06:25Z</time>
      </trkpt>
      <trkpt lat="47.30321" lon="6.59229">
        <ele>546.3</ele>
        <time>2012-04-12T13:06:27Z</time>
      </trkpt>
      <trkpt lat="47.30314" lon="6.59229">
        <ele>548.1</ele>
        <time>2012-04-12T13:06:32Z</time>
      </trkpt>
      <trkpt lat="47.30309" lon="6.59222">
        <ele>546.6</ele>
        <time>2012-04-12T13:06:38Z</time>
      </trkpt>
      <trkpt lat="47.30303" lon="6.59217">
        <ele>545.9</ele>
        <time>2012-04-12T13:06:44Z</time>
      </trkpt>
      <trkpt lat="47.30297" lon="6.59213">
        <ele>544.9</ele>
        <time>2012-04-12T13:06:49Z</time>
      </trkpt>
      <trkpt lat="47.30297" lon="6.59213">
        <ele>504.1</ele>
        <time>2012-04-12T13:07:00Z</time>
      </trkpt>
      <trkpt lat="47.30297" lon="6.59213">
        <ele>504.1</ele>
        <time>2012-04-12T13:07:32Z</time>
      </trkpt>
      <trkpt lat="47.30311" lon="6.59212">
        <ele>550.1</ele>
        <time>2012-04-12T13:07:37Z</time>
      </trkpt>
      <trkpt lat="47.30311" lon="6.59212">
        <ele>502.8</ele>
        <time>2012-04-12T13:07:49Z</time>
      </trkpt>
      <trkpt lat="47.30311" lon="6.59212">
        <ele>502.8</ele>
        <time>2012-04-12T13:07:56Z</time>
      </trkpt>
      <trkpt lat="47.3032" lon="6.59207">
        <ele>547.5</ele>
        <time>2012-04-12T13:08:04Z</time>
      </trkpt>
      <trkpt lat="47.30322" lon="6.59198">
        <ele>546.1</ele>
        <time>2012-04-12T13:08:09Z</time>
      </trkpt>
      <trkpt lat="47.30327" lon="6.59193">
        <ele>546.6</ele>
        <time>2012-04-12T13:08:18Z</time>
      </trkpt>
      <trkpt lat="47.30327" lon="6.59193">
        <ele>500.4</ele>
        <time>2012-04-12T13:08:29Z</time>
      </trkpt>
      <trkpt lat="47.30327" lon="6.59193">
        <ele>500.4</ele>
        <time>2012-04-12T13:08:31Z</time>
      </trkpt>
      <trkpt lat="47.30323" lon="6.59176">
        <ele>549.7</ele>
        <time>2012-04-12T13:08:36Z</time>
      </trkpt>
      <trkpt lat="47.3032" lon="6.59168">
        <ele>551</ele>
        <time>2012-04-12T13:08:41Z</time>
      </trkpt>
      <trkpt lat="47.30313" lon="6.59164">
        <ele>550.8</ele>
        <time>2012-04-12T13:08:46Z</time>
      </trkpt>
      <trkpt lat="47.3031" lon="6.59156">
        <ele>551.4</ele>
        <time>2012-04-12T13:08:52Z</time>
      </trkpt>
      <trkpt lat="47.30304" lon="6.59152">
        <ele>552.1</ele>
        <time>2012-04-12T13:08:58Z</time>
      </trkpt>
      <trkpt lat="47.30307" lon="6.59143">
        <ele>549</ele>
        <time>2012-04-12T13:09:04Z</time>
      </trkpt>
      <trkpt lat="47.30307" lon="6.59143">
        <ele>499.2</ele>
        <time>2012-04-12T13:09:15Z</time>
      </trkpt>
      <trkpt lat="47.30307" lon="6.59143">
        <ele>499.2</ele>
        <time>2012-04-12T13:09:17Z</time>
      </trkpt>
      <trkpt lat="47.30295" lon="6.59135">
        <ele>549.5</ele>
        <time>2012-04-12T13:09:23Z</time>
      </trkpt>
      <trkpt lat="47.30293" lon="6.59125">
        <ele>547.1</ele>
        <time>2012-04-12T13:09:27Z</time>
      </trkpt>
      <trkpt lat="47.30293" lon="6.59125">
        <ele>499</ele>
        <time>2012-04-12T13:09:38Z</time>
      </trkpt>
      <trkpt lat="47.30293" lon="6.59125">
        <ele>499</ele>
        <time>2012-04-12T13:09:54Z</time>
      </trkpt>
    </trkseg>
  </trk>
</gpx>